<?xml version="1.0" encoding="UTF-8" standalone="no" ?>
<gpx xmlns="http://www.topografix.com/GPX/1/1" xmlns:xsi="http://www.w3.org/2001/XMLSchema-instance" xsi:schemaLocation="http://www.topografix.com/GPX/1/1 http://www.topografix.com/GPX/1/1/gpx.xsd" version="1.1" creator="VisuGPX - https://www.visugpx.com">
  <metadata>
    <name>Revel-de nardi-revel</name>
    <desc><![CDATA[File with points/tracks from Locus Map/4.4.3]]></desc>
  </metadata>
  <trk>
    <name><![CDATA[2021-11-07 14:44]]></name>
    <extensions>
      <line xmlns="http://www.topografix.com/GPX/gpx_style/0/2">
        <color>0000FF</color>
        <opacity>0.59</opacity>
        <width>6.0</width>
      </line>
    </extensions>
    <trkseg>
      <trkpt lat="45.18393" lon="5.87382">
        <ele>674.15</ele>
        <time>2021-11-07T13:44:25.000Z</time>
      </trkpt>
      <trkpt lat="45.18384" lon="5.87393">
        <ele>674.59</ele>
        <time>2021-11-07T13:44:32.000Z</time>
      </trkpt>
      <trkpt lat="45.18375" lon="5.87401">
        <ele>675.58</ele>
        <time>2021-11-07T13:44:37.000Z</time>
      </trkpt>
      <trkpt lat="45.18385" lon="5.87396">
        <ele>676.49</ele>
        <time>2021-11-07T13:45:08.000Z</time>
      </trkpt>
      <trkpt lat="45.18389" lon="5.87364">
        <ele>675.93</ele>
        <time>2021-11-07T13:45:13.000Z</time>
      </trkpt>
      <trkpt lat="45.18383" lon="5.87317">
        <ele>677.3</ele>
        <time>2021-11-07T13:45:18.000Z</time>
      </trkpt>
      <trkpt lat="45.18387" lon="5.87269">
        <ele>676.35</ele>
        <time>2021-11-07T13:45:23.000Z</time>
      </trkpt>
      <trkpt lat="45.18403" lon="5.87233">
        <ele>671.5</ele>
        <time>2021-11-07T13:45:28.000Z</time>
      </trkpt>
      <trkpt lat="45.18426" lon="5.87204">
        <ele>668.57</ele>
        <time>2021-11-07T13:45:33.000Z</time>
      </trkpt>
      <trkpt lat="45.18434" lon="5.87186">
        <ele>669.02</ele>
        <time>2021-11-07T13:45:38.000Z</time>
      </trkpt>
      <trkpt lat="45.18415" lon="5.87164">
        <ele>668.82</ele>
        <time>2021-11-07T13:45:43.000Z</time>
      </trkpt>
      <trkpt lat="45.18412" lon="5.87108">
        <ele>662.09</ele>
        <time>2021-11-07T13:45:48.000Z</time>
      </trkpt>
      <trkpt lat="45.18464" lon="5.87095">
        <ele>662.7</ele>
        <time>2021-11-07T13:45:53.000Z</time>
      </trkpt>
      <trkpt lat="45.18505" lon="5.87071">
        <ele>657.46</ele>
        <time>2021-11-07T13:45:58.000Z</time>
      </trkpt>
      <trkpt lat="45.18546" lon="5.8706">
        <ele>652.55</ele>
        <time>2021-11-07T13:46:03.000Z</time>
      </trkpt>
      <trkpt lat="45.18577" lon="5.87024">
        <ele>649.8</ele>
        <time>2021-11-07T13:46:08.000Z</time>
      </trkpt>
      <trkpt lat="45.18591" lon="5.86971">
        <ele>644</ele>
        <time>2021-11-07T13:46:13.000Z</time>
      </trkpt>
      <trkpt lat="45.18588" lon="5.86919">
        <ele>642.59</ele>
        <time>2021-11-07T13:46:18.000Z</time>
      </trkpt>
      <trkpt lat="45.18577" lon="5.86868">
        <ele>642.75</ele>
        <time>2021-11-07T13:46:23.000Z</time>
      </trkpt>
      <trkpt lat="45.18602" lon="5.86892">
        <ele>638.87</ele>
        <time>2021-11-07T13:46:28.000Z</time>
      </trkpt>
      <trkpt lat="45.18625" lon="5.86928">
        <ele>638.89</ele>
        <time>2021-11-07T13:46:33.000Z</time>
      </trkpt>
      <trkpt lat="45.18657" lon="5.86908">
        <ele>634.01</ele>
        <time>2021-11-07T13:46:38.000Z</time>
      </trkpt>
      <trkpt lat="45.18665" lon="5.86836">
        <ele>626.38</ele>
        <time>2021-11-07T13:46:43.000Z</time>
      </trkpt>
      <trkpt lat="45.18701" lon="5.86769">
        <ele>618.62</ele>
        <time>2021-11-07T13:46:48.000Z</time>
      </trkpt>
      <trkpt lat="45.18744" lon="5.86704">
        <ele>610.95</ele>
        <time>2021-11-07T13:46:53.000Z</time>
      </trkpt>
      <trkpt lat="45.18787" lon="5.86635">
        <ele>605.98</ele>
        <time>2021-11-07T13:46:58.000Z</time>
      </trkpt>
      <trkpt lat="45.18789" lon="5.86544">
        <ele>598.66</ele>
        <time>2021-11-07T13:47:03.000Z</time>
      </trkpt>
      <trkpt lat="45.18778" lon="5.86473">
        <ele>595.26</ele>
        <time>2021-11-07T13:47:08.000Z</time>
      </trkpt>
      <trkpt lat="45.18822" lon="5.8645">
        <ele>593.23</ele>
        <time>2021-11-07T13:47:13.000Z</time>
      </trkpt>
      <trkpt lat="45.18866" lon="5.86408">
        <ele>585.21</ele>
        <time>2021-11-07T13:47:18.000Z</time>
      </trkpt>
      <trkpt lat="45.18901" lon="5.86341">
        <ele>579.37</ele>
        <time>2021-11-07T13:47:23.000Z</time>
      </trkpt>
      <trkpt lat="45.18917" lon="5.86256">
        <ele>576.31</ele>
        <time>2021-11-07T13:47:28.000Z</time>
      </trkpt>
      <trkpt lat="45.18933" lon="5.86168">
        <ele>575.91</ele>
        <time>2021-11-07T13:47:33.000Z</time>
      </trkpt>
      <trkpt lat="45.18942" lon="5.86076">
        <ele>570.58</ele>
        <time>2021-11-07T13:47:38.000Z</time>
      </trkpt>
      <trkpt lat="45.1896" lon="5.85989">
        <ele>571.59</ele>
        <time>2021-11-07T13:47:43.000Z</time>
      </trkpt>
      <trkpt lat="45.18957" lon="5.85902">
        <ele>570.03</ele>
        <time>2021-11-07T13:47:48.000Z</time>
      </trkpt>
      <trkpt lat="45.18951" lon="5.85819">
        <ele>564.6</ele>
        <time>2021-11-07T13:47:53.000Z</time>
      </trkpt>
      <trkpt lat="45.18941" lon="5.85734">
        <ele>557.55</ele>
        <time>2021-11-07T13:47:58.000Z</time>
      </trkpt>
      <trkpt lat="45.18932" lon="5.85645">
        <ele>548.47</ele>
        <time>2021-11-07T13:48:03.000Z</time>
      </trkpt>
      <trkpt lat="45.18964" lon="5.8557">
        <ele>537.08</ele>
        <time>2021-11-07T13:48:08.000Z</time>
      </trkpt>
      <trkpt lat="45.19003" lon="5.85507">
        <ele>534.71</ele>
        <time>2021-11-07T13:48:13.000Z</time>
      </trkpt>
      <trkpt lat="45.19066" lon="5.85484">
        <ele>528.71</ele>
        <time>2021-11-07T13:48:18.000Z</time>
      </trkpt>
      <trkpt lat="45.1912" lon="5.85445">
        <ele>517.55</ele>
        <time>2021-11-07T13:48:23.000Z</time>
      </trkpt>
      <trkpt lat="45.1917" lon="5.85393">
        <ele>514</ele>
        <time>2021-11-07T13:48:28.000Z</time>
      </trkpt>
      <trkpt lat="45.19231" lon="5.85369">
        <ele>505.68</ele>
        <time>2021-11-07T13:48:33.000Z</time>
      </trkpt>
      <trkpt lat="45.19293" lon="5.8534">
        <ele>498.42</ele>
        <time>2021-11-07T13:48:38.000Z</time>
      </trkpt>
      <trkpt lat="45.19342" lon="5.85335">
        <ele>496.24</ele>
        <time>2021-11-07T13:48:43.000Z</time>
      </trkpt>
      <trkpt lat="45.19377" lon="5.85385">
        <ele>494.74</ele>
        <time>2021-11-07T13:48:48.000Z</time>
      </trkpt>
      <trkpt lat="45.19381" lon="5.85322">
        <ele>489.96</ele>
        <time>2021-11-07T13:48:53.000Z</time>
      </trkpt>
      <trkpt lat="45.1938" lon="5.85252">
        <ele>488.37</ele>
        <time>2021-11-07T13:48:58.000Z</time>
      </trkpt>
      <trkpt lat="45.194" lon="5.85191">
        <ele>491.24</ele>
        <time>2021-11-07T13:49:03.000Z</time>
      </trkpt>
      <trkpt lat="45.19453" lon="5.85186">
        <ele>484.18</ele>
        <time>2021-11-07T13:49:08.000Z</time>
      </trkpt>
      <trkpt lat="45.19474" lon="5.8513">
        <ele>484.27</ele>
        <time>2021-11-07T13:49:13.000Z</time>
      </trkpt>
      <trkpt lat="45.1949" lon="5.85045">
        <ele>480.59</ele>
        <time>2021-11-07T13:49:18.000Z</time>
      </trkpt>
      <trkpt lat="45.19543" lon="5.85003">
        <ele>473.27</ele>
        <time>2021-11-07T13:49:23.000Z</time>
      </trkpt>
      <trkpt lat="45.19596" lon="5.84959">
        <ele>468.75</ele>
        <time>2021-11-07T13:49:28.000Z</time>
      </trkpt>
      <trkpt lat="45.1965" lon="5.84902">
        <ele>458.53</ele>
        <time>2021-11-07T13:49:33.000Z</time>
      </trkpt>
      <trkpt lat="45.19704" lon="5.84856">
        <ele>452.23</ele>
        <time>2021-11-07T13:49:38.000Z</time>
      </trkpt>
      <trkpt lat="45.19768" lon="5.84817">
        <ele>449.6</ele>
        <time>2021-11-07T13:49:43.000Z</time>
      </trkpt>
      <trkpt lat="45.19821" lon="5.84772">
        <ele>447.45</ele>
        <time>2021-11-07T13:49:48.000Z</time>
      </trkpt>
      <trkpt lat="45.19869" lon="5.84778">
        <ele>443.76</ele>
        <time>2021-11-07T13:49:53.000Z</time>
      </trkpt>
      <trkpt lat="45.1985" lon="5.84712">
        <ele>439.35</ele>
        <time>2021-11-07T13:49:58.000Z</time>
      </trkpt>
      <trkpt lat="45.19879" lon="5.84646">
        <ele>430.68</ele>
        <time>2021-11-07T13:50:03.000Z</time>
      </trkpt>
      <trkpt lat="45.19927" lon="5.84586">
        <ele>422.12</ele>
        <time>2021-11-07T13:50:08.000Z</time>
      </trkpt>
      <trkpt lat="45.19952" lon="5.84505">
        <ele>416.49</ele>
        <time>2021-11-07T13:50:13.000Z</time>
      </trkpt>
      <trkpt lat="45.19996" lon="5.84476">
        <ele>411.11</ele>
        <time>2021-11-07T13:50:18.000Z</time>
      </trkpt>
      <trkpt lat="45.20046" lon="5.84458">
        <ele>410.47</ele>
        <time>2021-11-07T13:50:23.000Z</time>
      </trkpt>
      <trkpt lat="45.20105" lon="5.84482">
        <ele>401.21</ele>
        <time>2021-11-07T13:50:28.000Z</time>
      </trkpt>
      <trkpt lat="45.20141" lon="5.84551">
        <ele>395.83</ele>
        <time>2021-11-07T13:50:33.000Z</time>
      </trkpt>
      <trkpt lat="45.20172" lon="5.84622">
        <ele>392.9</ele>
        <time>2021-11-07T13:50:38.000Z</time>
      </trkpt>
      <trkpt lat="45.20221" lon="5.84696">
        <ele>388.84</ele>
        <time>2021-11-07T13:50:43.000Z</time>
      </trkpt>
      <trkpt lat="45.20271" lon="5.84757">
        <ele>383.92</ele>
        <time>2021-11-07T13:50:48.000Z</time>
      </trkpt>
      <trkpt lat="45.20295" lon="5.84846">
        <ele>377.12</ele>
        <time>2021-11-07T13:50:53.000Z</time>
      </trkpt>
      <trkpt lat="45.20332" lon="5.84925">
        <ele>371.65</ele>
        <time>2021-11-07T13:50:58.000Z</time>
      </trkpt>
      <trkpt lat="45.2037" lon="5.85007">
        <ele>367.45</ele>
        <time>2021-11-07T13:51:03.000Z</time>
      </trkpt>
      <trkpt lat="45.20405" lon="5.85076">
        <ele>363.58</ele>
        <time>2021-11-07T13:51:08.000Z</time>
      </trkpt>
      <trkpt lat="45.20419" lon="5.85112">
        <ele>353.48</ele>
        <time>2021-11-07T13:51:13.000Z</time>
      </trkpt>
      <trkpt lat="45.20412" lon="5.8507">
        <ele>347.19</ele>
        <time>2021-11-07T13:51:18.000Z</time>
      </trkpt>
      <trkpt lat="45.20388" lon="5.85012">
        <ele>343</ele>
        <time>2021-11-07T13:51:23.000Z</time>
      </trkpt>
      <trkpt lat="45.20372" lon="5.8494">
        <ele>338.08</ele>
        <time>2021-11-07T13:51:28.000Z</time>
      </trkpt>
      <trkpt lat="45.20345" lon="5.84876">
        <ele>329.94</ele>
        <time>2021-11-07T13:51:33.000Z</time>
      </trkpt>
      <trkpt lat="45.20324" lon="5.84806">
        <ele>321.87</ele>
        <time>2021-11-07T13:51:38.000Z</time>
      </trkpt>
      <trkpt lat="45.20315" lon="5.84726">
        <ele>315.26</ele>
        <time>2021-11-07T13:51:43.000Z</time>
      </trkpt>
      <trkpt lat="45.20294" lon="5.84646">
        <ele>313.92</ele>
        <time>2021-11-07T13:51:48.000Z</time>
      </trkpt>
      <trkpt lat="45.20265" lon="5.84564">
        <ele>307.03</ele>
        <time>2021-11-07T13:51:53.000Z</time>
      </trkpt>
      <trkpt lat="45.20242" lon="5.84465">
        <ele>299.1</ele>
        <time>2021-11-07T13:51:58.000Z</time>
      </trkpt>
      <trkpt lat="45.20216" lon="5.84367">
        <ele>293.4</ele>
        <time>2021-11-07T13:52:03.000Z</time>
      </trkpt>
      <trkpt lat="45.2019" lon="5.8428">
        <ele>287.9</ele>
        <time>2021-11-07T13:52:08.000Z</time>
      </trkpt>
      <trkpt lat="45.20161" lon="5.84226">
        <ele>282.66</ele>
        <time>2021-11-07T13:52:13.000Z</time>
      </trkpt>
      <trkpt lat="45.20108" lon="5.84234">
        <ele>274.62</ele>
        <time>2021-11-07T13:52:18.000Z</time>
      </trkpt>
      <trkpt lat="45.20047" lon="5.84251">
        <ele>265.29</ele>
        <time>2021-11-07T13:52:23.000Z</time>
      </trkpt>
      <trkpt lat="45.20003" lon="5.84264">
        <ele>257.89</ele>
        <time>2021-11-07T13:52:28.000Z</time>
      </trkpt>
      <trkpt lat="45.20003" lon="5.8422">
        <ele>254.33</ele>
        <time>2021-11-07T13:52:33.000Z</time>
      </trkpt>
      <trkpt lat="45.20048" lon="5.84187">
        <ele>251.4</ele>
        <time>2021-11-07T13:52:38.000Z</time>
      </trkpt>
      <trkpt lat="45.20082" lon="5.8414">
        <ele>250.95</ele>
        <time>2021-11-07T13:52:43.000Z</time>
      </trkpt>
      <trkpt lat="45.20109" lon="5.84082">
        <ele>250.32</ele>
        <time>2021-11-07T13:52:48.000Z</time>
      </trkpt>
      <trkpt lat="45.20128" lon="5.84039">
        <ele>249.89</ele>
        <time>2021-11-07T13:52:53.000Z</time>
      </trkpt>
      <trkpt lat="45.20143" lon="5.84008">
        <ele>247.92</ele>
        <time>2021-11-07T13:52:58.000Z</time>
      </trkpt>
      <trkpt lat="45.20145" lon="5.83993">
        <ele>249.83</ele>
        <time>2021-11-07T13:53:03.000Z</time>
      </trkpt>
      <trkpt lat="45.20148" lon="5.8398">
        <ele>246.52</ele>
        <time>2021-11-07T13:53:15.000Z</time>
      </trkpt>
      <trkpt lat="45.20158" lon="5.83949">
        <ele>246.02</ele>
        <time>2021-11-07T13:53:20.000Z</time>
      </trkpt>
      <trkpt lat="45.20155" lon="5.83908">
        <ele>246.03</ele>
        <time>2021-11-07T13:53:25.000Z</time>
      </trkpt>
      <trkpt lat="45.20154" lon="5.83861">
        <ele>245.54</ele>
        <time>2021-11-07T13:53:30.000Z</time>
      </trkpt>
      <trkpt lat="45.20171" lon="5.83833">
        <ele>242.02</ele>
        <time>2021-11-07T13:53:35.000Z</time>
      </trkpt>
      <trkpt lat="45.2021" lon="5.8382">
        <ele>240.87</ele>
        <time>2021-11-07T13:53:40.000Z</time>
      </trkpt>
      <trkpt lat="45.20246" lon="5.83804">
        <ele>241.35</ele>
        <time>2021-11-07T13:53:45.000Z</time>
      </trkpt>
      <trkpt lat="45.20281" lon="5.83778">
        <ele>240.26</ele>
        <time>2021-11-07T13:53:50.000Z</time>
      </trkpt>
      <trkpt lat="45.20316" lon="5.83745">
        <ele>242.71</ele>
        <time>2021-11-07T13:53:55.000Z</time>
      </trkpt>
      <trkpt lat="45.20349" lon="5.83712">
        <ele>241.93</ele>
        <time>2021-11-07T13:54:00.000Z</time>
      </trkpt>
      <trkpt lat="45.20383" lon="5.83681">
        <ele>239.7</ele>
        <time>2021-11-07T13:54:05.000Z</time>
      </trkpt>
      <trkpt lat="45.20413" lon="5.83649">
        <ele>236.3</ele>
        <time>2021-11-07T13:54:10.000Z</time>
      </trkpt>
      <trkpt lat="45.20443" lon="5.83618">
        <ele>231.87</ele>
        <time>2021-11-07T13:54:15.000Z</time>
      </trkpt>
      <trkpt lat="45.20475" lon="5.8359">
        <ele>230.17</ele>
        <time>2021-11-07T13:54:20.000Z</time>
      </trkpt>
      <trkpt lat="45.20509" lon="5.83561">
        <ele>227.32</ele>
        <time>2021-11-07T13:54:25.000Z</time>
      </trkpt>
      <trkpt lat="45.20543" lon="5.83536">
        <ele>225.26</ele>
        <time>2021-11-07T13:54:30.000Z</time>
      </trkpt>
      <trkpt lat="45.2058" lon="5.83509">
        <ele>224.47</ele>
        <time>2021-11-07T13:54:35.000Z</time>
      </trkpt>
      <trkpt lat="45.20617" lon="5.83482">
        <ele>223.76</ele>
        <time>2021-11-07T13:54:40.000Z</time>
      </trkpt>
      <trkpt lat="45.20656" lon="5.83456">
        <ele>221.67</ele>
        <time>2021-11-07T13:54:45.000Z</time>
      </trkpt>
      <trkpt lat="45.20691" lon="5.83424">
        <ele>222.28</ele>
        <time>2021-11-07T13:54:50.000Z</time>
      </trkpt>
      <trkpt lat="45.20731" lon="5.83397">
        <ele>219.51</ele>
        <time>2021-11-07T13:54:55.000Z</time>
      </trkpt>
      <trkpt lat="45.20768" lon="5.83364">
        <ele>220.98</ele>
        <time>2021-11-07T13:55:00.000Z</time>
      </trkpt>
      <trkpt lat="45.208" lon="5.83339">
        <ele>223.9</ele>
        <time>2021-11-07T13:55:05.000Z</time>
      </trkpt>
      <trkpt lat="45.20837" lon="5.83312">
        <ele>220.62</ele>
        <time>2021-11-07T13:55:10.000Z</time>
      </trkpt>
      <trkpt lat="45.20868" lon="5.83287">
        <ele>223.8</ele>
        <time>2021-11-07T13:55:15.000Z</time>
      </trkpt>
      <trkpt lat="45.209" lon="5.83265">
        <ele>222.69</ele>
        <time>2021-11-07T13:55:20.000Z</time>
      </trkpt>
      <trkpt lat="45.20934" lon="5.83237">
        <ele>222.48</ele>
        <time>2021-11-07T13:55:25.000Z</time>
      </trkpt>
      <trkpt lat="45.20966" lon="5.83223">
        <ele>220.29</ele>
        <time>2021-11-07T13:55:30.000Z</time>
      </trkpt>
      <trkpt lat="45.20997" lon="5.83226">
        <ele>221.04</ele>
        <time>2021-11-07T13:55:35.000Z</time>
      </trkpt>
      <trkpt lat="45.21016" lon="5.83246">
        <ele>219.49</ele>
        <time>2021-11-07T13:55:40.000Z</time>
      </trkpt>
      <trkpt lat="45.21043" lon="5.83257">
        <ele>219.04</ele>
        <time>2021-11-07T13:55:45.000Z</time>
      </trkpt>
      <trkpt lat="45.21066" lon="5.83246">
        <ele>220.47</ele>
        <time>2021-11-07T13:55:50.000Z</time>
      </trkpt>
      <trkpt lat="45.21077" lon="5.83207">
        <ele>221.43</ele>
        <time>2021-11-07T13:55:55.000Z</time>
      </trkpt>
      <trkpt lat="45.21091" lon="5.83173">
        <ele>218.53</ele>
        <time>2021-11-07T13:56:00.000Z</time>
      </trkpt>
      <trkpt lat="45.2111" lon="5.83145">
        <ele>221.75</ele>
        <time>2021-11-07T13:56:05.000Z</time>
      </trkpt>
      <trkpt lat="45.21129" lon="5.83112">
        <ele>222.02</ele>
        <time>2021-11-07T13:56:10.000Z</time>
      </trkpt>
      <trkpt lat="45.21147" lon="5.83082">
        <ele>223.85</ele>
        <time>2021-11-07T13:56:15.000Z</time>
      </trkpt>
      <trkpt lat="45.21165" lon="5.83049">
        <ele>221.84</ele>
        <time>2021-11-07T13:56:20.000Z</time>
      </trkpt>
      <trkpt lat="45.21181" lon="5.83012">
        <ele>225.23</ele>
        <time>2021-11-07T13:56:25.000Z</time>
      </trkpt>
      <trkpt lat="45.21194" lon="5.82979">
        <ele>225.16</ele>
        <time>2021-11-07T13:56:30.000Z</time>
      </trkpt>
      <trkpt lat="45.21211" lon="5.82946">
        <ele>221.53</ele>
        <time>2021-11-07T13:56:35.000Z</time>
      </trkpt>
      <trkpt lat="45.21227" lon="5.8291">
        <ele>222.86</ele>
        <time>2021-11-07T13:56:40.000Z</time>
      </trkpt>
      <trkpt lat="45.21244" lon="5.82873">
        <ele>222.71</ele>
        <time>2021-11-07T13:56:45.000Z</time>
      </trkpt>
      <trkpt lat="45.21262" lon="5.82839">
        <ele>222.23</ele>
        <time>2021-11-07T13:56:50.000Z</time>
      </trkpt>
      <trkpt lat="45.21275" lon="5.82814">
        <ele>223.01</ele>
        <time>2021-11-07T13:56:55.000Z</time>
      </trkpt>
      <trkpt lat="45.21284" lon="5.82799">
        <ele>220.41</ele>
        <time>2021-11-07T13:57:00.000Z</time>
      </trkpt>
      <trkpt lat="45.21293" lon="5.82793">
        <ele>216.18</ele>
        <time>2021-11-07T13:57:59.000Z</time>
      </trkpt>
      <trkpt lat="45.21305" lon="5.8276">
        <ele>214.72</ele>
        <time>2021-11-07T13:58:04.000Z</time>
      </trkpt>
      <trkpt lat="45.21319" lon="5.82729">
        <ele>213.36</ele>
        <time>2021-11-07T13:58:09.000Z</time>
      </trkpt>
      <trkpt lat="45.21353" lon="5.82707">
        <ele>210.51</ele>
        <time>2021-11-07T13:58:14.000Z</time>
      </trkpt>
      <trkpt lat="45.21381" lon="5.82681">
        <ele>208.6</ele>
        <time>2021-11-07T13:58:19.000Z</time>
      </trkpt>
      <trkpt lat="45.21403" lon="5.82648">
        <ele>210.91</ele>
        <time>2021-11-07T13:58:24.000Z</time>
      </trkpt>
      <trkpt lat="45.21432" lon="5.8262">
        <ele>212.89</ele>
        <time>2021-11-07T13:58:29.000Z</time>
      </trkpt>
      <trkpt lat="45.21459" lon="5.82608">
        <ele>211.78</ele>
        <time>2021-11-07T13:58:34.000Z</time>
      </trkpt>
      <trkpt lat="45.21489" lon="5.82583">
        <ele>213.02</ele>
        <time>2021-11-07T13:58:39.000Z</time>
      </trkpt>
      <trkpt lat="45.21515" lon="5.8256">
        <ele>214.64</ele>
        <time>2021-11-07T13:58:44.000Z</time>
      </trkpt>
      <trkpt lat="45.21546" lon="5.82537">
        <ele>212.75</ele>
        <time>2021-11-07T13:58:49.000Z</time>
      </trkpt>
      <trkpt lat="45.21574" lon="5.82513">
        <ele>214.29</ele>
        <time>2021-11-07T13:58:54.000Z</time>
      </trkpt>
      <trkpt lat="45.21599" lon="5.82494">
        <ele>213.65</ele>
        <time>2021-11-07T13:58:59.000Z</time>
      </trkpt>
      <trkpt lat="45.21624" lon="5.82476">
        <ele>211.33</ele>
        <time>2021-11-07T13:59:04.000Z</time>
      </trkpt>
      <trkpt lat="45.21651" lon="5.82461">
        <ele>209.07</ele>
        <time>2021-11-07T13:59:09.000Z</time>
      </trkpt>
      <trkpt lat="45.2168" lon="5.82439">
        <ele>207.68</ele>
        <time>2021-11-07T13:59:14.000Z</time>
      </trkpt>
      <trkpt lat="45.21708" lon="5.82414">
        <ele>204.64</ele>
        <time>2021-11-07T13:59:19.000Z</time>
      </trkpt>
      <trkpt lat="45.21735" lon="5.82392">
        <ele>205.21</ele>
        <time>2021-11-07T13:59:24.000Z</time>
      </trkpt>
      <trkpt lat="45.21765" lon="5.82379">
        <ele>203.79</ele>
        <time>2021-11-07T13:59:29.000Z</time>
      </trkpt>
      <trkpt lat="45.21788" lon="5.8237">
        <ele>207.49</ele>
        <time>2021-11-07T13:59:34.000Z</time>
      </trkpt>
      <trkpt lat="45.21811" lon="5.82368">
        <ele>208.65</ele>
        <time>2021-11-07T13:59:39.000Z</time>
      </trkpt>
      <trkpt lat="45.21828" lon="5.82397">
        <ele>208.83</ele>
        <time>2021-11-07T13:59:44.000Z</time>
      </trkpt>
      <trkpt lat="45.21844" lon="5.8244">
        <ele>206.93</ele>
        <time>2021-11-07T13:59:49.000Z</time>
      </trkpt>
      <trkpt lat="45.21853" lon="5.8248">
        <ele>207.63</ele>
        <time>2021-11-07T13:59:54.000Z</time>
      </trkpt>
      <trkpt lat="45.21845" lon="5.82521">
        <ele>211.47</ele>
        <time>2021-11-07T13:59:59.000Z</time>
      </trkpt>
      <trkpt lat="45.21865" lon="5.82548">
        <ele>211.88</ele>
        <time>2021-11-07T14:00:04.000Z</time>
      </trkpt>
      <trkpt lat="45.21889" lon="5.82572">
        <ele>210.13</ele>
        <time>2021-11-07T14:00:09.000Z</time>
      </trkpt>
      <trkpt lat="45.21912" lon="5.82596">
        <ele>211.86</ele>
        <time>2021-11-07T14:00:14.000Z</time>
      </trkpt>
      <trkpt lat="45.21932" lon="5.82617">
        <ele>212.07</ele>
        <time>2021-11-07T14:00:19.000Z</time>
      </trkpt>
      <trkpt lat="45.21951" lon="5.82637">
        <ele>211.33</ele>
        <time>2021-11-07T14:00:24.000Z</time>
      </trkpt>
      <trkpt lat="45.21969" lon="5.8266">
        <ele>212.12</ele>
        <time>2021-11-07T14:00:29.000Z</time>
      </trkpt>
      <trkpt lat="45.21993" lon="5.82681">
        <ele>212.27</ele>
        <time>2021-11-07T14:00:34.000Z</time>
      </trkpt>
      <trkpt lat="45.22012" lon="5.82701">
        <ele>212.17</ele>
        <time>2021-11-07T14:00:39.000Z</time>
      </trkpt>
      <trkpt lat="45.22033" lon="5.82705">
        <ele>210.55</ele>
        <time>2021-11-07T14:00:44.000Z</time>
      </trkpt>
      <trkpt lat="45.22054" lon="5.82692">
        <ele>211.43</ele>
        <time>2021-11-07T14:00:49.000Z</time>
      </trkpt>
      <trkpt lat="45.22073" lon="5.82674">
        <ele>209.98</ele>
        <time>2021-11-07T14:00:54.000Z</time>
      </trkpt>
      <trkpt lat="45.22095" lon="5.82659">
        <ele>209.17</ele>
        <time>2021-11-07T14:00:59.000Z</time>
      </trkpt>
      <trkpt lat="45.22104" lon="5.82645">
        <ele>205.07</ele>
        <time>2021-11-07T14:01:04.000Z</time>
      </trkpt>
      <trkpt lat="45.22134" lon="5.8263">
        <ele>204.65</ele>
        <time>2021-11-07T14:01:09.000Z</time>
      </trkpt>
      <trkpt lat="45.22157" lon="5.82619">
        <ele>203.65</ele>
        <time>2021-11-07T14:01:14.000Z</time>
      </trkpt>
      <trkpt lat="45.22174" lon="5.82611">
        <ele>201.92</ele>
        <time>2021-11-07T14:01:19.000Z</time>
      </trkpt>
      <trkpt lat="45.22196" lon="5.82599">
        <ele>200.41</ele>
        <time>2021-11-07T14:01:24.000Z</time>
      </trkpt>
      <trkpt lat="45.22224" lon="5.82579">
        <ele>202.59</ele>
        <time>2021-11-07T14:01:29.000Z</time>
      </trkpt>
      <trkpt lat="45.22244" lon="5.82564">
        <ele>203.64</ele>
        <time>2021-11-07T14:01:34.000Z</time>
      </trkpt>
      <trkpt lat="45.22268" lon="5.82547">
        <ele>203.29</ele>
        <time>2021-11-07T14:01:39.000Z</time>
      </trkpt>
      <trkpt lat="45.2229" lon="5.82524">
        <ele>205.8</ele>
        <time>2021-11-07T14:01:44.000Z</time>
      </trkpt>
      <trkpt lat="45.22308" lon="5.82509">
        <ele>203.65</ele>
        <time>2021-11-07T14:01:49.000Z</time>
      </trkpt>
      <trkpt lat="45.22331" lon="5.82493">
        <ele>204.62</ele>
        <time>2021-11-07T14:01:54.000Z</time>
      </trkpt>
      <trkpt lat="45.22357" lon="5.82476">
        <ele>205.02</ele>
        <time>2021-11-07T14:01:59.000Z</time>
      </trkpt>
      <trkpt lat="45.22381" lon="5.82458">
        <ele>202.18</ele>
        <time>2021-11-07T14:02:04.000Z</time>
      </trkpt>
      <trkpt lat="45.22406" lon="5.82445">
        <ele>203.67</ele>
        <time>2021-11-07T14:02:09.000Z</time>
      </trkpt>
      <trkpt lat="45.22429" lon="5.82426">
        <ele>206.91</ele>
        <time>2021-11-07T14:02:14.000Z</time>
      </trkpt>
      <trkpt lat="45.22457" lon="5.82433">
        <ele>209.66</ele>
        <time>2021-11-07T14:02:19.000Z</time>
      </trkpt>
      <trkpt lat="45.22481" lon="5.82452">
        <ele>211.18</ele>
        <time>2021-11-07T14:02:24.000Z</time>
      </trkpt>
      <trkpt lat="45.225" lon="5.82471">
        <ele>212.43</ele>
        <time>2021-11-07T14:02:29.000Z</time>
      </trkpt>
      <trkpt lat="45.22522" lon="5.82495">
        <ele>214.05</ele>
        <time>2021-11-07T14:02:34.000Z</time>
      </trkpt>
      <trkpt lat="45.22543" lon="5.82516">
        <ele>212.63</ele>
        <time>2021-11-07T14:02:39.000Z</time>
      </trkpt>
      <trkpt lat="45.22559" lon="5.82541">
        <ele>211.91</ele>
        <time>2021-11-07T14:02:44.000Z</time>
      </trkpt>
      <trkpt lat="45.22575" lon="5.82568">
        <ele>211.6</ele>
        <time>2021-11-07T14:02:49.000Z</time>
      </trkpt>
      <trkpt lat="45.22589" lon="5.82595">
        <ele>212.65</ele>
        <time>2021-11-07T14:02:54.000Z</time>
      </trkpt>
      <trkpt lat="45.22606" lon="5.82624">
        <ele>212.45</ele>
        <time>2021-11-07T14:02:59.000Z</time>
      </trkpt>
      <trkpt lat="45.22618" lon="5.8265">
        <ele>214.03</ele>
        <time>2021-11-07T14:03:04.000Z</time>
      </trkpt>
      <trkpt lat="45.22634" lon="5.82671">
        <ele>212.39</ele>
        <time>2021-11-07T14:03:09.000Z</time>
      </trkpt>
      <trkpt lat="45.22647" lon="5.82695">
        <ele>212.66</ele>
        <time>2021-11-07T14:03:14.000Z</time>
      </trkpt>
      <trkpt lat="45.22665" lon="5.82726">
        <ele>214.35</ele>
        <time>2021-11-07T14:03:19.000Z</time>
      </trkpt>
      <trkpt lat="45.22676" lon="5.82753">
        <ele>214.15</ele>
        <time>2021-11-07T14:03:24.000Z</time>
      </trkpt>
      <trkpt lat="45.22692" lon="5.82782">
        <ele>214.88</ele>
        <time>2021-11-07T14:03:29.000Z</time>
      </trkpt>
      <trkpt lat="45.22703" lon="5.8281">
        <ele>215.71</ele>
        <time>2021-11-07T14:03:34.000Z</time>
      </trkpt>
      <trkpt lat="45.22723" lon="5.82837">
        <ele>215.41</ele>
        <time>2021-11-07T14:03:39.000Z</time>
      </trkpt>
      <trkpt lat="45.22741" lon="5.82867">
        <ele>218.6</ele>
        <time>2021-11-07T14:03:44.000Z</time>
      </trkpt>
      <trkpt lat="45.22756" lon="5.82896">
        <ele>220.89</ele>
        <time>2021-11-07T14:03:49.000Z</time>
      </trkpt>
      <trkpt lat="45.2277" lon="5.82922">
        <ele>222.18</ele>
        <time>2021-11-07T14:03:54.000Z</time>
      </trkpt>
      <trkpt lat="45.22793" lon="5.82954">
        <ele>218.31</ele>
        <time>2021-11-07T14:03:59.000Z</time>
      </trkpt>
      <trkpt lat="45.22814" lon="5.82987">
        <ele>216.22</ele>
        <time>2021-11-07T14:04:04.000Z</time>
      </trkpt>
      <trkpt lat="45.22832" lon="5.83018">
        <ele>212.99</ele>
        <time>2021-11-07T14:04:09.000Z</time>
      </trkpt>
      <trkpt lat="45.22845" lon="5.8305">
        <ele>215.93</ele>
        <time>2021-11-07T14:04:14.000Z</time>
      </trkpt>
      <trkpt lat="45.22859" lon="5.8308">
        <ele>215.86</ele>
        <time>2021-11-07T14:04:19.000Z</time>
      </trkpt>
      <trkpt lat="45.22876" lon="5.83088">
        <ele>214.95</ele>
        <time>2021-11-07T14:04:24.000Z</time>
      </trkpt>
      <trkpt lat="45.22888" lon="5.83078">
        <ele>217.45</ele>
        <time>2021-11-07T14:04:29.000Z</time>
      </trkpt>
      <trkpt lat="45.22904" lon="5.83062">
        <ele>221.75</ele>
        <time>2021-11-07T14:04:34.000Z</time>
      </trkpt>
      <trkpt lat="45.22922" lon="5.83049">
        <ele>221.86</ele>
        <time>2021-11-07T14:04:39.000Z</time>
      </trkpt>
      <trkpt lat="45.22939" lon="5.83033">
        <ele>221.9</ele>
        <time>2021-11-07T14:04:44.000Z</time>
      </trkpt>
      <trkpt lat="45.22958" lon="5.83015">
        <ele>218.63</ele>
        <time>2021-11-07T14:04:49.000Z</time>
      </trkpt>
      <trkpt lat="45.22968" lon="5.8299">
        <ele>221.71</ele>
        <time>2021-11-07T14:04:54.000Z</time>
      </trkpt>
      <trkpt lat="45.22984" lon="5.82967">
        <ele>227.43</ele>
        <time>2021-11-07T14:04:59.000Z</time>
      </trkpt>
      <trkpt lat="45.23001" lon="5.82942">
        <ele>235.8</ele>
        <time>2021-11-07T14:05:04.000Z</time>
      </trkpt>
      <trkpt lat="45.23015" lon="5.82917">
        <ele>237.82</ele>
        <time>2021-11-07T14:05:09.000Z</time>
      </trkpt>
      <trkpt lat="45.2303" lon="5.82899">
        <ele>238.94</ele>
        <time>2021-11-07T14:05:14.000Z</time>
      </trkpt>
      <trkpt lat="45.23045" lon="5.82877">
        <ele>236.49</ele>
        <time>2021-11-07T14:05:19.000Z</time>
      </trkpt>
      <trkpt lat="45.23058" lon="5.82852">
        <ele>237.34</ele>
        <time>2021-11-07T14:05:24.000Z</time>
      </trkpt>
      <trkpt lat="45.23068" lon="5.82823">
        <ele>237.25</ele>
        <time>2021-11-07T14:05:29.000Z</time>
      </trkpt>
      <trkpt lat="45.23083" lon="5.82805">
        <ele>235.83</ele>
        <time>2021-11-07T14:05:34.000Z</time>
      </trkpt>
      <trkpt lat="45.23082" lon="5.8279">
        <ele>231.16</ele>
        <time>2021-11-07T14:05:39.000Z</time>
      </trkpt>
      <trkpt lat="45.23091" lon="5.82786">
        <ele>225.77</ele>
        <time>2021-11-07T14:06:01.000Z</time>
      </trkpt>
      <trkpt lat="45.23092" lon="5.82773">
        <ele>229.56</ele>
        <time>2021-11-07T14:07:46.000Z</time>
      </trkpt>
      <trkpt lat="45.23091" lon="5.82745">
        <ele>232.49</ele>
        <time>2021-11-07T14:07:51.000Z</time>
      </trkpt>
      <trkpt lat="45.2309" lon="5.82717">
        <ele>229.55</ele>
        <time>2021-11-07T14:07:56.000Z</time>
      </trkpt>
      <trkpt lat="45.23097" lon="5.82697">
        <ele>228.65</ele>
        <time>2021-11-07T14:08:01.000Z</time>
      </trkpt>
      <trkpt lat="45.23113" lon="5.82676">
        <ele>228.1</ele>
        <time>2021-11-07T14:08:06.000Z</time>
      </trkpt>
      <trkpt lat="45.23127" lon="5.82657">
        <ele>227.45</ele>
        <time>2021-11-07T14:08:11.000Z</time>
      </trkpt>
      <trkpt lat="45.23144" lon="5.82639">
        <ele>233.81</ele>
        <time>2021-11-07T14:08:16.000Z</time>
      </trkpt>
      <trkpt lat="45.23162" lon="5.82619">
        <ele>234.01</ele>
        <time>2021-11-07T14:08:21.000Z</time>
      </trkpt>
      <trkpt lat="45.23179" lon="5.82602">
        <ele>236.81</ele>
        <time>2021-11-07T14:08:26.000Z</time>
      </trkpt>
      <trkpt lat="45.232" lon="5.82604">
        <ele>239.38</ele>
        <time>2021-11-07T14:08:31.000Z</time>
      </trkpt>
      <trkpt lat="45.23218" lon="5.82596">
        <ele>240.3</ele>
        <time>2021-11-07T14:08:36.000Z</time>
      </trkpt>
      <trkpt lat="45.23242" lon="5.82586">
        <ele>241.9</ele>
        <time>2021-11-07T14:08:41.000Z</time>
      </trkpt>
      <trkpt lat="45.23253" lon="5.82572">
        <ele>238.62</ele>
        <time>2021-11-07T14:08:46.000Z</time>
      </trkpt>
      <trkpt lat="45.23273" lon="5.82542">
        <ele>241.82</ele>
        <time>2021-11-07T14:08:51.000Z</time>
      </trkpt>
      <trkpt lat="45.23281" lon="5.82516">
        <ele>241.3</ele>
        <time>2021-11-07T14:08:56.000Z</time>
      </trkpt>
      <trkpt lat="45.23289" lon="5.82501">
        <ele>243.03</ele>
        <time>2021-11-07T14:09:01.000Z</time>
      </trkpt>
      <trkpt lat="45.23302" lon="5.82482">
        <ele>242.63</ele>
        <time>2021-11-07T14:09:06.000Z</time>
      </trkpt>
      <trkpt lat="45.23311" lon="5.82461">
        <ele>240.84</ele>
        <time>2021-11-07T14:09:11.000Z</time>
      </trkpt>
      <trkpt lat="45.23322" lon="5.8245">
        <ele>241.7</ele>
        <time>2021-11-07T14:09:16.000Z</time>
      </trkpt>
      <trkpt lat="45.23332" lon="5.82457">
        <ele>243.63</ele>
        <time>2021-11-07T14:09:21.000Z</time>
      </trkpt>
      <trkpt lat="45.23349" lon="5.82473">
        <ele>248.64</ele>
        <time>2021-11-07T14:09:26.000Z</time>
      </trkpt>
      <trkpt lat="45.23366" lon="5.82504">
        <ele>242.75</ele>
        <time>2021-11-07T14:09:31.000Z</time>
      </trkpt>
      <trkpt lat="45.23387" lon="5.8253">
        <ele>248.88</ele>
        <time>2021-11-07T14:09:36.000Z</time>
      </trkpt>
      <trkpt lat="45.23402" lon="5.82551">
        <ele>250.46</ele>
        <time>2021-11-07T14:09:41.000Z</time>
      </trkpt>
      <trkpt lat="45.23413" lon="5.82577">
        <ele>249.82</ele>
        <time>2021-11-07T14:09:46.000Z</time>
      </trkpt>
      <trkpt lat="45.23432" lon="5.82612">
        <ele>251.09</ele>
        <time>2021-11-07T14:09:51.000Z</time>
      </trkpt>
      <trkpt lat="45.23453" lon="5.82644">
        <ele>253.74</ele>
        <time>2021-11-07T14:09:56.000Z</time>
      </trkpt>
      <trkpt lat="45.23471" lon="5.82677">
        <ele>256.84</ele>
        <time>2021-11-07T14:10:01.000Z</time>
      </trkpt>
      <trkpt lat="45.23494" lon="5.82711">
        <ele>261.73</ele>
        <time>2021-11-07T14:10:06.000Z</time>
      </trkpt>
      <trkpt lat="45.23496" lon="5.82741">
        <ele>255.89</ele>
        <time>2021-11-07T14:10:11.000Z</time>
      </trkpt>
      <trkpt lat="45.23521" lon="5.82783">
        <ele>260.6</ele>
        <time>2021-11-07T14:10:16.000Z</time>
      </trkpt>
      <trkpt lat="45.23531" lon="5.82816">
        <ele>261.56</ele>
        <time>2021-11-07T14:10:21.000Z</time>
      </trkpt>
      <trkpt lat="45.23553" lon="5.82851">
        <ele>262.32</ele>
        <time>2021-11-07T14:10:26.000Z</time>
      </trkpt>
      <trkpt lat="45.23573" lon="5.82879">
        <ele>261.02</ele>
        <time>2021-11-07T14:10:31.000Z</time>
      </trkpt>
      <trkpt lat="45.23587" lon="5.82909">
        <ele>264.4</ele>
        <time>2021-11-07T14:10:36.000Z</time>
      </trkpt>
      <trkpt lat="45.2359" lon="5.82922">
        <ele>266.97</ele>
        <time>2021-11-07T14:10:41.000Z</time>
      </trkpt>
      <trkpt lat="45.2361" lon="5.8295">
        <ele>268.01</ele>
        <time>2021-11-07T14:10:46.000Z</time>
      </trkpt>
      <trkpt lat="45.23642" lon="5.83006">
        <ele>269.42</ele>
        <time>2021-11-07T14:10:51.000Z</time>
      </trkpt>
      <trkpt lat="45.23666" lon="5.83052">
        <ele>270.47</ele>
        <time>2021-11-07T14:10:56.000Z</time>
      </trkpt>
      <trkpt lat="45.23688" lon="5.83072">
        <ele>272.86</ele>
        <time>2021-11-07T14:11:01.000Z</time>
      </trkpt>
      <trkpt lat="45.23701" lon="5.83103">
        <ele>275.44</ele>
        <time>2021-11-07T14:11:06.000Z</time>
      </trkpt>
      <trkpt lat="45.23718" lon="5.83142">
        <ele>276.25</ele>
        <time>2021-11-07T14:11:11.000Z</time>
      </trkpt>
      <trkpt lat="45.23734" lon="5.8317">
        <ele>280.51</ele>
        <time>2021-11-07T14:11:16.000Z</time>
      </trkpt>
      <trkpt lat="45.23748" lon="5.83197">
        <ele>280.88</ele>
        <time>2021-11-07T14:11:21.000Z</time>
      </trkpt>
      <trkpt lat="45.23772" lon="5.8323">
        <ele>278.91</ele>
        <time>2021-11-07T14:11:26.000Z</time>
      </trkpt>
      <trkpt lat="45.23786" lon="5.83241">
        <ele>279.36</ele>
        <time>2021-11-07T14:11:31.000Z</time>
      </trkpt>
      <trkpt lat="45.23797" lon="5.8326">
        <ele>276.31</ele>
        <time>2021-11-07T14:11:36.000Z</time>
      </trkpt>
      <trkpt lat="45.23795" lon="5.83302">
        <ele>271.3</ele>
        <time>2021-11-07T14:11:41.000Z</time>
      </trkpt>
      <trkpt lat="45.23806" lon="5.83332">
        <ele>274.51</ele>
        <time>2021-11-07T14:11:46.000Z</time>
      </trkpt>
      <trkpt lat="45.23827" lon="5.83364">
        <ele>275.96</ele>
        <time>2021-11-07T14:11:51.000Z</time>
      </trkpt>
      <trkpt lat="45.23846" lon="5.83405">
        <ele>278.7</ele>
        <time>2021-11-07T14:11:56.000Z</time>
      </trkpt>
      <trkpt lat="45.23867" lon="5.83446">
        <ele>279.79</ele>
        <time>2021-11-07T14:12:01.000Z</time>
      </trkpt>
      <trkpt lat="45.23883" lon="5.83475">
        <ele>279.03</ele>
        <time>2021-11-07T14:12:06.000Z</time>
      </trkpt>
      <trkpt lat="45.23896" lon="5.83502">
        <ele>279.49</ele>
        <time>2021-11-07T14:12:11.000Z</time>
      </trkpt>
      <trkpt lat="45.23919" lon="5.83539">
        <ele>280.11</ele>
        <time>2021-11-07T14:12:16.000Z</time>
      </trkpt>
      <trkpt lat="45.23939" lon="5.83571">
        <ele>282.19</ele>
        <time>2021-11-07T14:12:21.000Z</time>
      </trkpt>
      <trkpt lat="45.23966" lon="5.83611">
        <ele>283.01</ele>
        <time>2021-11-07T14:12:26.000Z</time>
      </trkpt>
      <trkpt lat="45.23988" lon="5.83649">
        <ele>287.37</ele>
        <time>2021-11-07T14:12:31.000Z</time>
      </trkpt>
      <trkpt lat="45.24002" lon="5.83678">
        <ele>286.15</ele>
        <time>2021-11-07T14:12:36.000Z</time>
      </trkpt>
      <trkpt lat="45.24022" lon="5.83706">
        <ele>282.99</ele>
        <time>2021-11-07T14:12:41.000Z</time>
      </trkpt>
      <trkpt lat="45.24039" lon="5.83746">
        <ele>289.2</ele>
        <time>2021-11-07T14:12:46.000Z</time>
      </trkpt>
      <trkpt lat="45.2406" lon="5.83786">
        <ele>288.04</ele>
        <time>2021-11-07T14:12:51.000Z</time>
      </trkpt>
      <trkpt lat="45.24075" lon="5.83827">
        <ele>283.66</ele>
        <time>2021-11-07T14:12:56.000Z</time>
      </trkpt>
      <trkpt lat="45.24082" lon="5.83869">
        <ele>283.85</ele>
        <time>2021-11-07T14:13:01.000Z</time>
      </trkpt>
      <trkpt lat="45.24095" lon="5.83918">
        <ele>277.75</ele>
        <time>2021-11-07T14:13:06.000Z</time>
      </trkpt>
      <trkpt lat="45.24101" lon="5.83973">
        <ele>274.19</ele>
        <time>2021-11-07T14:13:11.000Z</time>
      </trkpt>
      <trkpt lat="45.24112" lon="5.8401">
        <ele>272.98</ele>
        <time>2021-11-07T14:13:16.000Z</time>
      </trkpt>
      <trkpt lat="45.24134" lon="5.84024">
        <ele>271.84</ele>
        <time>2021-11-07T14:13:21.000Z</time>
      </trkpt>
      <trkpt lat="45.24153" lon="5.84008">
        <ele>269.34</ele>
        <time>2021-11-07T14:13:26.000Z</time>
      </trkpt>
      <trkpt lat="45.24168" lon="5.83988">
        <ele>272.37</ele>
        <time>2021-11-07T14:13:31.000Z</time>
      </trkpt>
      <trkpt lat="45.24194" lon="5.83969">
        <ele>273.63</ele>
        <time>2021-11-07T14:13:36.000Z</time>
      </trkpt>
      <trkpt lat="45.24212" lon="5.83954">
        <ele>272.68</ele>
        <time>2021-11-07T14:13:41.000Z</time>
      </trkpt>
      <trkpt lat="45.24229" lon="5.8394">
        <ele>269.94</ele>
        <time>2021-11-07T14:13:46.000Z</time>
      </trkpt>
      <trkpt lat="45.24249" lon="5.8393">
        <ele>271.74</ele>
        <time>2021-11-07T14:13:51.000Z</time>
      </trkpt>
      <trkpt lat="45.24272" lon="5.83924">
        <ele>273.12</ele>
        <time>2021-11-07T14:13:56.000Z</time>
      </trkpt>
      <trkpt lat="45.24293" lon="5.83919">
        <ele>276.45</ele>
        <time>2021-11-07T14:14:01.000Z</time>
      </trkpt>
      <trkpt lat="45.24323" lon="5.83892">
        <ele>272.37</ele>
        <time>2021-11-07T14:14:06.000Z</time>
      </trkpt>
      <trkpt lat="45.24346" lon="5.8389">
        <ele>269.37</ele>
        <time>2021-11-07T14:14:11.000Z</time>
      </trkpt>
      <trkpt lat="45.24378" lon="5.83901">
        <ele>269.49</ele>
        <time>2021-11-07T14:14:16.000Z</time>
      </trkpt>
      <trkpt lat="45.24401" lon="5.83895">
        <ele>271.02</ele>
        <time>2021-11-07T14:14:21.000Z</time>
      </trkpt>
      <trkpt lat="45.24408" lon="5.8392">
        <ele>274.61</ele>
        <time>2021-11-07T14:14:26.000Z</time>
      </trkpt>
      <trkpt lat="45.2442" lon="5.83952">
        <ele>275.5</ele>
        <time>2021-11-07T14:14:31.000Z</time>
      </trkpt>
      <trkpt lat="45.2443" lon="5.83972">
        <ele>281.72</ele>
        <time>2021-11-07T14:14:36.000Z</time>
      </trkpt>
      <trkpt lat="45.24443" lon="5.83999">
        <ele>283.92</ele>
        <time>2021-11-07T14:14:41.000Z</time>
      </trkpt>
      <trkpt lat="45.24457" lon="5.84029">
        <ele>282.76</ele>
        <time>2021-11-07T14:14:46.000Z</time>
      </trkpt>
      <trkpt lat="45.24472" lon="5.8406">
        <ele>282.98</ele>
        <time>2021-11-07T14:14:51.000Z</time>
      </trkpt>
      <trkpt lat="45.24485" lon="5.84091">
        <ele>281.05</ele>
        <time>2021-11-07T14:14:56.000Z</time>
      </trkpt>
      <trkpt lat="45.24493" lon="5.84112">
        <ele>278.1</ele>
        <time>2021-11-07T14:15:01.000Z</time>
      </trkpt>
      <trkpt lat="45.24511" lon="5.8413">
        <ele>280.26</ele>
        <time>2021-11-07T14:15:06.000Z</time>
      </trkpt>
      <trkpt lat="45.24525" lon="5.84133">
        <ele>283.5</ele>
        <time>2021-11-07T14:15:11.000Z</time>
      </trkpt>
      <trkpt lat="45.2454" lon="5.84143">
        <ele>284.88</ele>
        <time>2021-11-07T14:15:16.000Z</time>
      </trkpt>
      <trkpt lat="45.24556" lon="5.84154">
        <ele>282.71</ele>
        <time>2021-11-07T14:15:21.000Z</time>
      </trkpt>
      <trkpt lat="45.24572" lon="5.84166">
        <ele>286.65</ele>
        <time>2021-11-07T14:15:26.000Z</time>
      </trkpt>
      <trkpt lat="45.24588" lon="5.84185">
        <ele>291.4</ele>
        <time>2021-11-07T14:15:31.000Z</time>
      </trkpt>
      <trkpt lat="45.24595" lon="5.84194">
        <ele>288.38</ele>
        <time>2021-11-07T14:15:38.000Z</time>
      </trkpt>
      <trkpt lat="45.24591" lon="5.84181">
        <ele>287.05</ele>
        <time>2021-11-07T14:15:52.000Z</time>
      </trkpt>
      <trkpt lat="45.24576" lon="5.84161">
        <ele>283.63</ele>
        <time>2021-11-07T14:15:57.000Z</time>
      </trkpt>
      <trkpt lat="45.2455" lon="5.84144">
        <ele>280.95</ele>
        <time>2021-11-07T14:16:02.000Z</time>
      </trkpt>
      <trkpt lat="45.2453" lon="5.84121">
        <ele>281.6</ele>
        <time>2021-11-07T14:16:07.000Z</time>
      </trkpt>
      <trkpt lat="45.24518" lon="5.84099">
        <ele>277.7</ele>
        <time>2021-11-07T14:16:12.000Z</time>
      </trkpt>
      <trkpt lat="45.24523" lon="5.84074">
        <ele>277.84</ele>
        <time>2021-11-07T14:16:17.000Z</time>
      </trkpt>
      <trkpt lat="45.24535" lon="5.84045">
        <ele>278.21</ele>
        <time>2021-11-07T14:16:22.000Z</time>
      </trkpt>
      <trkpt lat="45.24544" lon="5.84019">
        <ele>275.1</ele>
        <time>2021-11-07T14:16:27.000Z</time>
      </trkpt>
      <trkpt lat="45.24557" lon="5.83996">
        <ele>280.76</ele>
        <time>2021-11-07T14:16:32.000Z</time>
      </trkpt>
      <trkpt lat="45.24567" lon="5.83972">
        <ele>281.1</ele>
        <time>2021-11-07T14:16:37.000Z</time>
      </trkpt>
      <trkpt lat="45.24577" lon="5.83975">
        <ele>282.44</ele>
        <time>2021-11-07T14:16:44.000Z</time>
      </trkpt>
      <trkpt lat="45.24588" lon="5.83993">
        <ele>283.01</ele>
        <time>2021-11-07T14:16:49.000Z</time>
      </trkpt>
      <trkpt lat="45.24597" lon="5.84">
        <ele>284.3</ele>
        <time>2021-11-07T14:16:55.000Z</time>
      </trkpt>
      <trkpt lat="45.24608" lon="5.84012">
        <ele>287.64</ele>
        <time>2021-11-07T14:17:00.000Z</time>
      </trkpt>
      <trkpt lat="45.24618" lon="5.84026">
        <ele>293.4</ele>
        <time>2021-11-07T14:17:05.000Z</time>
      </trkpt>
      <trkpt lat="45.24628" lon="5.84044">
        <ele>293.32</ele>
        <time>2021-11-07T14:17:10.000Z</time>
      </trkpt>
      <trkpt lat="45.24639" lon="5.84066">
        <ele>290.2</ele>
        <time>2021-11-07T14:17:15.000Z</time>
      </trkpt>
      <trkpt lat="45.2466" lon="5.84092">
        <ele>293.45</ele>
        <time>2021-11-07T14:17:20.000Z</time>
      </trkpt>
      <trkpt lat="45.24672" lon="5.84116">
        <ele>292.02</ele>
        <time>2021-11-07T14:17:25.000Z</time>
      </trkpt>
      <trkpt lat="45.24683" lon="5.84145">
        <ele>288.1</ele>
        <time>2021-11-07T14:17:30.000Z</time>
      </trkpt>
      <trkpt lat="45.24693" lon="5.84169">
        <ele>286.89</ele>
        <time>2021-11-07T14:17:35.000Z</time>
      </trkpt>
      <trkpt lat="45.24703" lon="5.84185">
        <ele>284.71</ele>
        <time>2021-11-07T14:17:40.000Z</time>
      </trkpt>
      <trkpt lat="45.2472" lon="5.8421">
        <ele>285.5</ele>
        <time>2021-11-07T14:17:45.000Z</time>
      </trkpt>
      <trkpt lat="45.24735" lon="5.8424">
        <ele>286.19</ele>
        <time>2021-11-07T14:17:50.000Z</time>
      </trkpt>
      <trkpt lat="45.24757" lon="5.84273">
        <ele>287.9</ele>
        <time>2021-11-07T14:17:55.000Z</time>
      </trkpt>
      <trkpt lat="45.24773" lon="5.84298">
        <ele>289.85</ele>
        <time>2021-11-07T14:18:00.000Z</time>
      </trkpt>
      <trkpt lat="45.24784" lon="5.84321">
        <ele>287.12</ele>
        <time>2021-11-07T14:18:05.000Z</time>
      </trkpt>
      <trkpt lat="45.24796" lon="5.84346">
        <ele>286.25</ele>
        <time>2021-11-07T14:18:10.000Z</time>
      </trkpt>
      <trkpt lat="45.24814" lon="5.84369">
        <ele>285.56</ele>
        <time>2021-11-07T14:18:15.000Z</time>
      </trkpt>
      <trkpt lat="45.24833" lon="5.84355">
        <ele>285.44</ele>
        <time>2021-11-07T14:18:20.000Z</time>
      </trkpt>
      <trkpt lat="45.24849" lon="5.84339">
        <ele>283.82</ele>
        <time>2021-11-07T14:18:25.000Z</time>
      </trkpt>
      <trkpt lat="45.24869" lon="5.8433">
        <ele>285.48</ele>
        <time>2021-11-07T14:18:30.000Z</time>
      </trkpt>
      <trkpt lat="45.24893" lon="5.84327">
        <ele>285.65</ele>
        <time>2021-11-07T14:18:35.000Z</time>
      </trkpt>
      <trkpt lat="45.24915" lon="5.84324">
        <ele>286.51</ele>
        <time>2021-11-07T14:18:40.000Z</time>
      </trkpt>
      <trkpt lat="45.24932" lon="5.84318">
        <ele>286.41</ele>
        <time>2021-11-07T14:18:45.000Z</time>
      </trkpt>
      <trkpt lat="45.24948" lon="5.8431">
        <ele>290.11</ele>
        <time>2021-11-07T14:18:50.000Z</time>
      </trkpt>
      <trkpt lat="45.24967" lon="5.84301">
        <ele>288.62</ele>
        <time>2021-11-07T14:18:55.000Z</time>
      </trkpt>
      <trkpt lat="45.24983" lon="5.84303">
        <ele>290.64</ele>
        <time>2021-11-07T14:19:00.000Z</time>
      </trkpt>
      <trkpt lat="45.24998" lon="5.84303">
        <ele>294.49</ele>
        <time>2021-11-07T14:19:05.000Z</time>
      </trkpt>
      <trkpt lat="45.25007" lon="5.84307">
        <ele>293.47</ele>
        <time>2021-11-07T14:19:13.000Z</time>
      </trkpt>
      <trkpt lat="45.25017" lon="5.84299">
        <ele>293.78</ele>
        <time>2021-11-07T14:19:24.000Z</time>
      </trkpt>
      <trkpt lat="45.25035" lon="5.84281">
        <ele>296.71</ele>
        <time>2021-11-07T14:19:29.000Z</time>
      </trkpt>
      <trkpt lat="45.25041" lon="5.84267">
        <ele>297.56</ele>
        <time>2021-11-07T14:19:34.000Z</time>
      </trkpt>
      <trkpt lat="45.2505" lon="5.84275">
        <ele>296.29</ele>
        <time>2021-11-07T14:19:46.000Z</time>
      </trkpt>
      <trkpt lat="45.25041" lon="5.84286">
        <ele>300.64</ele>
        <time>2021-11-07T14:20:19.000Z</time>
      </trkpt>
      <trkpt lat="45.25037" lon="5.84313">
        <ele>308.26</ele>
        <time>2021-11-07T14:20:24.000Z</time>
      </trkpt>
      <trkpt lat="45.25024" lon="5.84352">
        <ele>310.38</ele>
        <time>2021-11-07T14:20:29.000Z</time>
      </trkpt>
      <trkpt lat="45.25028" lon="5.84378">
        <ele>308.56</ele>
        <time>2021-11-07T14:20:34.000Z</time>
      </trkpt>
      <trkpt lat="45.25035" lon="5.84397">
        <ele>308.4</ele>
        <time>2021-11-07T14:20:39.000Z</time>
      </trkpt>
      <trkpt lat="45.25039" lon="5.84424">
        <ele>306.56</ele>
        <time>2021-11-07T14:20:44.000Z</time>
      </trkpt>
      <trkpt lat="45.25044" lon="5.84453">
        <ele>306.49</ele>
        <time>2021-11-07T14:20:49.000Z</time>
      </trkpt>
      <trkpt lat="45.25055" lon="5.84482">
        <ele>305.52</ele>
        <time>2021-11-07T14:20:54.000Z</time>
      </trkpt>
      <trkpt lat="45.25077" lon="5.84517">
        <ele>305.09</ele>
        <time>2021-11-07T14:20:59.000Z</time>
      </trkpt>
      <trkpt lat="45.25081" lon="5.84542">
        <ele>305.9</ele>
        <time>2021-11-07T14:21:04.000Z</time>
      </trkpt>
      <trkpt lat="45.25082" lon="5.84579">
        <ele>307.72</ele>
        <time>2021-11-07T14:21:09.000Z</time>
      </trkpt>
      <trkpt lat="45.25089" lon="5.84621">
        <ele>310.27</ele>
        <time>2021-11-07T14:21:14.000Z</time>
      </trkpt>
      <trkpt lat="45.25087" lon="5.84654">
        <ele>307.66</ele>
        <time>2021-11-07T14:21:19.000Z</time>
      </trkpt>
      <trkpt lat="45.25092" lon="5.84683">
        <ele>306.87</ele>
        <time>2021-11-07T14:21:24.000Z</time>
      </trkpt>
      <trkpt lat="45.2509" lon="5.84716">
        <ele>304.95</ele>
        <time>2021-11-07T14:21:29.000Z</time>
      </trkpt>
      <trkpt lat="45.25069" lon="5.84747">
        <ele>302.03</ele>
        <time>2021-11-07T14:21:34.000Z</time>
      </trkpt>
      <trkpt lat="45.25068" lon="5.84776">
        <ele>298.81</ele>
        <time>2021-11-07T14:21:39.000Z</time>
      </trkpt>
      <trkpt lat="45.2508" lon="5.84794">
        <ele>297.27</ele>
        <time>2021-11-07T14:21:44.000Z</time>
      </trkpt>
      <trkpt lat="45.25087" lon="5.84811">
        <ele>298.13</ele>
        <time>2021-11-07T14:21:49.000Z</time>
      </trkpt>
      <trkpt lat="45.25098" lon="5.84828">
        <ele>297.34</ele>
        <time>2021-11-07T14:21:54.000Z</time>
      </trkpt>
      <trkpt lat="45.25115" lon="5.84843">
        <ele>295.23</ele>
        <time>2021-11-07T14:21:59.000Z</time>
      </trkpt>
      <trkpt lat="45.25133" lon="5.84848">
        <ele>293.05</ele>
        <time>2021-11-07T14:22:04.000Z</time>
      </trkpt>
      <trkpt lat="45.2515" lon="5.84849">
        <ele>294.8</ele>
        <time>2021-11-07T14:22:09.000Z</time>
      </trkpt>
      <trkpt lat="45.25162" lon="5.84843">
        <ele>291.39</ele>
        <time>2021-11-07T14:22:14.000Z</time>
      </trkpt>
      <trkpt lat="45.25177" lon="5.84844">
        <ele>294.25</ele>
        <time>2021-11-07T14:22:19.000Z</time>
      </trkpt>
      <trkpt lat="45.25192" lon="5.84849">
        <ele>296.1</ele>
        <time>2021-11-07T14:22:24.000Z</time>
      </trkpt>
      <trkpt lat="45.25206" lon="5.84846">
        <ele>294.81</ele>
        <time>2021-11-07T14:22:29.000Z</time>
      </trkpt>
      <trkpt lat="45.25225" lon="5.84841">
        <ele>300.81</ele>
        <time>2021-11-07T14:22:34.000Z</time>
      </trkpt>
      <trkpt lat="45.2524" lon="5.84832">
        <ele>305.33</ele>
        <time>2021-11-07T14:22:39.000Z</time>
      </trkpt>
      <trkpt lat="45.25256" lon="5.84829">
        <ele>309.41</ele>
        <time>2021-11-07T14:22:44.000Z</time>
      </trkpt>
      <trkpt lat="45.25275" lon="5.84828">
        <ele>307.92</ele>
        <time>2021-11-07T14:22:49.000Z</time>
      </trkpt>
      <trkpt lat="45.253" lon="5.84822">
        <ele>312.14</ele>
        <time>2021-11-07T14:22:54.000Z</time>
      </trkpt>
      <trkpt lat="45.25344" lon="5.84817">
        <ele>313.42</ele>
        <time>2021-11-07T14:23:04.000Z</time>
      </trkpt>
      <trkpt lat="45.25362" lon="5.84826">
        <ele>312.71</ele>
        <time>2021-11-07T14:23:09.000Z</time>
      </trkpt>
      <trkpt lat="45.25383" lon="5.84831">
        <ele>312.75</ele>
        <time>2021-11-07T14:23:14.000Z</time>
      </trkpt>
      <trkpt lat="45.25399" lon="5.8484">
        <ele>319.96</ele>
        <time>2021-11-07T14:23:19.000Z</time>
      </trkpt>
      <trkpt lat="45.25414" lon="5.84839">
        <ele>322.71</ele>
        <time>2021-11-07T14:23:24.000Z</time>
      </trkpt>
      <trkpt lat="45.25428" lon="5.84834">
        <ele>323.43</ele>
        <time>2021-11-07T14:23:29.000Z</time>
      </trkpt>
      <trkpt lat="45.25445" lon="5.84835">
        <ele>324.14</ele>
        <time>2021-11-07T14:23:34.000Z</time>
      </trkpt>
      <trkpt lat="45.25461" lon="5.84837">
        <ele>325.12</ele>
        <time>2021-11-07T14:23:39.000Z</time>
      </trkpt>
      <trkpt lat="45.25478" lon="5.8484">
        <ele>326.75</ele>
        <time>2021-11-07T14:23:44.000Z</time>
      </trkpt>
      <trkpt lat="45.25496" lon="5.84839">
        <ele>326.15</ele>
        <time>2021-11-07T14:23:49.000Z</time>
      </trkpt>
      <trkpt lat="45.25513" lon="5.84836">
        <ele>331.6</ele>
        <time>2021-11-07T14:23:54.000Z</time>
      </trkpt>
      <trkpt lat="45.25528" lon="5.84831">
        <ele>335.29</ele>
        <time>2021-11-07T14:23:59.000Z</time>
      </trkpt>
      <trkpt lat="45.25543" lon="5.84818">
        <ele>338.09</ele>
        <time>2021-11-07T14:24:04.000Z</time>
      </trkpt>
      <trkpt lat="45.25558" lon="5.84807">
        <ele>338.04</ele>
        <time>2021-11-07T14:24:09.000Z</time>
      </trkpt>
      <trkpt lat="45.25569" lon="5.84795">
        <ele>333.74</ele>
        <time>2021-11-07T14:24:14.000Z</time>
      </trkpt>
      <trkpt lat="45.2558" lon="5.84786">
        <ele>334.43</ele>
        <time>2021-11-07T14:24:19.000Z</time>
      </trkpt>
      <trkpt lat="45.25594" lon="5.84777">
        <ele>332.61</ele>
        <time>2021-11-07T14:24:24.000Z</time>
      </trkpt>
      <trkpt lat="45.25602" lon="5.8477">
        <ele>328.41</ele>
        <time>2021-11-07T14:24:29.000Z</time>
      </trkpt>
      <trkpt lat="45.25616" lon="5.84755">
        <ele>331.58</ele>
        <time>2021-11-07T14:24:34.000Z</time>
      </trkpt>
      <trkpt lat="45.25624" lon="5.84748">
        <ele>336.33</ele>
        <time>2021-11-07T14:24:41.000Z</time>
      </trkpt>
      <trkpt lat="45.25634" lon="5.84749">
        <ele>334.47</ele>
        <time>2021-11-07T14:24:56.000Z</time>
      </trkpt>
      <trkpt lat="45.25639" lon="5.84733">
        <ele>340.18</ele>
        <time>2021-11-07T14:25:01.000Z</time>
      </trkpt>
      <trkpt lat="45.25637" lon="5.84711">
        <ele>344.83</ele>
        <time>2021-11-07T14:25:06.000Z</time>
      </trkpt>
      <trkpt lat="45.25631" lon="5.84691">
        <ele>340.74</ele>
        <time>2021-11-07T14:25:11.000Z</time>
      </trkpt>
      <trkpt lat="45.25622" lon="5.8467">
        <ele>346.47</ele>
        <time>2021-11-07T14:25:16.000Z</time>
      </trkpt>
      <trkpt lat="45.25609" lon="5.84634">
        <ele>343.56</ele>
        <time>2021-11-07T14:25:21.000Z</time>
      </trkpt>
      <trkpt lat="45.25598" lon="5.846">
        <ele>345.25</ele>
        <time>2021-11-07T14:25:26.000Z</time>
      </trkpt>
      <trkpt lat="45.25591" lon="5.84572">
        <ele>345.52</ele>
        <time>2021-11-07T14:25:31.000Z</time>
      </trkpt>
      <trkpt lat="45.25585" lon="5.84549">
        <ele>349.84</ele>
        <time>2021-11-07T14:25:36.000Z</time>
      </trkpt>
      <trkpt lat="45.25583" lon="5.84527">
        <ele>351.03</ele>
        <time>2021-11-07T14:25:41.000Z</time>
      </trkpt>
      <trkpt lat="45.25581" lon="5.84512">
        <ele>351.39</ele>
        <time>2021-11-07T14:25:49.000Z</time>
      </trkpt>
      <trkpt lat="45.25576" lon="5.84501">
        <ele>345.2</ele>
        <time>2021-11-07T14:26:15.000Z</time>
      </trkpt>
      <trkpt lat="45.25571" lon="5.84491">
        <ele>347.09</ele>
        <time>2021-11-07T14:26:24.000Z</time>
      </trkpt>
      <trkpt lat="45.25571" lon="5.84509">
        <ele>347.83</ele>
        <time>2021-11-07T14:39:19.000Z</time>
      </trkpt>
      <trkpt lat="45.25565" lon="5.84543">
        <ele>347.79</ele>
        <time>2021-11-07T14:39:24.000Z</time>
      </trkpt>
      <trkpt lat="45.25571" lon="5.84577">
        <ele>351.35</ele>
        <time>2021-11-07T14:39:29.000Z</time>
      </trkpt>
      <trkpt lat="45.25598" lon="5.84623">
        <ele>354.16</ele>
        <time>2021-11-07T14:39:34.000Z</time>
      </trkpt>
      <trkpt lat="45.25604" lon="5.84648">
        <ele>353.64</ele>
        <time>2021-11-07T14:39:39.000Z</time>
      </trkpt>
      <trkpt lat="45.25634" lon="5.84683">
        <ele>354.92</ele>
        <time>2021-11-07T14:39:44.000Z</time>
      </trkpt>
      <trkpt lat="45.25644" lon="5.84701">
        <ele>354.47</ele>
        <time>2021-11-07T14:39:49.000Z</time>
      </trkpt>
      <trkpt lat="45.25649" lon="5.84726">
        <ele>352.53</ele>
        <time>2021-11-07T14:39:54.000Z</time>
      </trkpt>
      <trkpt lat="45.25646" lon="5.8475">
        <ele>350.48</ele>
        <time>2021-11-07T14:39:59.000Z</time>
      </trkpt>
      <trkpt lat="45.25628" lon="5.8476">
        <ele>351.89</ele>
        <time>2021-11-07T14:40:04.000Z</time>
      </trkpt>
      <trkpt lat="45.25599" lon="5.84782">
        <ele>355.11</ele>
        <time>2021-11-07T14:40:09.000Z</time>
      </trkpt>
      <trkpt lat="45.25579" lon="5.8479">
        <ele>355.09</ele>
        <time>2021-11-07T14:40:14.000Z</time>
      </trkpt>
      <trkpt lat="45.25554" lon="5.8481">
        <ele>353.54</ele>
        <time>2021-11-07T14:40:19.000Z</time>
      </trkpt>
      <trkpt lat="45.25529" lon="5.84824">
        <ele>353.86</ele>
        <time>2021-11-07T14:40:24.000Z</time>
      </trkpt>
      <trkpt lat="45.2549" lon="5.84824">
        <ele>348.37</ele>
        <time>2021-11-07T14:40:29.000Z</time>
      </trkpt>
      <trkpt lat="45.25448" lon="5.84808">
        <ele>342.86</ele>
        <time>2021-11-07T14:40:34.000Z</time>
      </trkpt>
      <trkpt lat="45.25419" lon="5.84814">
        <ele>340.47</ele>
        <time>2021-11-07T14:40:39.000Z</time>
      </trkpt>
      <trkpt lat="45.25396" lon="5.84834">
        <ele>337.68</ele>
        <time>2021-11-07T14:40:44.000Z</time>
      </trkpt>
      <trkpt lat="45.25375" lon="5.84867">
        <ele>336.32</ele>
        <time>2021-11-07T14:40:49.000Z</time>
      </trkpt>
      <trkpt lat="45.25357" lon="5.84912">
        <ele>334.23</ele>
        <time>2021-11-07T14:40:54.000Z</time>
      </trkpt>
      <trkpt lat="45.25338" lon="5.84958">
        <ele>334.83</ele>
        <time>2021-11-07T14:40:59.000Z</time>
      </trkpt>
      <trkpt lat="45.25319" lon="5.84994">
        <ele>330.24</ele>
        <time>2021-11-07T14:41:04.000Z</time>
      </trkpt>
      <trkpt lat="45.25297" lon="5.85026">
        <ele>329.09</ele>
        <time>2021-11-07T14:41:09.000Z</time>
      </trkpt>
      <trkpt lat="45.25272" lon="5.85059">
        <ele>328.72</ele>
        <time>2021-11-07T14:41:14.000Z</time>
      </trkpt>
      <trkpt lat="45.25244" lon="5.85095">
        <ele>327.11</ele>
        <time>2021-11-07T14:41:19.000Z</time>
      </trkpt>
      <trkpt lat="45.25214" lon="5.85121">
        <ele>327.64</ele>
        <time>2021-11-07T14:41:24.000Z</time>
      </trkpt>
      <trkpt lat="45.25189" lon="5.85146">
        <ele>327.24</ele>
        <time>2021-11-07T14:41:29.000Z</time>
      </trkpt>
      <trkpt lat="45.25156" lon="5.85155">
        <ele>330.18</ele>
        <time>2021-11-07T14:41:34.000Z</time>
      </trkpt>
      <trkpt lat="45.25126" lon="5.85158">
        <ele>327.99</ele>
        <time>2021-11-07T14:41:39.000Z</time>
      </trkpt>
      <trkpt lat="45.25105" lon="5.85167">
        <ele>324</ele>
        <time>2021-11-07T14:41:44.000Z</time>
      </trkpt>
      <trkpt lat="45.25102" lon="5.85203">
        <ele>322.56</ele>
        <time>2021-11-07T14:41:49.000Z</time>
      </trkpt>
      <trkpt lat="45.25089" lon="5.85237">
        <ele>320.5</ele>
        <time>2021-11-07T14:41:54.000Z</time>
      </trkpt>
      <trkpt lat="45.25084" lon="5.85258">
        <ele>319.56</ele>
        <time>2021-11-07T14:41:59.000Z</time>
      </trkpt>
      <trkpt lat="45.25079" lon="5.8529">
        <ele>321.55</ele>
        <time>2021-11-07T14:42:04.000Z</time>
      </trkpt>
      <trkpt lat="45.25073" lon="5.85318">
        <ele>317.74</ele>
        <time>2021-11-07T14:42:09.000Z</time>
      </trkpt>
      <trkpt lat="45.25078" lon="5.85341">
        <ele>314.13</ele>
        <time>2021-11-07T14:42:14.000Z</time>
      </trkpt>
      <trkpt lat="45.25083" lon="5.85374">
        <ele>314.38</ele>
        <time>2021-11-07T14:42:19.000Z</time>
      </trkpt>
      <trkpt lat="45.2508" lon="5.85405">
        <ele>311.77</ele>
        <time>2021-11-07T14:42:24.000Z</time>
      </trkpt>
      <trkpt lat="45.25071" lon="5.85434">
        <ele>317.65</ele>
        <time>2021-11-07T14:42:29.000Z</time>
      </trkpt>
      <trkpt lat="45.25054" lon="5.85461">
        <ele>317.07</ele>
        <time>2021-11-07T14:42:34.000Z</time>
      </trkpt>
      <trkpt lat="45.25032" lon="5.85472">
        <ele>314.02</ele>
        <time>2021-11-07T14:42:39.000Z</time>
      </trkpt>
      <trkpt lat="45.25005" lon="5.85465">
        <ele>316.29</ele>
        <time>2021-11-07T14:42:44.000Z</time>
      </trkpt>
      <trkpt lat="45.24972" lon="5.85453">
        <ele>311.64</ele>
        <time>2021-11-07T14:42:49.000Z</time>
      </trkpt>
      <trkpt lat="45.24949" lon="5.85436">
        <ele>311.1</ele>
        <time>2021-11-07T14:42:54.000Z</time>
      </trkpt>
      <trkpt lat="45.24927" lon="5.85415">
        <ele>311.7</ele>
        <time>2021-11-07T14:42:59.000Z</time>
      </trkpt>
      <trkpt lat="45.24898" lon="5.85387">
        <ele>309.25</ele>
        <time>2021-11-07T14:43:04.000Z</time>
      </trkpt>
      <trkpt lat="45.24866" lon="5.85356">
        <ele>307.18</ele>
        <time>2021-11-07T14:43:09.000Z</time>
      </trkpt>
      <trkpt lat="45.24829" lon="5.85327">
        <ele>308.07</ele>
        <time>2021-11-07T14:43:14.000Z</time>
      </trkpt>
      <trkpt lat="45.24791" lon="5.85283">
        <ele>307.14</ele>
        <time>2021-11-07T14:43:19.000Z</time>
      </trkpt>
      <trkpt lat="45.24754" lon="5.85237">
        <ele>305.1</ele>
        <time>2021-11-07T14:43:24.000Z</time>
      </trkpt>
      <trkpt lat="45.24726" lon="5.85198">
        <ele>306.6</ele>
        <time>2021-11-07T14:43:29.000Z</time>
      </trkpt>
      <trkpt lat="45.24692" lon="5.8516">
        <ele>308.8</ele>
        <time>2021-11-07T14:43:34.000Z</time>
      </trkpt>
      <trkpt lat="45.24673" lon="5.85136">
        <ele>305.06</ele>
        <time>2021-11-07T14:43:39.000Z</time>
      </trkpt>
      <trkpt lat="45.24658" lon="5.85111">
        <ele>303.76</ele>
        <time>2021-11-07T14:43:44.000Z</time>
      </trkpt>
      <trkpt lat="45.24639" lon="5.85089">
        <ele>302.85</ele>
        <time>2021-11-07T14:43:49.000Z</time>
      </trkpt>
      <trkpt lat="45.24626" lon="5.85064">
        <ele>302.13</ele>
        <time>2021-11-07T14:43:54.000Z</time>
      </trkpt>
      <trkpt lat="45.2461" lon="5.85047">
        <ele>302.66</ele>
        <time>2021-11-07T14:43:59.000Z</time>
      </trkpt>
      <trkpt lat="45.24586" lon="5.85034">
        <ele>299.26</ele>
        <time>2021-11-07T14:44:04.000Z</time>
      </trkpt>
      <trkpt lat="45.24573" lon="5.85017">
        <ele>297.71</ele>
        <time>2021-11-07T14:44:09.000Z</time>
      </trkpt>
      <trkpt lat="45.24556" lon="5.84999">
        <ele>295.19</ele>
        <time>2021-11-07T14:44:14.000Z</time>
      </trkpt>
      <trkpt lat="45.24541" lon="5.84983">
        <ele>296.15</ele>
        <time>2021-11-07T14:44:19.000Z</time>
      </trkpt>
      <trkpt lat="45.2453" lon="5.84967">
        <ele>292.99</ele>
        <time>2021-11-07T14:44:24.000Z</time>
      </trkpt>
      <trkpt lat="45.24541" lon="5.84935">
        <ele>293.66</ele>
        <time>2021-11-07T14:44:29.000Z</time>
      </trkpt>
      <trkpt lat="45.24529" lon="5.84896">
        <ele>290.98</ele>
        <time>2021-11-07T14:44:34.000Z</time>
      </trkpt>
      <trkpt lat="45.24505" lon="5.84863">
        <ele>286.44</ele>
        <time>2021-11-07T14:44:39.000Z</time>
      </trkpt>
      <trkpt lat="45.24486" lon="5.84831">
        <ele>284.12</ele>
        <time>2021-11-07T14:44:44.000Z</time>
      </trkpt>
      <trkpt lat="45.24466" lon="5.84823">
        <ele>277.75</ele>
        <time>2021-11-07T14:44:49.000Z</time>
      </trkpt>
      <trkpt lat="45.24431" lon="5.84821">
        <ele>272.62</ele>
        <time>2021-11-07T14:44:54.000Z</time>
      </trkpt>
      <trkpt lat="45.24395" lon="5.84827">
        <ele>266.35</ele>
        <time>2021-11-07T14:44:59.000Z</time>
      </trkpt>
      <trkpt lat="45.24365" lon="5.84858">
        <ele>264.6</ele>
        <time>2021-11-07T14:45:04.000Z</time>
      </trkpt>
      <trkpt lat="45.2434" lon="5.84873">
        <ele>264.59</ele>
        <time>2021-11-07T14:45:09.000Z</time>
      </trkpt>
      <trkpt lat="45.24308" lon="5.84878">
        <ele>257.74</ele>
        <time>2021-11-07T14:45:14.000Z</time>
      </trkpt>
      <trkpt lat="45.24269" lon="5.84874">
        <ele>253.92</ele>
        <time>2021-11-07T14:45:19.000Z</time>
      </trkpt>
      <trkpt lat="45.24233" lon="5.84854">
        <ele>257.23</ele>
        <time>2021-11-07T14:45:24.000Z</time>
      </trkpt>
      <trkpt lat="45.24215" lon="5.84829">
        <ele>256.62</ele>
        <time>2021-11-07T14:45:29.000Z</time>
      </trkpt>
      <trkpt lat="45.24191" lon="5.84845">
        <ele>255.34</ele>
        <time>2021-11-07T14:45:34.000Z</time>
      </trkpt>
      <trkpt lat="45.24175" lon="5.84869">
        <ele>254.71</ele>
        <time>2021-11-07T14:45:39.000Z</time>
      </trkpt>
      <trkpt lat="45.24158" lon="5.84871">
        <ele>255.87</ele>
        <time>2021-11-07T14:45:44.000Z</time>
      </trkpt>
      <trkpt lat="45.24147" lon="5.84862">
        <ele>253.47</ele>
        <time>2021-11-07T14:45:49.000Z</time>
      </trkpt>
      <trkpt lat="45.24156" lon="5.84841">
        <ele>252.9</ele>
        <time>2021-11-07T14:45:54.000Z</time>
      </trkpt>
      <trkpt lat="45.2415" lon="5.84822">
        <ele>251.6</ele>
        <time>2021-11-07T14:45:59.000Z</time>
      </trkpt>
      <trkpt lat="45.24132" lon="5.84795">
        <ele>248.86</ele>
        <time>2021-11-07T14:46:04.000Z</time>
      </trkpt>
      <trkpt lat="45.24122" lon="5.84767">
        <ele>247.36</ele>
        <time>2021-11-07T14:46:09.000Z</time>
      </trkpt>
      <trkpt lat="45.24117" lon="5.84737">
        <ele>244.73</ele>
        <time>2021-11-07T14:46:14.000Z</time>
      </trkpt>
      <trkpt lat="45.24106" lon="5.84707">
        <ele>243.75</ele>
        <time>2021-11-07T14:46:19.000Z</time>
      </trkpt>
      <trkpt lat="45.24103" lon="5.84675">
        <ele>243.19</ele>
        <time>2021-11-07T14:46:24.000Z</time>
      </trkpt>
      <trkpt lat="45.24089" lon="5.84649">
        <ele>242.86</ele>
        <time>2021-11-07T14:46:29.000Z</time>
      </trkpt>
      <trkpt lat="45.24066" lon="5.84643">
        <ele>240.78</ele>
        <time>2021-11-07T14:46:34.000Z</time>
      </trkpt>
      <trkpt lat="45.24052" lon="5.84668">
        <ele>241.48</ele>
        <time>2021-11-07T14:46:39.000Z</time>
      </trkpt>
      <trkpt lat="45.24052" lon="5.84681">
        <ele>250.2</ele>
        <time>2021-11-07T14:46:51.000Z</time>
      </trkpt>
      <trkpt lat="45.24027" lon="5.84697">
        <ele>244.96</ele>
        <time>2021-11-07T14:46:56.000Z</time>
      </trkpt>
      <trkpt lat="45.24" lon="5.84717">
        <ele>244.39</ele>
        <time>2021-11-07T14:47:01.000Z</time>
      </trkpt>
      <trkpt lat="45.2397" lon="5.84741">
        <ele>242.17</ele>
        <time>2021-11-07T14:47:06.000Z</time>
      </trkpt>
      <trkpt lat="45.23943" lon="5.84766">
        <ele>245.15</ele>
        <time>2021-11-07T14:47:11.000Z</time>
      </trkpt>
      <trkpt lat="45.23924" lon="5.84815">
        <ele>243.07</ele>
        <time>2021-11-07T14:47:16.000Z</time>
      </trkpt>
      <trkpt lat="45.23915" lon="5.84878">
        <ele>245.49</ele>
        <time>2021-11-07T14:47:21.000Z</time>
      </trkpt>
      <trkpt lat="45.23923" lon="5.8493">
        <ele>245.64</ele>
        <time>2021-11-07T14:47:26.000Z</time>
      </trkpt>
      <trkpt lat="45.23951" lon="5.84969">
        <ele>247.73</ele>
        <time>2021-11-07T14:47:31.000Z</time>
      </trkpt>
      <trkpt lat="45.23966" lon="5.85007">
        <ele>248.47</ele>
        <time>2021-11-07T14:47:36.000Z</time>
      </trkpt>
      <trkpt lat="45.24001" lon="5.85012">
        <ele>251.78</ele>
        <time>2021-11-07T14:47:41.000Z</time>
      </trkpt>
      <trkpt lat="45.24025" lon="5.8502">
        <ele>249.96</ele>
        <time>2021-11-07T14:47:46.000Z</time>
      </trkpt>
      <trkpt lat="45.24048" lon="5.85044">
        <ele>249.36</ele>
        <time>2021-11-07T14:47:51.000Z</time>
      </trkpt>
      <trkpt lat="45.24071" lon="5.85075">
        <ele>249.53</ele>
        <time>2021-11-07T14:47:56.000Z</time>
      </trkpt>
      <trkpt lat="45.24088" lon="5.85133">
        <ele>241.77</ele>
        <time>2021-11-07T14:48:01.000Z</time>
      </trkpt>
      <trkpt lat="45.24076" lon="5.85196">
        <ele>243.93</ele>
        <time>2021-11-07T14:48:06.000Z</time>
      </trkpt>
      <trkpt lat="45.24052" lon="5.85245">
        <ele>242.51</ele>
        <time>2021-11-07T14:48:11.000Z</time>
      </trkpt>
      <trkpt lat="45.24007" lon="5.8531">
        <ele>240.89</ele>
        <time>2021-11-07T14:48:16.000Z</time>
      </trkpt>
      <trkpt lat="45.23965" lon="5.85365">
        <ele>237.3</ele>
        <time>2021-11-07T14:48:21.000Z</time>
      </trkpt>
      <trkpt lat="45.23911" lon="5.85396">
        <ele>234.97</ele>
        <time>2021-11-07T14:48:26.000Z</time>
      </trkpt>
      <trkpt lat="45.23861" lon="5.85403">
        <ele>235.59</ele>
        <time>2021-11-07T14:48:31.000Z</time>
      </trkpt>
      <trkpt lat="45.23818" lon="5.85408">
        <ele>230.73</ele>
        <time>2021-11-07T14:48:36.000Z</time>
      </trkpt>
      <trkpt lat="45.2378" lon="5.85415">
        <ele>228.38</ele>
        <time>2021-11-07T14:48:41.000Z</time>
      </trkpt>
      <trkpt lat="45.23745" lon="5.85418">
        <ele>228.02</ele>
        <time>2021-11-07T14:48:46.000Z</time>
      </trkpt>
      <trkpt lat="45.23712" lon="5.85421">
        <ele>230.9</ele>
        <time>2021-11-07T14:48:51.000Z</time>
      </trkpt>
      <trkpt lat="45.23678" lon="5.85424">
        <ele>231</ele>
        <time>2021-11-07T14:48:56.000Z</time>
      </trkpt>
      <trkpt lat="45.23643" lon="5.85426">
        <ele>226.69</ele>
        <time>2021-11-07T14:49:01.000Z</time>
      </trkpt>
      <trkpt lat="45.23607" lon="5.85426">
        <ele>227.64</ele>
        <time>2021-11-07T14:49:06.000Z</time>
      </trkpt>
      <trkpt lat="45.23579" lon="5.8543">
        <ele>223.3</ele>
        <time>2021-11-07T14:49:11.000Z</time>
      </trkpt>
      <trkpt lat="45.23545" lon="5.8544">
        <ele>222.7</ele>
        <time>2021-11-07T14:49:16.000Z</time>
      </trkpt>
      <trkpt lat="45.23514" lon="5.85433">
        <ele>223.42</ele>
        <time>2021-11-07T14:49:21.000Z</time>
      </trkpt>
      <trkpt lat="45.23481" lon="5.85429">
        <ele>223.53</ele>
        <time>2021-11-07T14:49:26.000Z</time>
      </trkpt>
      <trkpt lat="45.23452" lon="5.85419">
        <ele>223.98</ele>
        <time>2021-11-07T14:49:31.000Z</time>
      </trkpt>
      <trkpt lat="45.23427" lon="5.85403">
        <ele>227.58</ele>
        <time>2021-11-07T14:49:36.000Z</time>
      </trkpt>
      <trkpt lat="45.23398" lon="5.85396">
        <ele>225.54</ele>
        <time>2021-11-07T14:49:41.000Z</time>
      </trkpt>
      <trkpt lat="45.2337" lon="5.85387">
        <ele>222.99</ele>
        <time>2021-11-07T14:49:46.000Z</time>
      </trkpt>
      <trkpt lat="45.23335" lon="5.85381">
        <ele>222.63</ele>
        <time>2021-11-07T14:49:51.000Z</time>
      </trkpt>
      <trkpt lat="45.23307" lon="5.8537">
        <ele>221.19</ele>
        <time>2021-11-07T14:49:56.000Z</time>
      </trkpt>
      <trkpt lat="45.23277" lon="5.8536">
        <ele>217.58</ele>
        <time>2021-11-07T14:50:01.000Z</time>
      </trkpt>
      <trkpt lat="45.23246" lon="5.85352">
        <ele>218.76</ele>
        <time>2021-11-07T14:50:06.000Z</time>
      </trkpt>
      <trkpt lat="45.23215" lon="5.85341">
        <ele>220.28</ele>
        <time>2021-11-07T14:50:11.000Z</time>
      </trkpt>
      <trkpt lat="45.23181" lon="5.85325">
        <ele>215.95</ele>
        <time>2021-11-07T14:50:16.000Z</time>
      </trkpt>
      <trkpt lat="45.23157" lon="5.85318">
        <ele>216.04</ele>
        <time>2021-11-07T14:50:21.000Z</time>
      </trkpt>
      <trkpt lat="45.23138" lon="5.85317">
        <ele>219.5</ele>
        <time>2021-11-07T14:50:26.000Z</time>
      </trkpt>
      <trkpt lat="45.23112" lon="5.85328">
        <ele>216.67</ele>
        <time>2021-11-07T14:50:31.000Z</time>
      </trkpt>
      <trkpt lat="45.23091" lon="5.85339">
        <ele>218.5</ele>
        <time>2021-11-07T14:50:36.000Z</time>
      </trkpt>
      <trkpt lat="45.23072" lon="5.8537">
        <ele>215.12</ele>
        <time>2021-11-07T14:50:41.000Z</time>
      </trkpt>
      <trkpt lat="45.23058" lon="5.85392">
        <ele>214.22</ele>
        <time>2021-11-07T14:50:46.000Z</time>
      </trkpt>
      <trkpt lat="45.23039" lon="5.85425">
        <ele>214.47</ele>
        <time>2021-11-07T14:50:51.000Z</time>
      </trkpt>
      <trkpt lat="45.23019" lon="5.85472">
        <ele>216.88</ele>
        <time>2021-11-07T14:50:56.000Z</time>
      </trkpt>
      <trkpt lat="45.23002" lon="5.85501">
        <ele>222.71</ele>
        <time>2021-11-07T14:51:01.000Z</time>
      </trkpt>
      <trkpt lat="45.22978" lon="5.85538">
        <ele>223.06</ele>
        <time>2021-11-07T14:51:06.000Z</time>
      </trkpt>
      <trkpt lat="45.22971" lon="5.85573">
        <ele>224.76</ele>
        <time>2021-11-07T14:51:11.000Z</time>
      </trkpt>
      <trkpt lat="45.22985" lon="5.8557">
        <ele>227.81</ele>
        <time>2021-11-07T14:51:16.000Z</time>
      </trkpt>
      <trkpt lat="45.22998" lon="5.85581">
        <ele>226.94</ele>
        <time>2021-11-07T14:51:21.000Z</time>
      </trkpt>
      <trkpt lat="45.23011" lon="5.8559">
        <ele>228.37</ele>
        <time>2021-11-07T14:51:26.000Z</time>
      </trkpt>
      <trkpt lat="45.23029" lon="5.85618">
        <ele>225.88</ele>
        <time>2021-11-07T14:51:31.000Z</time>
      </trkpt>
      <trkpt lat="45.23019" lon="5.85629">
        <ele>222.93</ele>
        <time>2021-11-07T14:51:36.000Z</time>
      </trkpt>
      <trkpt lat="45.23011" lon="5.85635">
        <ele>221.55</ele>
        <time>2021-11-07T14:51:45.000Z</time>
      </trkpt>
      <trkpt lat="45.23004" lon="5.85626">
        <ele>225.2</ele>
        <time>2021-11-07T14:51:50.000Z</time>
      </trkpt>
      <trkpt lat="45.22993" lon="5.8561">
        <ele>226.08</ele>
        <time>2021-11-07T14:51:55.000Z</time>
      </trkpt>
      <trkpt lat="45.22981" lon="5.8561">
        <ele>224.28</ele>
        <time>2021-11-07T14:52:00.000Z</time>
      </trkpt>
      <trkpt lat="45.22971" lon="5.85638">
        <ele>224.9</ele>
        <time>2021-11-07T14:52:05.000Z</time>
      </trkpt>
      <trkpt lat="45.22963" lon="5.85682">
        <ele>226.62</ele>
        <time>2021-11-07T14:52:10.000Z</time>
      </trkpt>
      <trkpt lat="45.22958" lon="5.85719">
        <ele>222.18</ele>
        <time>2021-11-07T14:52:15.000Z</time>
      </trkpt>
      <trkpt lat="45.22952" lon="5.85754">
        <ele>227.15</ele>
        <time>2021-11-07T14:52:20.000Z</time>
      </trkpt>
      <trkpt lat="45.22949" lon="5.85792">
        <ele>225.79</ele>
        <time>2021-11-07T14:52:25.000Z</time>
      </trkpt>
      <trkpt lat="45.22951" lon="5.85831">
        <ele>225.21</ele>
        <time>2021-11-07T14:52:30.000Z</time>
      </trkpt>
      <trkpt lat="45.22947" lon="5.85865">
        <ele>225.97</ele>
        <time>2021-11-07T14:52:35.000Z</time>
      </trkpt>
      <trkpt lat="45.22956" lon="5.85902">
        <ele>224.61</ele>
        <time>2021-11-07T14:52:40.000Z</time>
      </trkpt>
      <trkpt lat="45.22962" lon="5.85934">
        <ele>225.43</ele>
        <time>2021-11-07T14:52:45.000Z</time>
      </trkpt>
      <trkpt lat="45.22969" lon="5.85971">
        <ele>223.51</ele>
        <time>2021-11-07T14:52:50.000Z</time>
      </trkpt>
      <trkpt lat="45.22976" lon="5.86004">
        <ele>223.48</ele>
        <time>2021-11-07T14:52:55.000Z</time>
      </trkpt>
      <trkpt lat="45.22991" lon="5.86042">
        <ele>221.02</ele>
        <time>2021-11-07T14:53:00.000Z</time>
      </trkpt>
      <trkpt lat="45.22994" lon="5.86082">
        <ele>218.59</ele>
        <time>2021-11-07T14:53:05.000Z</time>
      </trkpt>
      <trkpt lat="45.22999" lon="5.86115">
        <ele>220.78</ele>
        <time>2021-11-07T14:53:10.000Z</time>
      </trkpt>
      <trkpt lat="45.23" lon="5.86145">
        <ele>220.03</ele>
        <time>2021-11-07T14:53:15.000Z</time>
      </trkpt>
      <trkpt lat="45.23012" lon="5.86189">
        <ele>217.27</ele>
        <time>2021-11-07T14:53:20.000Z</time>
      </trkpt>
      <trkpt lat="45.23018" lon="5.86226">
        <ele>217.93</ele>
        <time>2021-11-07T14:53:25.000Z</time>
      </trkpt>
      <trkpt lat="45.23023" lon="5.86268">
        <ele>219.31</ele>
        <time>2021-11-07T14:53:30.000Z</time>
      </trkpt>
      <trkpt lat="45.23028" lon="5.86304">
        <ele>219.37</ele>
        <time>2021-11-07T14:53:35.000Z</time>
      </trkpt>
      <trkpt lat="45.23028" lon="5.86338">
        <ele>221.34</ele>
        <time>2021-11-07T14:53:40.000Z</time>
      </trkpt>
      <trkpt lat="45.23034" lon="5.86368">
        <ele>222.73</ele>
        <time>2021-11-07T14:53:45.000Z</time>
      </trkpt>
      <trkpt lat="45.23035" lon="5.86394">
        <ele>222.79</ele>
        <time>2021-11-07T14:53:50.000Z</time>
      </trkpt>
      <trkpt lat="45.23035" lon="5.86422">
        <ele>221.15</ele>
        <time>2021-11-07T14:53:55.000Z</time>
      </trkpt>
      <trkpt lat="45.23036" lon="5.8646">
        <ele>221.87</ele>
        <time>2021-11-07T14:54:00.000Z</time>
      </trkpt>
      <trkpt lat="45.23033" lon="5.86497">
        <ele>221.55</ele>
        <time>2021-11-07T14:54:05.000Z</time>
      </trkpt>
      <trkpt lat="45.23032" lon="5.86542">
        <ele>222.81</ele>
        <time>2021-11-07T14:54:10.000Z</time>
      </trkpt>
      <trkpt lat="45.2302" lon="5.86584">
        <ele>220.33</ele>
        <time>2021-11-07T14:54:15.000Z</time>
      </trkpt>
      <trkpt lat="45.23011" lon="5.86626">
        <ele>219.01</ele>
        <time>2021-11-07T14:54:20.000Z</time>
      </trkpt>
      <trkpt lat="45.23007" lon="5.86661">
        <ele>218.85</ele>
        <time>2021-11-07T14:54:25.000Z</time>
      </trkpt>
      <trkpt lat="45.23" lon="5.86689">
        <ele>217.44</ele>
        <time>2021-11-07T14:54:30.000Z</time>
      </trkpt>
      <trkpt lat="45.22994" lon="5.86728">
        <ele>219.8</ele>
        <time>2021-11-07T14:54:35.000Z</time>
      </trkpt>
      <trkpt lat="45.22985" lon="5.86761">
        <ele>220.29</ele>
        <time>2021-11-07T14:54:40.000Z</time>
      </trkpt>
      <trkpt lat="45.22977" lon="5.86795">
        <ele>218.9</ele>
        <time>2021-11-07T14:54:45.000Z</time>
      </trkpt>
      <trkpt lat="45.22959" lon="5.86831">
        <ele>221.21</ele>
        <time>2021-11-07T14:54:50.000Z</time>
      </trkpt>
      <trkpt lat="45.2295" lon="5.86863">
        <ele>221.77</ele>
        <time>2021-11-07T14:54:55.000Z</time>
      </trkpt>
      <trkpt lat="45.22935" lon="5.86893">
        <ele>220.44</ele>
        <time>2021-11-07T14:55:00.000Z</time>
      </trkpt>
      <trkpt lat="45.22917" lon="5.86924">
        <ele>223.39</ele>
        <time>2021-11-07T14:55:05.000Z</time>
      </trkpt>
      <trkpt lat="45.22899" lon="5.86945">
        <ele>221.41</ele>
        <time>2021-11-07T14:55:10.000Z</time>
      </trkpt>
      <trkpt lat="45.22886" lon="5.8696">
        <ele>220.38</ele>
        <time>2021-11-07T14:55:15.000Z</time>
      </trkpt>
      <trkpt lat="45.22874" lon="5.86975">
        <ele>222.34</ele>
        <time>2021-11-07T14:55:20.000Z</time>
      </trkpt>
      <trkpt lat="45.22858" lon="5.86989">
        <ele>222.66</ele>
        <time>2021-11-07T14:55:25.000Z</time>
      </trkpt>
      <trkpt lat="45.22843" lon="5.86998">
        <ele>222.32</ele>
        <time>2021-11-07T14:55:30.000Z</time>
      </trkpt>
      <trkpt lat="45.22826" lon="5.87008">
        <ele>225.59</ele>
        <time>2021-11-07T14:55:35.000Z</time>
      </trkpt>
      <trkpt lat="45.22812" lon="5.87027">
        <ele>230.39</ele>
        <time>2021-11-07T14:55:40.000Z</time>
      </trkpt>
      <trkpt lat="45.22802" lon="5.87041">
        <ele>230.47</ele>
        <time>2021-11-07T14:55:45.000Z</time>
      </trkpt>
      <trkpt lat="45.22791" lon="5.87055">
        <ele>231.2</ele>
        <time>2021-11-07T14:55:50.000Z</time>
      </trkpt>
      <trkpt lat="45.22777" lon="5.87073">
        <ele>230.43</ele>
        <time>2021-11-07T14:55:55.000Z</time>
      </trkpt>
      <trkpt lat="45.22757" lon="5.87108">
        <ele>227.58</ele>
        <time>2021-11-07T14:56:00.000Z</time>
      </trkpt>
      <trkpt lat="45.22743" lon="5.8715">
        <ele>225.33</ele>
        <time>2021-11-07T14:56:05.000Z</time>
      </trkpt>
      <trkpt lat="45.22739" lon="5.87197">
        <ele>219.5</ele>
        <time>2021-11-07T14:56:10.000Z</time>
      </trkpt>
      <trkpt lat="45.22726" lon="5.8725">
        <ele>216.45</ele>
        <time>2021-11-07T14:56:15.000Z</time>
      </trkpt>
      <trkpt lat="45.22724" lon="5.87298">
        <ele>216.3</ele>
        <time>2021-11-07T14:56:20.000Z</time>
      </trkpt>
      <trkpt lat="45.22724" lon="5.87332">
        <ele>221.55</ele>
        <time>2021-11-07T14:56:25.000Z</time>
      </trkpt>
      <trkpt lat="45.22695" lon="5.87329">
        <ele>220.38</ele>
        <time>2021-11-07T14:56:30.000Z</time>
      </trkpt>
      <trkpt lat="45.22671" lon="5.87314">
        <ele>223.41</ele>
        <time>2021-11-07T14:56:35.000Z</time>
      </trkpt>
      <trkpt lat="45.22646" lon="5.87321">
        <ele>223.09</ele>
        <time>2021-11-07T14:56:40.000Z</time>
      </trkpt>
      <trkpt lat="45.22635" lon="5.87359">
        <ele>221.72</ele>
        <time>2021-11-07T14:56:45.000Z</time>
      </trkpt>
      <trkpt lat="45.22662" lon="5.87389">
        <ele>220.77</ele>
        <time>2021-11-07T14:56:50.000Z</time>
      </trkpt>
      <trkpt lat="45.22679" lon="5.8743">
        <ele>219.45</ele>
        <time>2021-11-07T14:56:55.000Z</time>
      </trkpt>
      <trkpt lat="45.22697" lon="5.87465">
        <ele>218.06</ele>
        <time>2021-11-07T14:57:00.000Z</time>
      </trkpt>
      <trkpt lat="45.22719" lon="5.87494">
        <ele>217</ele>
        <time>2021-11-07T14:57:05.000Z</time>
      </trkpt>
      <trkpt lat="45.22742" lon="5.87513">
        <ele>218.53</ele>
        <time>2021-11-07T14:57:10.000Z</time>
      </trkpt>
      <trkpt lat="45.2277" lon="5.87535">
        <ele>217.37</ele>
        <time>2021-11-07T14:57:15.000Z</time>
      </trkpt>
      <trkpt lat="45.2279" lon="5.87556">
        <ele>218.8</ele>
        <time>2021-11-07T14:57:20.000Z</time>
      </trkpt>
      <trkpt lat="45.22812" lon="5.87586">
        <ele>222.2</ele>
        <time>2021-11-07T14:57:25.000Z</time>
      </trkpt>
      <trkpt lat="45.22835" lon="5.8761">
        <ele>219.58</ele>
        <time>2021-11-07T14:57:30.000Z</time>
      </trkpt>
      <trkpt lat="45.22852" lon="5.87633">
        <ele>216.69</ele>
        <time>2021-11-07T14:57:35.000Z</time>
      </trkpt>
      <trkpt lat="45.22873" lon="5.87662">
        <ele>217.65</ele>
        <time>2021-11-07T14:57:40.000Z</time>
      </trkpt>
      <trkpt lat="45.2289" lon="5.87683">
        <ele>219.54</ele>
        <time>2021-11-07T14:57:45.000Z</time>
      </trkpt>
      <trkpt lat="45.22911" lon="5.87702">
        <ele>220.16</ele>
        <time>2021-11-07T14:57:50.000Z</time>
      </trkpt>
      <trkpt lat="45.22935" lon="5.87714">
        <ele>220.53</ele>
        <time>2021-11-07T14:57:55.000Z</time>
      </trkpt>
      <trkpt lat="45.22955" lon="5.87736">
        <ele>219.62</ele>
        <time>2021-11-07T14:58:00.000Z</time>
      </trkpt>
      <trkpt lat="45.22974" lon="5.8776">
        <ele>220.9</ele>
        <time>2021-11-07T14:58:05.000Z</time>
      </trkpt>
      <trkpt lat="45.22992" lon="5.87791">
        <ele>220.86</ele>
        <time>2021-11-07T14:58:10.000Z</time>
      </trkpt>
      <trkpt lat="45.23014" lon="5.87813">
        <ele>222.58</ele>
        <time>2021-11-07T14:58:15.000Z</time>
      </trkpt>
      <trkpt lat="45.23035" lon="5.87838">
        <ele>221.48</ele>
        <time>2021-11-07T14:58:20.000Z</time>
      </trkpt>
      <trkpt lat="45.23059" lon="5.87854">
        <ele>225.14</ele>
        <time>2021-11-07T14:58:25.000Z</time>
      </trkpt>
      <trkpt lat="45.23085" lon="5.87875">
        <ele>223</ele>
        <time>2021-11-07T14:58:30.000Z</time>
      </trkpt>
      <trkpt lat="45.23106" lon="5.87901">
        <ele>220.43</ele>
        <time>2021-11-07T14:58:35.000Z</time>
      </trkpt>
      <trkpt lat="45.23125" lon="5.87924">
        <ele>220.81</ele>
        <time>2021-11-07T14:58:40.000Z</time>
      </trkpt>
      <trkpt lat="45.23149" lon="5.87946">
        <ele>222.35</ele>
        <time>2021-11-07T14:58:45.000Z</time>
      </trkpt>
      <trkpt lat="45.23169" lon="5.87967">
        <ele>223</ele>
        <time>2021-11-07T14:58:50.000Z</time>
      </trkpt>
      <trkpt lat="45.23196" lon="5.87985">
        <ele>223.17</ele>
        <time>2021-11-07T14:58:55.000Z</time>
      </trkpt>
      <trkpt lat="45.23213" lon="5.88015">
        <ele>224.66</ele>
        <time>2021-11-07T14:59:00.000Z</time>
      </trkpt>
      <trkpt lat="45.23237" lon="5.88037">
        <ele>226.26</ele>
        <time>2021-11-07T14:59:05.000Z</time>
      </trkpt>
      <trkpt lat="45.23257" lon="5.88062">
        <ele>228.22</ele>
        <time>2021-11-07T14:59:10.000Z</time>
      </trkpt>
      <trkpt lat="45.2328" lon="5.88088">
        <ele>226.02</ele>
        <time>2021-11-07T14:59:15.000Z</time>
      </trkpt>
      <trkpt lat="45.23304" lon="5.8811">
        <ele>226.66</ele>
        <time>2021-11-07T14:59:20.000Z</time>
      </trkpt>
      <trkpt lat="45.2333" lon="5.88144">
        <ele>226.26</ele>
        <time>2021-11-07T14:59:25.000Z</time>
      </trkpt>
      <trkpt lat="45.23347" lon="5.88178">
        <ele>227.52</ele>
        <time>2021-11-07T14:59:30.000Z</time>
      </trkpt>
      <trkpt lat="45.2336" lon="5.88206">
        <ele>225.62</ele>
        <time>2021-11-07T14:59:35.000Z</time>
      </trkpt>
      <trkpt lat="45.23378" lon="5.88235">
        <ele>229.04</ele>
        <time>2021-11-07T14:59:40.000Z</time>
      </trkpt>
      <trkpt lat="45.23393" lon="5.88256">
        <ele>229.94</ele>
        <time>2021-11-07T14:59:45.000Z</time>
      </trkpt>
      <trkpt lat="45.23386" lon="5.88268">
        <ele>226.15</ele>
        <time>2021-11-07T14:59:50.000Z</time>
      </trkpt>
      <trkpt lat="45.23375" lon="5.88286">
        <ele>223.26</ele>
        <time>2021-11-07T14:59:55.000Z</time>
      </trkpt>
      <trkpt lat="45.23361" lon="5.88306">
        <ele>225.05</ele>
        <time>2021-11-07T15:00:00.000Z</time>
      </trkpt>
      <trkpt lat="45.23348" lon="5.88327">
        <ele>228.65</ele>
        <time>2021-11-07T15:00:05.000Z</time>
      </trkpt>
      <trkpt lat="45.23333" lon="5.88346">
        <ele>230.15</ele>
        <time>2021-11-07T15:00:10.000Z</time>
      </trkpt>
      <trkpt lat="45.23319" lon="5.88365">
        <ele>230.18</ele>
        <time>2021-11-07T15:00:15.000Z</time>
      </trkpt>
      <trkpt lat="45.23303" lon="5.88384">
        <ele>231.68</ele>
        <time>2021-11-07T15:00:20.000Z</time>
      </trkpt>
      <trkpt lat="45.23289" lon="5.88401">
        <ele>230.14</ele>
        <time>2021-11-07T15:00:25.000Z</time>
      </trkpt>
      <trkpt lat="45.23283" lon="5.88411">
        <ele>230.41</ele>
        <time>2021-11-07T15:00:35.000Z</time>
      </trkpt>
      <trkpt lat="45.23282" lon="5.88424">
        <ele>232.7</ele>
        <time>2021-11-07T15:03:01.000Z</time>
      </trkpt>
      <trkpt lat="45.23281" lon="5.88459">
        <ele>231.27</ele>
        <time>2021-11-07T15:03:06.000Z</time>
      </trkpt>
      <trkpt lat="45.23282" lon="5.8849">
        <ele>233.71</ele>
        <time>2021-11-07T15:03:11.000Z</time>
      </trkpt>
      <trkpt lat="45.23296" lon="5.88527">
        <ele>235.84</ele>
        <time>2021-11-07T15:03:16.000Z</time>
      </trkpt>
      <trkpt lat="45.23316" lon="5.88531">
        <ele>238.89</ele>
        <time>2021-11-07T15:03:21.000Z</time>
      </trkpt>
      <trkpt lat="45.2333" lon="5.88545">
        <ele>240.86</ele>
        <time>2021-11-07T15:03:26.000Z</time>
      </trkpt>
      <trkpt lat="45.23343" lon="5.88564">
        <ele>242.74</ele>
        <time>2021-11-07T15:03:31.000Z</time>
      </trkpt>
      <trkpt lat="45.23356" lon="5.88578">
        <ele>244.85</ele>
        <time>2021-11-07T15:03:36.000Z</time>
      </trkpt>
      <trkpt lat="45.23367" lon="5.88595">
        <ele>246.23</ele>
        <time>2021-11-07T15:03:41.000Z</time>
      </trkpt>
      <trkpt lat="45.23379" lon="5.88615">
        <ele>247.98</ele>
        <time>2021-11-07T15:03:46.000Z</time>
      </trkpt>
      <trkpt lat="45.23391" lon="5.88629">
        <ele>250.42</ele>
        <time>2021-11-07T15:03:51.000Z</time>
      </trkpt>
      <trkpt lat="45.23403" lon="5.88648">
        <ele>249.26</ele>
        <time>2021-11-07T15:03:56.000Z</time>
      </trkpt>
      <trkpt lat="45.23408" lon="5.88675">
        <ele>249.37</ele>
        <time>2021-11-07T15:04:01.000Z</time>
      </trkpt>
      <trkpt lat="45.23423" lon="5.88699">
        <ele>252.5</ele>
        <time>2021-11-07T15:04:06.000Z</time>
      </trkpt>
      <trkpt lat="45.23431" lon="5.88726">
        <ele>252.46</ele>
        <time>2021-11-07T15:04:11.000Z</time>
      </trkpt>
      <trkpt lat="45.23443" lon="5.88745">
        <ele>254.46</ele>
        <time>2021-11-07T15:04:16.000Z</time>
      </trkpt>
      <trkpt lat="45.23459" lon="5.88764">
        <ele>256.37</ele>
        <time>2021-11-07T15:04:21.000Z</time>
      </trkpt>
      <trkpt lat="45.23471" lon="5.88781">
        <ele>259.8</ele>
        <time>2021-11-07T15:04:26.000Z</time>
      </trkpt>
      <trkpt lat="45.23483" lon="5.88797">
        <ele>258</ele>
        <time>2021-11-07T15:04:31.000Z</time>
      </trkpt>
      <trkpt lat="45.23501" lon="5.88814">
        <ele>258.15</ele>
        <time>2021-11-07T15:04:36.000Z</time>
      </trkpt>
      <trkpt lat="45.23516" lon="5.88833">
        <ele>262.89</ele>
        <time>2021-11-07T15:04:41.000Z</time>
      </trkpt>
      <trkpt lat="45.23532" lon="5.88849">
        <ele>260.31</ele>
        <time>2021-11-07T15:04:46.000Z</time>
      </trkpt>
      <trkpt lat="45.23551" lon="5.88851">
        <ele>261.89</ele>
        <time>2021-11-07T15:04:51.000Z</time>
      </trkpt>
      <trkpt lat="45.23568" lon="5.8886">
        <ele>265.74</ele>
        <time>2021-11-07T15:04:56.000Z</time>
      </trkpt>
      <trkpt lat="45.23582" lon="5.88877">
        <ele>267.32</ele>
        <time>2021-11-07T15:05:01.000Z</time>
      </trkpt>
      <trkpt lat="45.23596" lon="5.88894">
        <ele>268.33</ele>
        <time>2021-11-07T15:05:06.000Z</time>
      </trkpt>
      <trkpt lat="45.23608" lon="5.88909">
        <ele>271.75</ele>
        <time>2021-11-07T15:05:11.000Z</time>
      </trkpt>
      <trkpt lat="45.23622" lon="5.88926">
        <ele>273.31</ele>
        <time>2021-11-07T15:05:16.000Z</time>
      </trkpt>
      <trkpt lat="45.23638" lon="5.88945">
        <ele>273.07</ele>
        <time>2021-11-07T15:05:21.000Z</time>
      </trkpt>
      <trkpt lat="45.23647" lon="5.88958">
        <ele>274.35</ele>
        <time>2021-11-07T15:05:26.000Z</time>
      </trkpt>
      <trkpt lat="45.23652" lon="5.88975">
        <ele>273.11</ele>
        <time>2021-11-07T15:05:31.000Z</time>
      </trkpt>
      <trkpt lat="45.23658" lon="5.88995">
        <ele>270.87</ele>
        <time>2021-11-07T15:05:36.000Z</time>
      </trkpt>
      <trkpt lat="45.2367" lon="5.8902">
        <ele>269.81</ele>
        <time>2021-11-07T15:05:41.000Z</time>
      </trkpt>
      <trkpt lat="45.23689" lon="5.89038">
        <ele>265.31</ele>
        <time>2021-11-07T15:05:46.000Z</time>
      </trkpt>
      <trkpt lat="45.23708" lon="5.89056">
        <ele>269.53</ele>
        <time>2021-11-07T15:05:51.000Z</time>
      </trkpt>
      <trkpt lat="45.23725" lon="5.89074">
        <ele>272.77</ele>
        <time>2021-11-07T15:05:56.000Z</time>
      </trkpt>
      <trkpt lat="45.23743" lon="5.89089">
        <ele>272.66</ele>
        <time>2021-11-07T15:06:01.000Z</time>
      </trkpt>
      <trkpt lat="45.23759" lon="5.89102">
        <ele>274.92</ele>
        <time>2021-11-07T15:06:06.000Z</time>
      </trkpt>
      <trkpt lat="45.23767" lon="5.89116">
        <ele>279.2</ele>
        <time>2021-11-07T15:06:11.000Z</time>
      </trkpt>
      <trkpt lat="45.23765" lon="5.8914">
        <ele>279.53</ele>
        <time>2021-11-07T15:06:16.000Z</time>
      </trkpt>
      <trkpt lat="45.23769" lon="5.89162">
        <ele>280.21</ele>
        <time>2021-11-07T15:06:21.000Z</time>
      </trkpt>
      <trkpt lat="45.23777" lon="5.89187">
        <ele>280.56</ele>
        <time>2021-11-07T15:06:26.000Z</time>
      </trkpt>
      <trkpt lat="45.23788" lon="5.89211">
        <ele>277.74</ele>
        <time>2021-11-07T15:06:31.000Z</time>
      </trkpt>
      <trkpt lat="45.238" lon="5.89259">
        <ele>283.25</ele>
        <time>2021-11-07T15:06:43.000Z</time>
      </trkpt>
      <trkpt lat="45.23818" lon="5.89273">
        <ele>283.34</ele>
        <time>2021-11-07T15:06:48.000Z</time>
      </trkpt>
      <trkpt lat="45.2383" lon="5.89285">
        <ele>286.51</ele>
        <time>2021-11-07T15:06:53.000Z</time>
      </trkpt>
      <trkpt lat="45.2386" lon="5.89306">
        <ele>291.54</ele>
        <time>2021-11-07T15:06:58.000Z</time>
      </trkpt>
      <trkpt lat="45.23876" lon="5.89323">
        <ele>295.31</ele>
        <time>2021-11-07T15:07:03.000Z</time>
      </trkpt>
      <trkpt lat="45.23884" lon="5.89337">
        <ele>298.84</ele>
        <time>2021-11-07T15:07:08.000Z</time>
      </trkpt>
      <trkpt lat="45.23896" lon="5.89353">
        <ele>300.91</ele>
        <time>2021-11-07T15:07:13.000Z</time>
      </trkpt>
      <trkpt lat="45.23903" lon="5.89371">
        <ele>302.96</ele>
        <time>2021-11-07T15:07:18.000Z</time>
      </trkpt>
      <trkpt lat="45.23907" lon="5.89387">
        <ele>305.34</ele>
        <time>2021-11-07T15:07:23.000Z</time>
      </trkpt>
      <trkpt lat="45.23916" lon="5.89407">
        <ele>305.4</ele>
        <time>2021-11-07T15:07:28.000Z</time>
      </trkpt>
      <trkpt lat="45.2393" lon="5.89426">
        <ele>306.53</ele>
        <time>2021-11-07T15:07:33.000Z</time>
      </trkpt>
      <trkpt lat="45.23949" lon="5.89441">
        <ele>307.69</ele>
        <time>2021-11-07T15:07:38.000Z</time>
      </trkpt>
      <trkpt lat="45.23967" lon="5.89462">
        <ele>311.53</ele>
        <time>2021-11-07T15:07:43.000Z</time>
      </trkpt>
      <trkpt lat="45.23985" lon="5.89483">
        <ele>313.51</ele>
        <time>2021-11-07T15:07:48.000Z</time>
      </trkpt>
      <trkpt lat="45.24002" lon="5.89514">
        <ele>313.56</ele>
        <time>2021-11-07T15:07:53.000Z</time>
      </trkpt>
      <trkpt lat="45.2406" lon="5.89548">
        <ele>321.36</ele>
        <time>2021-11-07T15:08:13.000Z</time>
      </trkpt>
      <trkpt lat="45.24073" lon="5.89564">
        <ele>320.51</ele>
        <time>2021-11-07T15:08:18.000Z</time>
      </trkpt>
      <trkpt lat="45.24086" lon="5.89577">
        <ele>324.82</ele>
        <time>2021-11-07T15:08:23.000Z</time>
      </trkpt>
      <trkpt lat="45.24101" lon="5.89591">
        <ele>326.43</ele>
        <time>2021-11-07T15:08:28.000Z</time>
      </trkpt>
      <trkpt lat="45.24111" lon="5.89607">
        <ele>326.79</ele>
        <time>2021-11-07T15:08:33.000Z</time>
      </trkpt>
      <trkpt lat="45.2412" lon="5.89624">
        <ele>329.59</ele>
        <time>2021-11-07T15:08:38.000Z</time>
      </trkpt>
      <trkpt lat="45.24125" lon="5.89645">
        <ele>331.58</ele>
        <time>2021-11-07T15:08:43.000Z</time>
      </trkpt>
      <trkpt lat="45.24128" lon="5.8967">
        <ele>334.5</ele>
        <time>2021-11-07T15:08:48.000Z</time>
      </trkpt>
      <trkpt lat="45.24136" lon="5.89688">
        <ele>336.19</ele>
        <time>2021-11-07T15:08:53.000Z</time>
      </trkpt>
      <trkpt lat="45.24151" lon="5.89708">
        <ele>337.38</ele>
        <time>2021-11-07T15:08:58.000Z</time>
      </trkpt>
      <trkpt lat="45.24162" lon="5.89724">
        <ele>337.76</ele>
        <time>2021-11-07T15:09:03.000Z</time>
      </trkpt>
      <trkpt lat="45.24172" lon="5.89743">
        <ele>340.27</ele>
        <time>2021-11-07T15:09:08.000Z</time>
      </trkpt>
      <trkpt lat="45.24186" lon="5.89759">
        <ele>342.6</ele>
        <time>2021-11-07T15:09:13.000Z</time>
      </trkpt>
      <trkpt lat="45.24198" lon="5.89773">
        <ele>345.15</ele>
        <time>2021-11-07T15:09:18.000Z</time>
      </trkpt>
      <trkpt lat="45.24213" lon="5.89787">
        <ele>345.82</ele>
        <time>2021-11-07T15:09:23.000Z</time>
      </trkpt>
      <trkpt lat="45.24228" lon="5.89802">
        <ele>348.98</ele>
        <time>2021-11-07T15:09:28.000Z</time>
      </trkpt>
      <trkpt lat="45.24237" lon="5.89818">
        <ele>352.01</ele>
        <time>2021-11-07T15:09:33.000Z</time>
      </trkpt>
      <trkpt lat="45.24243" lon="5.89838">
        <ele>355.33</ele>
        <time>2021-11-07T15:09:38.000Z</time>
      </trkpt>
      <trkpt lat="45.24232" lon="5.89834">
        <ele>356.85</ele>
        <time>2021-11-07T15:09:43.000Z</time>
      </trkpt>
      <trkpt lat="45.24217" lon="5.89814">
        <ele>359.23</ele>
        <time>2021-11-07T15:09:48.000Z</time>
      </trkpt>
      <trkpt lat="45.24207" lon="5.89802">
        <ele>361.68</ele>
        <time>2021-11-07T15:09:53.000Z</time>
      </trkpt>
      <trkpt lat="45.24197" lon="5.89782">
        <ele>360.96</ele>
        <time>2021-11-07T15:09:58.000Z</time>
      </trkpt>
      <trkpt lat="45.24185" lon="5.89772">
        <ele>363.36</ele>
        <time>2021-11-07T15:10:03.000Z</time>
      </trkpt>
      <trkpt lat="45.24172" lon="5.89765">
        <ele>361.32</ele>
        <time>2021-11-07T15:10:08.000Z</time>
      </trkpt>
      <trkpt lat="45.24157" lon="5.8975">
        <ele>366.45</ele>
        <time>2021-11-07T15:10:13.000Z</time>
      </trkpt>
      <trkpt lat="45.24141" lon="5.89738">
        <ele>369.07</ele>
        <time>2021-11-07T15:10:18.000Z</time>
      </trkpt>
      <trkpt lat="45.24128" lon="5.89725">
        <ele>372.95</ele>
        <time>2021-11-07T15:10:23.000Z</time>
      </trkpt>
      <trkpt lat="45.24112" lon="5.89711">
        <ele>376.1</ele>
        <time>2021-11-07T15:10:28.000Z</time>
      </trkpt>
      <trkpt lat="45.24097" lon="5.89698">
        <ele>380.75</ele>
        <time>2021-11-07T15:10:33.000Z</time>
      </trkpt>
      <trkpt lat="45.24079" lon="5.89694">
        <ele>381.62</ele>
        <time>2021-11-07T15:10:38.000Z</time>
      </trkpt>
      <trkpt lat="45.24057" lon="5.89696">
        <ele>384.98</ele>
        <time>2021-11-07T15:10:43.000Z</time>
      </trkpt>
      <trkpt lat="45.24036" lon="5.89696">
        <ele>386.21</ele>
        <time>2021-11-07T15:10:48.000Z</time>
      </trkpt>
      <trkpt lat="45.24023" lon="5.89692">
        <ele>387.49</ele>
        <time>2021-11-07T15:10:53.000Z</time>
      </trkpt>
      <trkpt lat="45.24007" lon="5.89689">
        <ele>390.49</ele>
        <time>2021-11-07T15:10:58.000Z</time>
      </trkpt>
      <trkpt lat="45.23992" lon="5.89676">
        <ele>393.26</ele>
        <time>2021-11-07T15:11:03.000Z</time>
      </trkpt>
      <trkpt lat="45.23976" lon="5.89661">
        <ele>399.38</ele>
        <time>2021-11-07T15:11:08.000Z</time>
      </trkpt>
      <trkpt lat="45.2396" lon="5.89649">
        <ele>398.8</ele>
        <time>2021-11-07T15:11:13.000Z</time>
      </trkpt>
      <trkpt lat="45.23941" lon="5.89637">
        <ele>400.42</ele>
        <time>2021-11-07T15:11:18.000Z</time>
      </trkpt>
      <trkpt lat="45.23924" lon="5.8963">
        <ele>399.52</ele>
        <time>2021-11-07T15:11:23.000Z</time>
      </trkpt>
      <trkpt lat="45.23905" lon="5.89624">
        <ele>398.4</ele>
        <time>2021-11-07T15:11:28.000Z</time>
      </trkpt>
      <trkpt lat="45.23885" lon="5.89618">
        <ele>399.68</ele>
        <time>2021-11-07T15:11:33.000Z</time>
      </trkpt>
      <trkpt lat="45.23874" lon="5.89606">
        <ele>401.41</ele>
        <time>2021-11-07T15:11:38.000Z</time>
      </trkpt>
      <trkpt lat="45.23863" lon="5.89599">
        <ele>401.44</ele>
        <time>2021-11-07T15:11:43.000Z</time>
      </trkpt>
      <trkpt lat="45.2385" lon="5.8959">
        <ele>403.55</ele>
        <time>2021-11-07T15:11:48.000Z</time>
      </trkpt>
      <trkpt lat="45.23831" lon="5.89588">
        <ele>402.96</ele>
        <time>2021-11-07T15:11:53.000Z</time>
      </trkpt>
      <trkpt lat="45.2381" lon="5.89582">
        <ele>403.44</ele>
        <time>2021-11-07T15:11:58.000Z</time>
      </trkpt>
      <trkpt lat="45.23784" lon="5.89586">
        <ele>403.74</ele>
        <time>2021-11-07T15:12:03.000Z</time>
      </trkpt>
      <trkpt lat="45.23771" lon="5.89568">
        <ele>404.34</ele>
        <time>2021-11-07T15:12:08.000Z</time>
      </trkpt>
      <trkpt lat="45.23757" lon="5.89543">
        <ele>415.43</ele>
        <time>2021-11-07T15:12:13.000Z</time>
      </trkpt>
      <trkpt lat="45.23745" lon="5.8953">
        <ele>419.67</ele>
        <time>2021-11-07T15:12:18.000Z</time>
      </trkpt>
      <trkpt lat="45.23729" lon="5.89525">
        <ele>420.27</ele>
        <time>2021-11-07T15:12:23.000Z</time>
      </trkpt>
      <trkpt lat="45.23714" lon="5.8951">
        <ele>424.77</ele>
        <time>2021-11-07T15:12:28.000Z</time>
      </trkpt>
      <trkpt lat="45.237" lon="5.89496">
        <ele>428.92</ele>
        <time>2021-11-07T15:12:33.000Z</time>
      </trkpt>
      <trkpt lat="45.23683" lon="5.89487">
        <ele>433.44</ele>
        <time>2021-11-07T15:12:38.000Z</time>
      </trkpt>
      <trkpt lat="45.23668" lon="5.89484">
        <ele>437.26</ele>
        <time>2021-11-07T15:12:43.000Z</time>
      </trkpt>
      <trkpt lat="45.23651" lon="5.89472">
        <ele>437.72</ele>
        <time>2021-11-07T15:12:48.000Z</time>
      </trkpt>
      <trkpt lat="45.23635" lon="5.89463">
        <ele>439.92</ele>
        <time>2021-11-07T15:12:53.000Z</time>
      </trkpt>
      <trkpt lat="45.23615" lon="5.89456">
        <ele>441.78</ele>
        <time>2021-11-07T15:12:58.000Z</time>
      </trkpt>
      <trkpt lat="45.23596" lon="5.89441">
        <ele>444.8</ele>
        <time>2021-11-07T15:13:03.000Z</time>
      </trkpt>
      <trkpt lat="45.23572" lon="5.89439">
        <ele>446</ele>
        <time>2021-11-07T15:13:08.000Z</time>
      </trkpt>
      <trkpt lat="45.23551" lon="5.89435">
        <ele>447.73</ele>
        <time>2021-11-07T15:13:13.000Z</time>
      </trkpt>
      <trkpt lat="45.23522" lon="5.89439">
        <ele>450.94</ele>
        <time>2021-11-07T15:13:18.000Z</time>
      </trkpt>
      <trkpt lat="45.23502" lon="5.89433">
        <ele>453.76</ele>
        <time>2021-11-07T15:13:23.000Z</time>
      </trkpt>
      <trkpt lat="45.2348" lon="5.89422">
        <ele>453.84</ele>
        <time>2021-11-07T15:13:28.000Z</time>
      </trkpt>
      <trkpt lat="45.23464" lon="5.89407">
        <ele>455.85</ele>
        <time>2021-11-07T15:13:33.000Z</time>
      </trkpt>
      <trkpt lat="45.23442" lon="5.89397">
        <ele>457.52</ele>
        <time>2021-11-07T15:13:38.000Z</time>
      </trkpt>
      <trkpt lat="45.23423" lon="5.8937">
        <ele>464.97</ele>
        <time>2021-11-07T15:13:43.000Z</time>
      </trkpt>
      <trkpt lat="45.23408" lon="5.89359">
        <ele>464.83</ele>
        <time>2021-11-07T15:13:48.000Z</time>
      </trkpt>
      <trkpt lat="45.23391" lon="5.89334">
        <ele>472.47</ele>
        <time>2021-11-07T15:13:53.000Z</time>
      </trkpt>
      <trkpt lat="45.23373" lon="5.89321">
        <ele>475.47</ele>
        <time>2021-11-07T15:13:58.000Z</time>
      </trkpt>
      <trkpt lat="45.23356" lon="5.89313">
        <ele>476.92</ele>
        <time>2021-11-07T15:14:03.000Z</time>
      </trkpt>
      <trkpt lat="45.23336" lon="5.89306">
        <ele>474.45</ele>
        <time>2021-11-07T15:14:08.000Z</time>
      </trkpt>
      <trkpt lat="45.23315" lon="5.893">
        <ele>474.24</ele>
        <time>2021-11-07T15:14:13.000Z</time>
      </trkpt>
      <trkpt lat="45.23295" lon="5.89295">
        <ele>476.12</ele>
        <time>2021-11-07T15:14:18.000Z</time>
      </trkpt>
      <trkpt lat="45.23278" lon="5.89311">
        <ele>479.13</ele>
        <time>2021-11-07T15:14:23.000Z</time>
      </trkpt>
      <trkpt lat="45.23271" lon="5.89341">
        <ele>481.56</ele>
        <time>2021-11-07T15:14:28.000Z</time>
      </trkpt>
      <trkpt lat="45.23271" lon="5.89373">
        <ele>481.83</ele>
        <time>2021-11-07T15:14:33.000Z</time>
      </trkpt>
      <trkpt lat="45.23273" lon="5.89402">
        <ele>481.57</ele>
        <time>2021-11-07T15:14:38.000Z</time>
      </trkpt>
      <trkpt lat="45.23267" lon="5.8943">
        <ele>480.79</ele>
        <time>2021-11-07T15:14:43.000Z</time>
      </trkpt>
      <trkpt lat="45.23252" lon="5.89445">
        <ele>486.59</ele>
        <time>2021-11-07T15:14:48.000Z</time>
      </trkpt>
      <trkpt lat="45.2323" lon="5.89434">
        <ele>487.51</ele>
        <time>2021-11-07T15:14:53.000Z</time>
      </trkpt>
      <trkpt lat="45.23211" lon="5.8942">
        <ele>491.61</ele>
        <time>2021-11-07T15:14:58.000Z</time>
      </trkpt>
      <trkpt lat="45.23191" lon="5.8941">
        <ele>491.21</ele>
        <time>2021-11-07T15:15:03.000Z</time>
      </trkpt>
      <trkpt lat="45.23171" lon="5.89404">
        <ele>491.79</ele>
        <time>2021-11-07T15:15:08.000Z</time>
      </trkpt>
      <trkpt lat="45.23154" lon="5.89412">
        <ele>495.53</ele>
        <time>2021-11-07T15:15:13.000Z</time>
      </trkpt>
      <trkpt lat="45.2314" lon="5.89435">
        <ele>496.66</ele>
        <time>2021-11-07T15:15:18.000Z</time>
      </trkpt>
      <trkpt lat="45.23126" lon="5.89453">
        <ele>500.61</ele>
        <time>2021-11-07T15:15:23.000Z</time>
      </trkpt>
      <trkpt lat="45.23113" lon="5.89478">
        <ele>500.48</ele>
        <time>2021-11-07T15:15:28.000Z</time>
      </trkpt>
      <trkpt lat="45.2311" lon="5.89512">
        <ele>504.84</ele>
        <time>2021-11-07T15:15:33.000Z</time>
      </trkpt>
      <trkpt lat="45.23114" lon="5.89529">
        <ele>505.77</ele>
        <time>2021-11-07T15:15:38.000Z</time>
      </trkpt>
      <trkpt lat="45.23121" lon="5.8955">
        <ele>506.29</ele>
        <time>2021-11-07T15:15:43.000Z</time>
      </trkpt>
      <trkpt lat="45.23131" lon="5.8957">
        <ele>509.18</ele>
        <time>2021-11-07T15:15:48.000Z</time>
      </trkpt>
      <trkpt lat="45.23144" lon="5.89594">
        <ele>509.44</ele>
        <time>2021-11-07T15:15:53.000Z</time>
      </trkpt>
      <trkpt lat="45.23151" lon="5.89622">
        <ele>510.53</ele>
        <time>2021-11-07T15:15:58.000Z</time>
      </trkpt>
      <trkpt lat="45.23148" lon="5.89648">
        <ele>509.05</ele>
        <time>2021-11-07T15:16:03.000Z</time>
      </trkpt>
      <trkpt lat="45.23134" lon="5.89666">
        <ele>508.77</ele>
        <time>2021-11-07T15:16:08.000Z</time>
      </trkpt>
      <trkpt lat="45.23124" lon="5.89681">
        <ele>508.35</ele>
        <time>2021-11-07T15:16:13.000Z</time>
      </trkpt>
      <trkpt lat="45.23115" lon="5.89706">
        <ele>511.63</ele>
        <time>2021-11-07T15:16:18.000Z</time>
      </trkpt>
      <trkpt lat="45.23111" lon="5.89738">
        <ele>513.34</ele>
        <time>2021-11-07T15:16:23.000Z</time>
      </trkpt>
      <trkpt lat="45.23095" lon="5.89759">
        <ele>514.48</ele>
        <time>2021-11-07T15:16:28.000Z</time>
      </trkpt>
      <trkpt lat="45.23077" lon="5.89762">
        <ele>521.32</ele>
        <time>2021-11-07T15:16:33.000Z</time>
      </trkpt>
      <trkpt lat="45.23059" lon="5.89758">
        <ele>521.9</ele>
        <time>2021-11-07T15:16:38.000Z</time>
      </trkpt>
      <trkpt lat="45.23041" lon="5.89759">
        <ele>523.95</ele>
        <time>2021-11-07T15:16:43.000Z</time>
      </trkpt>
      <trkpt lat="45.23026" lon="5.89777">
        <ele>522.59</ele>
        <time>2021-11-07T15:16:48.000Z</time>
      </trkpt>
      <trkpt lat="45.23023" lon="5.89802">
        <ele>523.81</ele>
        <time>2021-11-07T15:16:53.000Z</time>
      </trkpt>
      <trkpt lat="45.23025" lon="5.89826">
        <ele>527.15</ele>
        <time>2021-11-07T15:16:58.000Z</time>
      </trkpt>
      <trkpt lat="45.23021" lon="5.89849">
        <ele>529.32</ele>
        <time>2021-11-07T15:17:03.000Z</time>
      </trkpt>
      <trkpt lat="45.23001" lon="5.89853">
        <ele>530.42</ele>
        <time>2021-11-07T15:17:08.000Z</time>
      </trkpt>
      <trkpt lat="45.22984" lon="5.89844">
        <ele>531.37</ele>
        <time>2021-11-07T15:17:13.000Z</time>
      </trkpt>
      <trkpt lat="45.22964" lon="5.8984">
        <ele>533.8</ele>
        <time>2021-11-07T15:17:18.000Z</time>
      </trkpt>
      <trkpt lat="45.22942" lon="5.89839">
        <ele>535.58</ele>
        <time>2021-11-07T15:17:23.000Z</time>
      </trkpt>
      <trkpt lat="45.22918" lon="5.89835">
        <ele>539.95</ele>
        <time>2021-11-07T15:17:28.000Z</time>
      </trkpt>
      <trkpt lat="45.22901" lon="5.89829">
        <ele>540.06</ele>
        <time>2021-11-07T15:17:33.000Z</time>
      </trkpt>
      <trkpt lat="45.2288" lon="5.89813">
        <ele>540.75</ele>
        <time>2021-11-07T15:17:38.000Z</time>
      </trkpt>
      <trkpt lat="45.22866" lon="5.89799">
        <ele>541.67</ele>
        <time>2021-11-07T15:17:43.000Z</time>
      </trkpt>
      <trkpt lat="45.22854" lon="5.89788">
        <ele>546.34</ele>
        <time>2021-11-07T15:17:48.000Z</time>
      </trkpt>
      <trkpt lat="45.22836" lon="5.89789">
        <ele>545.75</ele>
        <time>2021-11-07T15:17:53.000Z</time>
      </trkpt>
      <trkpt lat="45.22819" lon="5.89796">
        <ele>547.44</ele>
        <time>2021-11-07T15:17:58.000Z</time>
      </trkpt>
      <trkpt lat="45.22802" lon="5.89805">
        <ele>547.56</ele>
        <time>2021-11-07T15:18:03.000Z</time>
      </trkpt>
      <trkpt lat="45.22784" lon="5.89803">
        <ele>550.98</ele>
        <time>2021-11-07T15:18:08.000Z</time>
      </trkpt>
      <trkpt lat="45.22765" lon="5.89794">
        <ele>555.78</ele>
        <time>2021-11-07T15:18:13.000Z</time>
      </trkpt>
      <trkpt lat="45.22749" lon="5.8978">
        <ele>557.27</ele>
        <time>2021-11-07T15:18:18.000Z</time>
      </trkpt>
      <trkpt lat="45.22735" lon="5.89769">
        <ele>556.05</ele>
        <time>2021-11-07T15:18:23.000Z</time>
      </trkpt>
      <trkpt lat="45.22716" lon="5.89763">
        <ele>556.95</ele>
        <time>2021-11-07T15:18:28.000Z</time>
      </trkpt>
      <trkpt lat="45.227" lon="5.89755">
        <ele>558.55</ele>
        <time>2021-11-07T15:18:33.000Z</time>
      </trkpt>
      <trkpt lat="45.22681" lon="5.8975">
        <ele>562.47</ele>
        <time>2021-11-07T15:18:38.000Z</time>
      </trkpt>
      <trkpt lat="45.22665" lon="5.89747">
        <ele>562.41</ele>
        <time>2021-11-07T15:18:43.000Z</time>
      </trkpt>
      <trkpt lat="45.22649" lon="5.89746">
        <ele>565.08</ele>
        <time>2021-11-07T15:18:48.000Z</time>
      </trkpt>
      <trkpt lat="45.22631" lon="5.89748">
        <ele>563.63</ele>
        <time>2021-11-07T15:18:53.000Z</time>
      </trkpt>
      <trkpt lat="45.22613" lon="5.89754">
        <ele>562.88</ele>
        <time>2021-11-07T15:18:58.000Z</time>
      </trkpt>
      <trkpt lat="45.22596" lon="5.89761">
        <ele>565.86</ele>
        <time>2021-11-07T15:19:03.000Z</time>
      </trkpt>
      <trkpt lat="45.22579" lon="5.89773">
        <ele>566.56</ele>
        <time>2021-11-07T15:19:08.000Z</time>
      </trkpt>
      <trkpt lat="45.22565" lon="5.89795">
        <ele>569.08</ele>
        <time>2021-11-07T15:19:13.000Z</time>
      </trkpt>
      <trkpt lat="45.22545" lon="5.89808">
        <ele>572.8</ele>
        <time>2021-11-07T15:19:18.000Z</time>
      </trkpt>
      <trkpt lat="45.22529" lon="5.89807">
        <ele>575.15</ele>
        <time>2021-11-07T15:19:23.000Z</time>
      </trkpt>
      <trkpt lat="45.22511" lon="5.89802">
        <ele>573.56</ele>
        <time>2021-11-07T15:19:28.000Z</time>
      </trkpt>
      <trkpt lat="45.22491" lon="5.89807">
        <ele>574.2</ele>
        <time>2021-11-07T15:19:33.000Z</time>
      </trkpt>
      <trkpt lat="45.22474" lon="5.89817">
        <ele>579.65</ele>
        <time>2021-11-07T15:19:38.000Z</time>
      </trkpt>
      <trkpt lat="45.22454" lon="5.89821">
        <ele>580.64</ele>
        <time>2021-11-07T15:19:43.000Z</time>
      </trkpt>
      <trkpt lat="45.22435" lon="5.8982">
        <ele>583.68</ele>
        <time>2021-11-07T15:19:48.000Z</time>
      </trkpt>
      <trkpt lat="45.22417" lon="5.89822">
        <ele>586.36</ele>
        <time>2021-11-07T15:19:53.000Z</time>
      </trkpt>
      <trkpt lat="45.22399" lon="5.89819">
        <ele>591.3</ele>
        <time>2021-11-07T15:19:58.000Z</time>
      </trkpt>
      <trkpt lat="45.22382" lon="5.89812">
        <ele>594.2</ele>
        <time>2021-11-07T15:20:03.000Z</time>
      </trkpt>
      <trkpt lat="45.22363" lon="5.89805">
        <ele>597.95</ele>
        <time>2021-11-07T15:20:08.000Z</time>
      </trkpt>
      <trkpt lat="45.22344" lon="5.89798">
        <ele>601.69</ele>
        <time>2021-11-07T15:20:13.000Z</time>
      </trkpt>
      <trkpt lat="45.22331" lon="5.89789">
        <ele>604.77</ele>
        <time>2021-11-07T15:20:18.000Z</time>
      </trkpt>
      <trkpt lat="45.22317" lon="5.89778">
        <ele>603.57</ele>
        <time>2021-11-07T15:20:23.000Z</time>
      </trkpt>
      <trkpt lat="45.22292" lon="5.89769">
        <ele>605.78</ele>
        <time>2021-11-07T15:20:28.000Z</time>
      </trkpt>
      <trkpt lat="45.22279" lon="5.89756">
        <ele>606.07</ele>
        <time>2021-11-07T15:20:33.000Z</time>
      </trkpt>
      <trkpt lat="45.22254" lon="5.89754">
        <ele>606.64</ele>
        <time>2021-11-07T15:20:38.000Z</time>
      </trkpt>
      <trkpt lat="45.22244" lon="5.89743">
        <ele>607.21</ele>
        <time>2021-11-07T15:20:43.000Z</time>
      </trkpt>
      <trkpt lat="45.22226" lon="5.89732">
        <ele>608.26</ele>
        <time>2021-11-07T15:20:48.000Z</time>
      </trkpt>
      <trkpt lat="45.22211" lon="5.89715">
        <ele>609.49</ele>
        <time>2021-11-07T15:20:53.000Z</time>
      </trkpt>
      <trkpt lat="45.22197" lon="5.89698">
        <ele>612.86</ele>
        <time>2021-11-07T15:20:58.000Z</time>
      </trkpt>
      <trkpt lat="45.22183" lon="5.89686">
        <ele>616.37</ele>
        <time>2021-11-07T15:21:03.000Z</time>
      </trkpt>
      <trkpt lat="45.22165" lon="5.89696">
        <ele>618.29</ele>
        <time>2021-11-07T15:21:08.000Z</time>
      </trkpt>
      <trkpt lat="45.22149" lon="5.8971">
        <ele>621.87</ele>
        <time>2021-11-07T15:21:13.000Z</time>
      </trkpt>
      <trkpt lat="45.22133" lon="5.89726">
        <ele>623.09</ele>
        <time>2021-11-07T15:21:18.000Z</time>
      </trkpt>
      <trkpt lat="45.22119" lon="5.89742">
        <ele>623.14</ele>
        <time>2021-11-07T15:21:23.000Z</time>
      </trkpt>
      <trkpt lat="45.22104" lon="5.89745">
        <ele>625.06</ele>
        <time>2021-11-07T15:21:28.000Z</time>
      </trkpt>
      <trkpt lat="45.22089" lon="5.89739">
        <ele>625.64</ele>
        <time>2021-11-07T15:21:33.000Z</time>
      </trkpt>
      <trkpt lat="45.22069" lon="5.8973">
        <ele>629.76</ele>
        <time>2021-11-07T15:21:38.000Z</time>
      </trkpt>
      <trkpt lat="45.22054" lon="5.89716">
        <ele>631.72</ele>
        <time>2021-11-07T15:21:43.000Z</time>
      </trkpt>
      <trkpt lat="45.22036" lon="5.89702">
        <ele>635.99</ele>
        <time>2021-11-07T15:21:48.000Z</time>
      </trkpt>
      <trkpt lat="45.22016" lon="5.8969">
        <ele>635.28</ele>
        <time>2021-11-07T15:21:53.000Z</time>
      </trkpt>
      <trkpt lat="45.21995" lon="5.89677">
        <ele>636.09</ele>
        <time>2021-11-07T15:21:58.000Z</time>
      </trkpt>
      <trkpt lat="45.21975" lon="5.89662">
        <ele>634.12</ele>
        <time>2021-11-07T15:22:03.000Z</time>
      </trkpt>
      <trkpt lat="45.21957" lon="5.89645">
        <ele>636.23</ele>
        <time>2021-11-07T15:22:08.000Z</time>
      </trkpt>
      <trkpt lat="45.21938" lon="5.89631">
        <ele>637.82</ele>
        <time>2021-11-07T15:22:13.000Z</time>
      </trkpt>
      <trkpt lat="45.2192" lon="5.8962">
        <ele>641.39</ele>
        <time>2021-11-07T15:22:18.000Z</time>
      </trkpt>
      <trkpt lat="45.21901" lon="5.89615">
        <ele>644.54</ele>
        <time>2021-11-07T15:22:23.000Z</time>
      </trkpt>
      <trkpt lat="45.2188" lon="5.89613">
        <ele>648.61</ele>
        <time>2021-11-07T15:22:28.000Z</time>
      </trkpt>
      <trkpt lat="45.21862" lon="5.89606">
        <ele>648.54</ele>
        <time>2021-11-07T15:22:33.000Z</time>
      </trkpt>
      <trkpt lat="45.21849" lon="5.89595">
        <ele>648.15</ele>
        <time>2021-11-07T15:22:38.000Z</time>
      </trkpt>
      <trkpt lat="45.21833" lon="5.89591">
        <ele>648.61</ele>
        <time>2021-11-07T15:22:43.000Z</time>
      </trkpt>
      <trkpt lat="45.21815" lon="5.89586">
        <ele>648.26</ele>
        <time>2021-11-07T15:22:48.000Z</time>
      </trkpt>
      <trkpt lat="45.218" lon="5.89565">
        <ele>649.61</ele>
        <time>2021-11-07T15:22:53.000Z</time>
      </trkpt>
      <trkpt lat="45.2178" lon="5.89547">
        <ele>650.47</ele>
        <time>2021-11-07T15:22:58.000Z</time>
      </trkpt>
      <trkpt lat="45.21761" lon="5.89532">
        <ele>651.16</ele>
        <time>2021-11-07T15:23:03.000Z</time>
      </trkpt>
      <trkpt lat="45.21739" lon="5.8952">
        <ele>649.6</ele>
        <time>2021-11-07T15:23:08.000Z</time>
      </trkpt>
      <trkpt lat="45.21717" lon="5.89506">
        <ele>648.54</ele>
        <time>2021-11-07T15:23:13.000Z</time>
      </trkpt>
      <trkpt lat="45.21702" lon="5.89479">
        <ele>647.95</ele>
        <time>2021-11-07T15:23:18.000Z</time>
      </trkpt>
      <trkpt lat="45.21711" lon="5.89436">
        <ele>647.6</ele>
        <time>2021-11-07T15:23:23.000Z</time>
      </trkpt>
      <trkpt lat="45.21723" lon="5.89423">
        <ele>647.56</ele>
        <time>2021-11-07T15:23:28.000Z</time>
      </trkpt>
      <trkpt lat="45.21748" lon="5.89441">
        <ele>648.05</ele>
        <time>2021-11-07T15:23:33.000Z</time>
      </trkpt>
      <trkpt lat="45.21769" lon="5.89432">
        <ele>649.49</ele>
        <time>2021-11-07T15:23:38.000Z</time>
      </trkpt>
      <trkpt lat="45.21788" lon="5.89415">
        <ele>651.9</ele>
        <time>2021-11-07T15:23:43.000Z</time>
      </trkpt>
      <trkpt lat="45.21807" lon="5.89404">
        <ele>654.56</ele>
        <time>2021-11-07T15:23:48.000Z</time>
      </trkpt>
      <trkpt lat="45.21823" lon="5.89387">
        <ele>654.87</ele>
        <time>2021-11-07T15:23:53.000Z</time>
      </trkpt>
      <trkpt lat="45.21834" lon="5.89355">
        <ele>658.18</ele>
        <time>2021-11-07T15:23:58.000Z</time>
      </trkpt>
      <trkpt lat="45.21836" lon="5.89336">
        <ele>655.63</ele>
        <time>2021-11-07T15:24:03.000Z</time>
      </trkpt>
      <trkpt lat="45.21847" lon="5.89312">
        <ele>658.81</ele>
        <time>2021-11-07T15:24:08.000Z</time>
      </trkpt>
      <trkpt lat="45.21857" lon="5.89292">
        <ele>658.14</ele>
        <time>2021-11-07T15:24:13.000Z</time>
      </trkpt>
      <trkpt lat="45.21873" lon="5.89276">
        <ele>655.41</ele>
        <time>2021-11-07T15:24:18.000Z</time>
      </trkpt>
      <trkpt lat="45.21888" lon="5.89258">
        <ele>660.94</ele>
        <time>2021-11-07T15:24:23.000Z</time>
      </trkpt>
      <trkpt lat="45.21898" lon="5.8924">
        <ele>662.73</ele>
        <time>2021-11-07T15:24:28.000Z</time>
      </trkpt>
      <trkpt lat="45.21915" lon="5.89228">
        <ele>666.68</ele>
        <time>2021-11-07T15:24:33.000Z</time>
      </trkpt>
      <trkpt lat="45.21936" lon="5.89216">
        <ele>673.53</ele>
        <time>2021-11-07T15:24:38.000Z</time>
      </trkpt>
      <trkpt lat="45.21956" lon="5.89209">
        <ele>676.17</ele>
        <time>2021-11-07T15:24:43.000Z</time>
      </trkpt>
      <trkpt lat="45.21977" lon="5.89206">
        <ele>675.69</ele>
        <time>2021-11-07T15:24:48.000Z</time>
      </trkpt>
      <trkpt lat="45.2199" lon="5.89192">
        <ele>675.16</ele>
        <time>2021-11-07T15:24:53.000Z</time>
      </trkpt>
      <trkpt lat="45.21977" lon="5.89176">
        <ele>675.8</ele>
        <time>2021-11-07T15:24:58.000Z</time>
      </trkpt>
      <trkpt lat="45.21959" lon="5.89172">
        <ele>675.82</ele>
        <time>2021-11-07T15:25:03.000Z</time>
      </trkpt>
      <trkpt lat="45.21944" lon="5.89183">
        <ele>676.99</ele>
        <time>2021-11-07T15:25:08.000Z</time>
      </trkpt>
      <trkpt lat="45.21921" lon="5.89191">
        <ele>670.15</ele>
        <time>2021-11-07T15:25:13.000Z</time>
      </trkpt>
      <trkpt lat="45.21902" lon="5.8919">
        <ele>673.55</ele>
        <time>2021-11-07T15:25:18.000Z</time>
      </trkpt>
      <trkpt lat="45.21878" lon="5.8919">
        <ele>672.01</ele>
        <time>2021-11-07T15:25:23.000Z</time>
      </trkpt>
      <trkpt lat="45.21859" lon="5.89187">
        <ele>674.94</ele>
        <time>2021-11-07T15:25:28.000Z</time>
      </trkpt>
      <trkpt lat="45.21842" lon="5.89177">
        <ele>674.54</ele>
        <time>2021-11-07T15:25:33.000Z</time>
      </trkpt>
      <trkpt lat="45.21825" lon="5.89172">
        <ele>670.8</ele>
        <time>2021-11-07T15:25:38.000Z</time>
      </trkpt>
      <trkpt lat="45.21805" lon="5.89181">
        <ele>672.3</ele>
        <time>2021-11-07T15:25:43.000Z</time>
      </trkpt>
      <trkpt lat="45.21784" lon="5.89195">
        <ele>674</ele>
        <time>2021-11-07T15:25:48.000Z</time>
      </trkpt>
      <trkpt lat="45.21767" lon="5.89209">
        <ele>676.75</ele>
        <time>2021-11-07T15:25:53.000Z</time>
      </trkpt>
      <trkpt lat="45.21755" lon="5.89218">
        <ele>670.92</ele>
        <time>2021-11-07T15:25:58.000Z</time>
      </trkpt>
      <trkpt lat="45.21738" lon="5.89215">
        <ele>671.72</ele>
        <time>2021-11-07T15:26:03.000Z</time>
      </trkpt>
      <trkpt lat="45.21723" lon="5.89213">
        <ele>671.85</ele>
        <time>2021-11-07T15:26:08.000Z</time>
      </trkpt>
      <trkpt lat="45.2171" lon="5.8921">
        <ele>673.62</ele>
        <time>2021-11-07T15:26:13.000Z</time>
      </trkpt>
      <trkpt lat="45.21702" lon="5.89225">
        <ele>676.05</ele>
        <time>2021-11-07T15:26:18.000Z</time>
      </trkpt>
      <trkpt lat="45.217" lon="5.89239">
        <ele>676.16</ele>
        <time>2021-11-07T15:26:23.000Z</time>
      </trkpt>
      <trkpt lat="45.21689" lon="5.89234">
        <ele>674.08</ele>
        <time>2021-11-07T15:26:28.000Z</time>
      </trkpt>
      <trkpt lat="45.21672" lon="5.89232">
        <ele>677.98</ele>
        <time>2021-11-07T15:26:33.000Z</time>
      </trkpt>
      <trkpt lat="45.21652" lon="5.89248">
        <ele>680.8</ele>
        <time>2021-11-07T15:26:38.000Z</time>
      </trkpt>
      <trkpt lat="45.21635" lon="5.89255">
        <ele>684.68</ele>
        <time>2021-11-07T15:26:43.000Z</time>
      </trkpt>
      <trkpt lat="45.21616" lon="5.89263">
        <ele>687.84</ele>
        <time>2021-11-07T15:26:48.000Z</time>
      </trkpt>
      <trkpt lat="45.21585" lon="5.8926">
        <ele>687.21</ele>
        <time>2021-11-07T15:26:53.000Z</time>
      </trkpt>
      <trkpt lat="45.21565" lon="5.89269">
        <ele>690.95</ele>
        <time>2021-11-07T15:26:58.000Z</time>
      </trkpt>
      <trkpt lat="45.21545" lon="5.89284">
        <ele>691.58</ele>
        <time>2021-11-07T15:27:03.000Z</time>
      </trkpt>
      <trkpt lat="45.21529" lon="5.89303">
        <ele>688.87</ele>
        <time>2021-11-07T15:27:08.000Z</time>
      </trkpt>
      <trkpt lat="45.21512" lon="5.89314">
        <ele>687.39</ele>
        <time>2021-11-07T15:27:13.000Z</time>
      </trkpt>
      <trkpt lat="45.21491" lon="5.8932">
        <ele>706.58</ele>
        <time>2021-11-07T15:27:18.000Z</time>
      </trkpt>
      <trkpt lat="45.21468" lon="5.89314">
        <ele>714.46</ele>
        <time>2021-11-07T15:27:23.000Z</time>
      </trkpt>
      <trkpt lat="45.21451" lon="5.89311">
        <ele>717.59</ele>
        <time>2021-11-07T15:27:28.000Z</time>
      </trkpt>
      <trkpt lat="45.21433" lon="5.89312">
        <ele>715.38</ele>
        <time>2021-11-07T15:27:33.000Z</time>
      </trkpt>
      <trkpt lat="45.21424" lon="5.89312">
        <ele>718.03</ele>
        <time>2021-11-07T15:27:43.000Z</time>
      </trkpt>
      <trkpt lat="45.21421" lon="5.893">
        <ele>727.72</ele>
        <time>2021-11-07T15:28:35.000Z</time>
      </trkpt>
      <trkpt lat="45.21409" lon="5.89295">
        <ele>721.32</ele>
        <time>2021-11-07T15:29:13.000Z</time>
      </trkpt>
      <trkpt lat="45.21401" lon="5.89276">
        <ele>717.89</ele>
        <time>2021-11-07T15:29:18.000Z</time>
      </trkpt>
      <trkpt lat="45.2139" lon="5.89265">
        <ele>718.47</ele>
        <time>2021-11-07T15:29:23.000Z</time>
      </trkpt>
      <trkpt lat="45.21372" lon="5.89273">
        <ele>727.03</ele>
        <time>2021-11-07T15:29:28.000Z</time>
      </trkpt>
      <trkpt lat="45.21358" lon="5.89279">
        <ele>729.93</ele>
        <time>2021-11-07T15:29:33.000Z</time>
      </trkpt>
      <trkpt lat="45.21347" lon="5.8928">
        <ele>731.31</ele>
        <time>2021-11-07T15:29:38.000Z</time>
      </trkpt>
      <trkpt lat="45.21332" lon="5.89285">
        <ele>730.87</ele>
        <time>2021-11-07T15:29:43.000Z</time>
      </trkpt>
      <trkpt lat="45.21313" lon="5.89286">
        <ele>730.22</ele>
        <time>2021-11-07T15:29:48.000Z</time>
      </trkpt>
      <trkpt lat="45.21295" lon="5.89298">
        <ele>731.94</ele>
        <time>2021-11-07T15:29:53.000Z</time>
      </trkpt>
      <trkpt lat="45.21282" lon="5.8931">
        <ele>734.32</ele>
        <time>2021-11-07T15:29:58.000Z</time>
      </trkpt>
      <trkpt lat="45.21269" lon="5.89314">
        <ele>734.88</ele>
        <time>2021-11-07T15:30:03.000Z</time>
      </trkpt>
      <trkpt lat="45.21251" lon="5.89323">
        <ele>742.37</ele>
        <time>2021-11-07T15:30:08.000Z</time>
      </trkpt>
      <trkpt lat="45.21228" lon="5.89337">
        <ele>746.12</ele>
        <time>2021-11-07T15:30:13.000Z</time>
      </trkpt>
      <trkpt lat="45.21208" lon="5.89342">
        <ele>748.42</ele>
        <time>2021-11-07T15:30:18.000Z</time>
      </trkpt>
      <trkpt lat="45.21183" lon="5.89343">
        <ele>748.4</ele>
        <time>2021-11-07T15:30:23.000Z</time>
      </trkpt>
      <trkpt lat="45.21164" lon="5.89357">
        <ele>748.01</ele>
        <time>2021-11-07T15:30:28.000Z</time>
      </trkpt>
      <trkpt lat="45.21145" lon="5.89374">
        <ele>747.18</ele>
        <time>2021-11-07T15:30:33.000Z</time>
      </trkpt>
      <trkpt lat="45.21127" lon="5.89384">
        <ele>744.85</ele>
        <time>2021-11-07T15:30:38.000Z</time>
      </trkpt>
      <trkpt lat="45.21107" lon="5.894">
        <ele>748.02</ele>
        <time>2021-11-07T15:30:43.000Z</time>
      </trkpt>
      <trkpt lat="45.21089" lon="5.89419">
        <ele>750.39</ele>
        <time>2021-11-07T15:30:48.000Z</time>
      </trkpt>
      <trkpt lat="45.2107" lon="5.89443">
        <ele>749.23</ele>
        <time>2021-11-07T15:30:53.000Z</time>
      </trkpt>
      <trkpt lat="45.21055" lon="5.89462">
        <ele>749.72</ele>
        <time>2021-11-07T15:30:58.000Z</time>
      </trkpt>
      <trkpt lat="45.21039" lon="5.89476">
        <ele>751.34</ele>
        <time>2021-11-07T15:31:03.000Z</time>
      </trkpt>
      <trkpt lat="45.21036" lon="5.89459">
        <ele>752.56</ele>
        <time>2021-11-07T15:31:08.000Z</time>
      </trkpt>
      <trkpt lat="45.21053" lon="5.89435">
        <ele>754.64</ele>
        <time>2021-11-07T15:31:13.000Z</time>
      </trkpt>
      <trkpt lat="45.21072" lon="5.89404">
        <ele>757.38</ele>
        <time>2021-11-07T15:31:18.000Z</time>
      </trkpt>
      <trkpt lat="45.21085" lon="5.8938">
        <ele>755.05</ele>
        <time>2021-11-07T15:31:23.000Z</time>
      </trkpt>
      <trkpt lat="45.21101" lon="5.8935">
        <ele>753.77</ele>
        <time>2021-11-07T15:31:28.000Z</time>
      </trkpt>
      <trkpt lat="45.21121" lon="5.8933">
        <ele>755.24</ele>
        <time>2021-11-07T15:31:33.000Z</time>
      </trkpt>
      <trkpt lat="45.21141" lon="5.89315">
        <ele>757.03</ele>
        <time>2021-11-07T15:31:38.000Z</time>
      </trkpt>
      <trkpt lat="45.21161" lon="5.89305">
        <ele>758.11</ele>
        <time>2021-11-07T15:31:43.000Z</time>
      </trkpt>
      <trkpt lat="45.21172" lon="5.89286">
        <ele>756.21</ele>
        <time>2021-11-07T15:31:48.000Z</time>
      </trkpt>
      <trkpt lat="45.21186" lon="5.8927">
        <ele>757</ele>
        <time>2021-11-07T15:31:53.000Z</time>
      </trkpt>
      <trkpt lat="45.21194" lon="5.89247">
        <ele>760.4</ele>
        <time>2021-11-07T15:31:58.000Z</time>
      </trkpt>
      <trkpt lat="45.21199" lon="5.89223">
        <ele>757.79</ele>
        <time>2021-11-07T15:32:03.000Z</time>
      </trkpt>
      <trkpt lat="45.21211" lon="5.89207">
        <ele>758.47</ele>
        <time>2021-11-07T15:32:08.000Z</time>
      </trkpt>
      <trkpt lat="45.21274" lon="5.89158">
        <ele>761.39</ele>
        <time>2021-11-07T15:32:23.000Z</time>
      </trkpt>
      <trkpt lat="45.21285" lon="5.89146">
        <ele>759.17</ele>
        <time>2021-11-07T15:32:28.000Z</time>
      </trkpt>
      <trkpt lat="45.213" lon="5.89136">
        <ele>759.41</ele>
        <time>2021-11-07T15:32:33.000Z</time>
      </trkpt>
      <trkpt lat="45.21311" lon="5.89123">
        <ele>762.01</ele>
        <time>2021-11-07T15:32:38.000Z</time>
      </trkpt>
      <trkpt lat="45.21346" lon="5.89091">
        <ele>759.68</ele>
        <time>2021-11-07T15:32:43.000Z</time>
      </trkpt>
      <trkpt lat="45.21371" lon="5.89063">
        <ele>762.63</ele>
        <time>2021-11-07T15:32:48.000Z</time>
      </trkpt>
      <trkpt lat="45.21395" lon="5.89057">
        <ele>762.85</ele>
        <time>2021-11-07T15:32:53.000Z</time>
      </trkpt>
      <trkpt lat="45.21406" lon="5.89049">
        <ele>761.74</ele>
        <time>2021-11-07T15:32:58.000Z</time>
      </trkpt>
      <trkpt lat="45.21441" lon="5.89036">
        <ele>768.11</ele>
        <time>2021-11-07T15:33:03.000Z</time>
      </trkpt>
      <trkpt lat="45.21456" lon="5.89035">
        <ele>767.81</ele>
        <time>2021-11-07T15:33:08.000Z</time>
      </trkpt>
      <trkpt lat="45.21477" lon="5.89016">
        <ele>766.54</ele>
        <time>2021-11-07T15:33:13.000Z</time>
      </trkpt>
      <trkpt lat="45.21494" lon="5.88999">
        <ele>765.39</ele>
        <time>2021-11-07T15:33:18.000Z</time>
      </trkpt>
      <trkpt lat="45.2151" lon="5.8899">
        <ele>766.09</ele>
        <time>2021-11-07T15:33:23.000Z</time>
      </trkpt>
      <trkpt lat="45.2153" lon="5.88996">
        <ele>766.99</ele>
        <time>2021-11-07T15:33:28.000Z</time>
      </trkpt>
      <trkpt lat="45.21543" lon="5.88991">
        <ele>767.99</ele>
        <time>2021-11-07T15:33:33.000Z</time>
      </trkpt>
      <trkpt lat="45.21558" lon="5.88981">
        <ele>766.99</ele>
        <time>2021-11-07T15:33:38.000Z</time>
      </trkpt>
      <trkpt lat="45.21592" lon="5.88964">
        <ele>767.52</ele>
        <time>2021-11-07T15:33:44.000Z</time>
      </trkpt>
      <trkpt lat="45.21607" lon="5.88945">
        <ele>770.22</ele>
        <time>2021-11-07T15:33:49.000Z</time>
      </trkpt>
      <trkpt lat="45.21631" lon="5.8895">
        <ele>774.4</ele>
        <time>2021-11-07T15:33:54.000Z</time>
      </trkpt>
      <trkpt lat="45.21668" lon="5.88938">
        <ele>790.07</ele>
        <time>2021-11-07T15:33:59.000Z</time>
      </trkpt>
      <trkpt lat="45.21692" lon="5.88922">
        <ele>795.3</ele>
        <time>2021-11-07T15:34:04.000Z</time>
      </trkpt>
      <trkpt lat="45.21702" lon="5.88896">
        <ele>795.05</ele>
        <time>2021-11-07T15:34:09.000Z</time>
      </trkpt>
      <trkpt lat="45.21696" lon="5.88867">
        <ele>797.76</ele>
        <time>2021-11-07T15:34:14.000Z</time>
      </trkpt>
      <trkpt lat="45.21693" lon="5.88855">
        <ele>803.93</ele>
        <time>2021-11-07T15:34:19.000Z</time>
      </trkpt>
      <trkpt lat="45.21683" lon="5.88851">
        <ele>802.89</ele>
        <time>2021-11-07T15:40:01.000Z</time>
      </trkpt>
      <trkpt lat="45.21653" lon="5.88842">
        <ele>800.15</ele>
        <time>2021-11-07T15:40:06.000Z</time>
      </trkpt>
      <trkpt lat="45.21614" lon="5.88819">
        <ele>794.76</ele>
        <time>2021-11-07T15:40:11.000Z</time>
      </trkpt>
      <trkpt lat="45.21583" lon="5.88768">
        <ele>795.11</ele>
        <time>2021-11-07T15:40:16.000Z</time>
      </trkpt>
      <trkpt lat="45.21537" lon="5.88731">
        <ele>793.49</ele>
        <time>2021-11-07T15:40:21.000Z</time>
      </trkpt>
      <trkpt lat="45.21499" lon="5.88663">
        <ele>794.72</ele>
        <time>2021-11-07T15:40:26.000Z</time>
      </trkpt>
      <trkpt lat="45.21473" lon="5.88583">
        <ele>789.05</ele>
        <time>2021-11-07T15:40:31.000Z</time>
      </trkpt>
      <trkpt lat="45.21439" lon="5.88504">
        <ele>784.26</ele>
        <time>2021-11-07T15:40:36.000Z</time>
      </trkpt>
      <trkpt lat="45.21427" lon="5.88421">
        <ele>777.21</ele>
        <time>2021-11-07T15:40:41.000Z</time>
      </trkpt>
      <trkpt lat="45.2142" lon="5.88348">
        <ele>769.93</ele>
        <time>2021-11-07T15:40:46.000Z</time>
      </trkpt>
      <trkpt lat="45.21376" lon="5.88298">
        <ele>767.27</ele>
        <time>2021-11-07T15:40:51.000Z</time>
      </trkpt>
      <trkpt lat="45.21326" lon="5.88336">
        <ele>763.46</ele>
        <time>2021-11-07T15:40:56.000Z</time>
      </trkpt>
      <trkpt lat="45.21275" lon="5.88356">
        <ele>760.39</ele>
        <time>2021-11-07T15:41:01.000Z</time>
      </trkpt>
      <trkpt lat="45.21229" lon="5.88361">
        <ele>757.98</ele>
        <time>2021-11-07T15:41:06.000Z</time>
      </trkpt>
      <trkpt lat="45.21186" lon="5.88358">
        <ele>753.48</ele>
        <time>2021-11-07T15:41:11.000Z</time>
      </trkpt>
      <trkpt lat="45.21146" lon="5.88346">
        <ele>751.71</ele>
        <time>2021-11-07T15:41:16.000Z</time>
      </trkpt>
      <trkpt lat="45.21105" lon="5.88336">
        <ele>753.96</ele>
        <time>2021-11-07T15:41:21.000Z</time>
      </trkpt>
      <trkpt lat="45.21072" lon="5.88315">
        <ele>752.16</ele>
        <time>2021-11-07T15:41:26.000Z</time>
      </trkpt>
      <trkpt lat="45.21042" lon="5.88288">
        <ele>752.77</ele>
        <time>2021-11-07T15:41:31.000Z</time>
      </trkpt>
      <trkpt lat="45.21003" lon="5.88282">
        <ele>754.43</ele>
        <time>2021-11-07T15:41:36.000Z</time>
      </trkpt>
      <trkpt lat="45.20968" lon="5.88277">
        <ele>752.05</ele>
        <time>2021-11-07T15:41:41.000Z</time>
      </trkpt>
      <trkpt lat="45.20933" lon="5.88267">
        <ele>750.6</ele>
        <time>2021-11-07T15:41:46.000Z</time>
      </trkpt>
      <trkpt lat="45.20899" lon="5.88262">
        <ele>747.38</ele>
        <time>2021-11-07T15:41:51.000Z</time>
      </trkpt>
      <trkpt lat="45.20869" lon="5.88265">
        <ele>747.72</ele>
        <time>2021-11-07T15:41:56.000Z</time>
      </trkpt>
      <trkpt lat="45.20861" lon="5.8827">
        <ele>748.01</ele>
        <time>2021-11-07T15:42:24.000Z</time>
      </trkpt>
      <trkpt lat="45.20853" lon="5.88281">
        <ele>748.41</ele>
        <time>2021-11-07T15:42:29.000Z</time>
      </trkpt>
      <trkpt lat="45.2083" lon="5.88306">
        <ele>746.11</ele>
        <time>2021-11-07T15:42:34.000Z</time>
      </trkpt>
      <trkpt lat="45.20793" lon="5.88324">
        <ele>745.14</ele>
        <time>2021-11-07T15:42:39.000Z</time>
      </trkpt>
      <trkpt lat="45.20748" lon="5.88338">
        <ele>741.52</ele>
        <time>2021-11-07T15:42:44.000Z</time>
      </trkpt>
      <trkpt lat="45.20697" lon="5.8834">
        <ele>735.86</ele>
        <time>2021-11-07T15:42:49.000Z</time>
      </trkpt>
      <trkpt lat="45.20663" lon="5.88294">
        <ele>733.29</ele>
        <time>2021-11-07T15:42:54.000Z</time>
      </trkpt>
      <trkpt lat="45.20636" lon="5.88239">
        <ele>732.08</ele>
        <time>2021-11-07T15:42:59.000Z</time>
      </trkpt>
      <trkpt lat="45.20601" lon="5.88203">
        <ele>729.48</ele>
        <time>2021-11-07T15:43:04.000Z</time>
      </trkpt>
      <trkpt lat="45.20584" lon="5.88159">
        <ele>729.4</ele>
        <time>2021-11-07T15:43:09.000Z</time>
      </trkpt>
      <trkpt lat="45.20562" lon="5.88135">
        <ele>727.14</ele>
        <time>2021-11-07T15:43:14.000Z</time>
      </trkpt>
      <trkpt lat="45.20529" lon="5.88139">
        <ele>725.83</ele>
        <time>2021-11-07T15:43:19.000Z</time>
      </trkpt>
      <trkpt lat="45.20499" lon="5.88148">
        <ele>722.12</ele>
        <time>2021-11-07T15:43:24.000Z</time>
      </trkpt>
      <trkpt lat="45.20475" lon="5.88143">
        <ele>718.55</ele>
        <time>2021-11-07T15:43:29.000Z</time>
      </trkpt>
      <trkpt lat="45.2045" lon="5.88139">
        <ele>718.36</ele>
        <time>2021-11-07T15:43:34.000Z</time>
      </trkpt>
      <trkpt lat="45.20422" lon="5.88136">
        <ele>718.17</ele>
        <time>2021-11-07T15:43:39.000Z</time>
      </trkpt>
      <trkpt lat="45.20394" lon="5.88134">
        <ele>717.52</ele>
        <time>2021-11-07T15:43:44.000Z</time>
      </trkpt>
      <trkpt lat="45.20373" lon="5.88137">
        <ele>719.73</ele>
        <time>2021-11-07T15:43:49.000Z</time>
      </trkpt>
      <trkpt lat="45.20361" lon="5.88141">
        <ele>721.23</ele>
        <time>2021-11-07T15:43:54.000Z</time>
      </trkpt>
      <trkpt lat="45.20345" lon="5.88153">
        <ele>721.28</ele>
        <time>2021-11-07T15:43:59.000Z</time>
      </trkpt>
      <trkpt lat="45.20328" lon="5.88169">
        <ele>719.99</ele>
        <time>2021-11-07T15:44:04.000Z</time>
      </trkpt>
      <trkpt lat="45.20311" lon="5.88191">
        <ele>721.64</ele>
        <time>2021-11-07T15:44:09.000Z</time>
      </trkpt>
      <trkpt lat="45.20295" lon="5.88207">
        <ele>724.2</ele>
        <time>2021-11-07T15:44:14.000Z</time>
      </trkpt>
      <trkpt lat="45.20274" lon="5.88215">
        <ele>723.77</ele>
        <time>2021-11-07T15:44:19.000Z</time>
      </trkpt>
      <trkpt lat="45.20251" lon="5.8822">
        <ele>724.9</ele>
        <time>2021-11-07T15:44:24.000Z</time>
      </trkpt>
      <trkpt lat="45.20225" lon="5.8822">
        <ele>724.39</ele>
        <time>2021-11-07T15:44:29.000Z</time>
      </trkpt>
      <trkpt lat="45.20204" lon="5.88214">
        <ele>723.16</ele>
        <time>2021-11-07T15:44:34.000Z</time>
      </trkpt>
      <trkpt lat="45.20189" lon="5.88199">
        <ele>725.14</ele>
        <time>2021-11-07T15:44:39.000Z</time>
      </trkpt>
      <trkpt lat="45.20174" lon="5.88184">
        <ele>728.28</ele>
        <time>2021-11-07T15:44:44.000Z</time>
      </trkpt>
      <trkpt lat="45.20162" lon="5.88162">
        <ele>729.29</ele>
        <time>2021-11-07T15:44:49.000Z</time>
      </trkpt>
      <trkpt lat="45.20155" lon="5.88137">
        <ele>731.07</ele>
        <time>2021-11-07T15:44:54.000Z</time>
      </trkpt>
      <trkpt lat="45.20152" lon="5.88112">
        <ele>732.2</ele>
        <time>2021-11-07T15:44:59.000Z</time>
      </trkpt>
      <trkpt lat="45.20153" lon="5.88086">
        <ele>730.47</ele>
        <time>2021-11-07T15:45:04.000Z</time>
      </trkpt>
      <trkpt lat="45.20155" lon="5.88065">
        <ele>729.01</ele>
        <time>2021-11-07T15:45:09.000Z</time>
      </trkpt>
      <trkpt lat="45.2015" lon="5.88045">
        <ele>728.22</ele>
        <time>2021-11-07T15:45:14.000Z</time>
      </trkpt>
      <trkpt lat="45.20145" lon="5.88016">
        <ele>731.52</ele>
        <time>2021-11-07T15:45:19.000Z</time>
      </trkpt>
      <trkpt lat="45.20142" lon="5.87976">
        <ele>738.45</ele>
        <time>2021-11-07T15:45:24.000Z</time>
      </trkpt>
      <trkpt lat="45.20138" lon="5.87945">
        <ele>742.89</ele>
        <time>2021-11-07T15:45:29.000Z</time>
      </trkpt>
      <trkpt lat="45.20134" lon="5.87917">
        <ele>746.97</ele>
        <time>2021-11-07T15:45:34.000Z</time>
      </trkpt>
      <trkpt lat="45.2013" lon="5.8789">
        <ele>750.37</ele>
        <time>2021-11-07T15:45:39.000Z</time>
      </trkpt>
      <trkpt lat="45.20126" lon="5.87867">
        <ele>752.75</ele>
        <time>2021-11-07T15:45:44.000Z</time>
      </trkpt>
      <trkpt lat="45.20125" lon="5.87849">
        <ele>752.35</ele>
        <time>2021-11-07T15:45:49.000Z</time>
      </trkpt>
      <trkpt lat="45.20127" lon="5.87825">
        <ele>750.48</ele>
        <time>2021-11-07T15:45:54.000Z</time>
      </trkpt>
      <trkpt lat="45.2013" lon="5.87801">
        <ele>751.84</ele>
        <time>2021-11-07T15:45:59.000Z</time>
      </trkpt>
      <trkpt lat="45.20132" lon="5.87777">
        <ele>749.73</ele>
        <time>2021-11-07T15:46:04.000Z</time>
      </trkpt>
      <trkpt lat="45.20137" lon="5.87751">
        <ele>748.3</ele>
        <time>2021-11-07T15:46:09.000Z</time>
      </trkpt>
      <trkpt lat="45.20137" lon="5.87724">
        <ele>747.64</ele>
        <time>2021-11-07T15:46:14.000Z</time>
      </trkpt>
      <trkpt lat="45.20137" lon="5.87692">
        <ele>748.25</ele>
        <time>2021-11-07T15:46:19.000Z</time>
      </trkpt>
      <trkpt lat="45.20133" lon="5.87664">
        <ele>753.24</ele>
        <time>2021-11-07T15:46:24.000Z</time>
      </trkpt>
      <trkpt lat="45.20128" lon="5.87636">
        <ele>756.33</ele>
        <time>2021-11-07T15:46:29.000Z</time>
      </trkpt>
      <trkpt lat="45.20114" lon="5.87584">
        <ele>756.8</ele>
        <time>2021-11-07T15:46:34.000Z</time>
      </trkpt>
      <trkpt lat="45.20109" lon="5.87532">
        <ele>762.33</ele>
        <time>2021-11-07T15:46:39.000Z</time>
      </trkpt>
      <trkpt lat="45.2011" lon="5.87514">
        <ele>765.8</ele>
        <time>2021-11-07T15:46:44.000Z</time>
      </trkpt>
      <trkpt lat="45.20117" lon="5.87489">
        <ele>763.54</ele>
        <time>2021-11-07T15:46:49.000Z</time>
      </trkpt>
      <trkpt lat="45.20127" lon="5.87463">
        <ele>767.07</ele>
        <time>2021-11-07T15:46:54.000Z</time>
      </trkpt>
      <trkpt lat="45.20137" lon="5.8744">
        <ele>768.74</ele>
        <time>2021-11-07T15:46:59.000Z</time>
      </trkpt>
      <trkpt lat="45.2015" lon="5.87415">
        <ele>774.25</ele>
        <time>2021-11-07T15:47:04.000Z</time>
      </trkpt>
      <trkpt lat="45.20152" lon="5.87383">
        <ele>775.11</ele>
        <time>2021-11-07T15:47:09.000Z</time>
      </trkpt>
      <trkpt lat="45.20141" lon="5.87345">
        <ele>775.37</ele>
        <time>2021-11-07T15:47:14.000Z</time>
      </trkpt>
      <trkpt lat="45.20139" lon="5.87319">
        <ele>776.45</ele>
        <time>2021-11-07T15:47:19.000Z</time>
      </trkpt>
      <trkpt lat="45.20131" lon="5.87295">
        <ele>778.26</ele>
        <time>2021-11-07T15:47:24.000Z</time>
      </trkpt>
      <trkpt lat="45.20119" lon="5.87271">
        <ele>780.52</ele>
        <time>2021-11-07T15:47:29.000Z</time>
      </trkpt>
      <trkpt lat="45.20109" lon="5.8725">
        <ele>783.89</ele>
        <time>2021-11-07T15:47:34.000Z</time>
      </trkpt>
      <trkpt lat="45.20101" lon="5.87229">
        <ele>785.38</ele>
        <time>2021-11-07T15:47:39.000Z</time>
      </trkpt>
      <trkpt lat="45.20091" lon="5.87206">
        <ele>784.16</ele>
        <time>2021-11-07T15:47:44.000Z</time>
      </trkpt>
      <trkpt lat="45.20082" lon="5.87182">
        <ele>786.5</ele>
        <time>2021-11-07T15:47:49.000Z</time>
      </trkpt>
      <trkpt lat="45.20075" lon="5.87154">
        <ele>789.74</ele>
        <time>2021-11-07T15:47:54.000Z</time>
      </trkpt>
      <trkpt lat="45.20068" lon="5.87121">
        <ele>792.85</ele>
        <time>2021-11-07T15:47:59.000Z</time>
      </trkpt>
      <trkpt lat="45.20064" lon="5.87091">
        <ele>794.49</ele>
        <time>2021-11-07T15:48:04.000Z</time>
      </trkpt>
      <trkpt lat="45.20074" lon="5.87071">
        <ele>795.09</ele>
        <time>2021-11-07T15:48:09.000Z</time>
      </trkpt>
      <trkpt lat="45.20085" lon="5.87043">
        <ele>795.35</ele>
        <time>2021-11-07T15:48:14.000Z</time>
      </trkpt>
      <trkpt lat="45.20094" lon="5.87017">
        <ele>796.42</ele>
        <time>2021-11-07T15:48:19.000Z</time>
      </trkpt>
      <trkpt lat="45.20104" lon="5.86987">
        <ele>797.17</ele>
        <time>2021-11-07T15:48:24.000Z</time>
      </trkpt>
      <trkpt lat="45.20112" lon="5.86956">
        <ele>797.34</ele>
        <time>2021-11-07T15:48:29.000Z</time>
      </trkpt>
      <trkpt lat="45.20092" lon="5.86917">
        <ele>791.71</ele>
        <time>2021-11-07T15:48:34.000Z</time>
      </trkpt>
      <trkpt lat="45.20079" lon="5.86885">
        <ele>800.12</ele>
        <time>2021-11-07T15:48:39.000Z</time>
      </trkpt>
      <trkpt lat="45.20058" lon="5.86852">
        <ele>801.19</ele>
        <time>2021-11-07T15:48:44.000Z</time>
      </trkpt>
      <trkpt lat="45.20045" lon="5.86825">
        <ele>805.1</ele>
        <time>2021-11-07T15:48:49.000Z</time>
      </trkpt>
      <trkpt lat="45.20033" lon="5.86803">
        <ele>804.7</ele>
        <time>2021-11-07T15:48:54.000Z</time>
      </trkpt>
      <trkpt lat="45.20022" lon="5.86781">
        <ele>811.81</ele>
        <time>2021-11-07T15:48:59.000Z</time>
      </trkpt>
      <trkpt lat="45.20008" lon="5.86756">
        <ele>810.9</ele>
        <time>2021-11-07T15:49:04.000Z</time>
      </trkpt>
      <trkpt lat="45.19991" lon="5.8674">
        <ele>809.22</ele>
        <time>2021-11-07T15:49:09.000Z</time>
      </trkpt>
      <trkpt lat="45.19971" lon="5.86731">
        <ele>810.96</ele>
        <time>2021-11-07T15:49:14.000Z</time>
      </trkpt>
      <trkpt lat="45.1995" lon="5.86728">
        <ele>812.59</ele>
        <time>2021-11-07T15:49:19.000Z</time>
      </trkpt>
      <trkpt lat="45.19929" lon="5.8673">
        <ele>814.68</ele>
        <time>2021-11-07T15:49:24.000Z</time>
      </trkpt>
      <trkpt lat="45.19905" lon="5.86735">
        <ele>818.05</ele>
        <time>2021-11-07T15:49:29.000Z</time>
      </trkpt>
      <trkpt lat="45.19879" lon="5.86731">
        <ele>825.3</ele>
        <time>2021-11-07T15:49:34.000Z</time>
      </trkpt>
      <trkpt lat="45.19859" lon="5.86729">
        <ele>828.2</ele>
        <time>2021-11-07T15:49:39.000Z</time>
      </trkpt>
      <trkpt lat="45.19836" lon="5.86725">
        <ele>832.21</ele>
        <time>2021-11-07T15:49:44.000Z</time>
      </trkpt>
      <trkpt lat="45.19814" lon="5.86722">
        <ele>836.15</ele>
        <time>2021-11-07T15:49:49.000Z</time>
      </trkpt>
      <trkpt lat="45.19794" lon="5.86718">
        <ele>843.3</ele>
        <time>2021-11-07T15:49:54.000Z</time>
      </trkpt>
      <trkpt lat="45.19774" lon="5.86713">
        <ele>845.53</ele>
        <time>2021-11-07T15:49:59.000Z</time>
      </trkpt>
      <trkpt lat="45.19752" lon="5.86711">
        <ele>848.53</ele>
        <time>2021-11-07T15:50:04.000Z</time>
      </trkpt>
      <trkpt lat="45.19733" lon="5.86719">
        <ele>850.02</ele>
        <time>2021-11-07T15:50:09.000Z</time>
      </trkpt>
      <trkpt lat="45.19718" lon="5.86744">
        <ele>850.78</ele>
        <time>2021-11-07T15:50:14.000Z</time>
      </trkpt>
      <trkpt lat="45.19715" lon="5.86778">
        <ele>851.99</ele>
        <time>2021-11-07T15:50:19.000Z</time>
      </trkpt>
      <trkpt lat="45.19714" lon="5.86813">
        <ele>855.2</ele>
        <time>2021-11-07T15:50:24.000Z</time>
      </trkpt>
      <trkpt lat="45.19706" lon="5.86842">
        <ele>859.18</ele>
        <time>2021-11-07T15:50:29.000Z</time>
      </trkpt>
      <trkpt lat="45.19689" lon="5.86851">
        <ele>859.17</ele>
        <time>2021-11-07T15:50:34.000Z</time>
      </trkpt>
      <trkpt lat="45.19667" lon="5.86853">
        <ele>860.15</ele>
        <time>2021-11-07T15:50:39.000Z</time>
      </trkpt>
      <trkpt lat="45.19646" lon="5.86854">
        <ele>860.34</ele>
        <time>2021-11-07T15:50:44.000Z</time>
      </trkpt>
      <trkpt lat="45.19623" lon="5.86855">
        <ele>862.57</ele>
        <time>2021-11-07T15:50:49.000Z</time>
      </trkpt>
      <trkpt lat="45.19598" lon="5.86858">
        <ele>865.05</ele>
        <time>2021-11-07T15:50:54.000Z</time>
      </trkpt>
      <trkpt lat="45.19577" lon="5.86856">
        <ele>867.49</ele>
        <time>2021-11-07T15:50:59.000Z</time>
      </trkpt>
      <trkpt lat="45.19558" lon="5.8686">
        <ele>868.55</ele>
        <time>2021-11-07T15:51:04.000Z</time>
      </trkpt>
      <trkpt lat="45.1954" lon="5.86872">
        <ele>870.42</ele>
        <time>2021-11-07T15:51:09.000Z</time>
      </trkpt>
      <trkpt lat="45.19529" lon="5.86906">
        <ele>870.76</ele>
        <time>2021-11-07T15:51:14.000Z</time>
      </trkpt>
      <trkpt lat="45.1953" lon="5.86934">
        <ele>872.36</ele>
        <time>2021-11-07T15:51:19.000Z</time>
      </trkpt>
      <trkpt lat="45.19533" lon="5.86965">
        <ele>875.91</ele>
        <time>2021-11-07T15:51:24.000Z</time>
      </trkpt>
      <trkpt lat="45.19537" lon="5.86995">
        <ele>874.42</ele>
        <time>2021-11-07T15:51:29.000Z</time>
      </trkpt>
      <trkpt lat="45.19547" lon="5.8703">
        <ele>874.75</ele>
        <time>2021-11-07T15:51:34.000Z</time>
      </trkpt>
      <trkpt lat="45.19563" lon="5.87062">
        <ele>876.74</ele>
        <time>2021-11-07T15:51:39.000Z</time>
      </trkpt>
      <trkpt lat="45.19582" lon="5.87091">
        <ele>878.96</ele>
        <time>2021-11-07T15:51:44.000Z</time>
      </trkpt>
      <trkpt lat="45.19603" lon="5.87121">
        <ele>877.56</ele>
        <time>2021-11-07T15:51:49.000Z</time>
      </trkpt>
      <trkpt lat="45.19628" lon="5.87154">
        <ele>879.52</ele>
        <time>2021-11-07T15:51:54.000Z</time>
      </trkpt>
      <trkpt lat="45.19649" lon="5.87187">
        <ele>880.16</ele>
        <time>2021-11-07T15:51:59.000Z</time>
      </trkpt>
      <trkpt lat="45.19671" lon="5.87231">
        <ele>881.47</ele>
        <time>2021-11-07T15:52:04.000Z</time>
      </trkpt>
      <trkpt lat="45.19682" lon="5.87282">
        <ele>880.61</ele>
        <time>2021-11-07T15:52:09.000Z</time>
      </trkpt>
      <trkpt lat="45.19678" lon="5.87332">
        <ele>878.94</ele>
        <time>2021-11-07T15:52:14.000Z</time>
      </trkpt>
      <trkpt lat="45.19683" lon="5.87384">
        <ele>874.33</ele>
        <time>2021-11-07T15:52:19.000Z</time>
      </trkpt>
      <trkpt lat="45.19685" lon="5.87423">
        <ele>874.18</ele>
        <time>2021-11-07T15:52:24.000Z</time>
      </trkpt>
      <trkpt lat="45.19681" lon="5.87458">
        <ele>875.96</ele>
        <time>2021-11-07T15:52:29.000Z</time>
      </trkpt>
      <trkpt lat="45.19672" lon="5.87495">
        <ele>876.95</ele>
        <time>2021-11-07T15:52:34.000Z</time>
      </trkpt>
      <trkpt lat="45.19655" lon="5.87526">
        <ele>876.51</ele>
        <time>2021-11-07T15:52:39.000Z</time>
      </trkpt>
      <trkpt lat="45.19638" lon="5.87549">
        <ele>878.35</ele>
        <time>2021-11-07T15:52:44.000Z</time>
      </trkpt>
      <trkpt lat="45.19621" lon="5.8757">
        <ele>877.52</ele>
        <time>2021-11-07T15:52:49.000Z</time>
      </trkpt>
      <trkpt lat="45.19599" lon="5.87598">
        <ele>879.02</ele>
        <time>2021-11-07T15:52:54.000Z</time>
      </trkpt>
      <trkpt lat="45.1958" lon="5.87624">
        <ele>881.02</ele>
        <time>2021-11-07T15:52:59.000Z</time>
      </trkpt>
      <trkpt lat="45.19554" lon="5.87646">
        <ele>884.79</ele>
        <time>2021-11-07T15:53:04.000Z</time>
      </trkpt>
      <trkpt lat="45.19526" lon="5.87666">
        <ele>885.24</ele>
        <time>2021-11-07T15:53:09.000Z</time>
      </trkpt>
      <trkpt lat="45.195" lon="5.87668">
        <ele>883.46</ele>
        <time>2021-11-07T15:53:14.000Z</time>
      </trkpt>
      <trkpt lat="45.19471" lon="5.87667">
        <ele>883.37</ele>
        <time>2021-11-07T15:53:19.000Z</time>
      </trkpt>
      <trkpt lat="45.19444" lon="5.87664">
        <ele>889.23</ele>
        <time>2021-11-07T15:53:24.000Z</time>
      </trkpt>
      <trkpt lat="45.19415" lon="5.87664">
        <ele>891.89</ele>
        <time>2021-11-07T15:53:29.000Z</time>
      </trkpt>
      <trkpt lat="45.19389" lon="5.87667">
        <ele>893.43</ele>
        <time>2021-11-07T15:53:34.000Z</time>
      </trkpt>
      <trkpt lat="45.19366" lon="5.87685">
        <ele>893.91</ele>
        <time>2021-11-07T15:53:39.000Z</time>
      </trkpt>
      <trkpt lat="45.19357" lon="5.87703">
        <ele>892.03</ele>
        <time>2021-11-07T15:53:44.000Z</time>
      </trkpt>
      <trkpt lat="45.19362" lon="5.87691">
        <ele>890.46</ele>
        <time>2021-11-07T15:53:59.000Z</time>
      </trkpt>
      <trkpt lat="45.19372" lon="5.8767">
        <ele>893.18</ele>
        <time>2021-11-07T15:54:04.000Z</time>
      </trkpt>
      <trkpt lat="45.19365" lon="5.87683">
        <ele>893.48</ele>
        <time>2021-11-07T15:54:09.000Z</time>
      </trkpt>
      <trkpt lat="45.1936" lon="5.87693">
        <ele>893.73</ele>
        <time>2021-11-07T15:54:25.000Z</time>
      </trkpt>
      <trkpt lat="45.19356" lon="5.87706">
        <ele>895.1</ele>
        <time>2021-11-07T15:55:04.000Z</time>
      </trkpt>
      <trkpt lat="45.1935" lon="5.87736">
        <ele>895.36</ele>
        <time>2021-11-07T15:55:09.000Z</time>
      </trkpt>
      <trkpt lat="45.19349" lon="5.8777">
        <ele>891.13</ele>
        <time>2021-11-07T15:55:14.000Z</time>
      </trkpt>
      <trkpt lat="45.19349" lon="5.87804">
        <ele>891.17</ele>
        <time>2021-11-07T15:55:19.000Z</time>
      </trkpt>
      <trkpt lat="45.19347" lon="5.87841">
        <ele>891.35</ele>
        <time>2021-11-07T15:55:24.000Z</time>
      </trkpt>
      <trkpt lat="45.19349" lon="5.8788">
        <ele>891.92</ele>
        <time>2021-11-07T15:55:29.000Z</time>
      </trkpt>
      <trkpt lat="45.19358" lon="5.87921">
        <ele>890.15</ele>
        <time>2021-11-07T15:55:34.000Z</time>
      </trkpt>
      <trkpt lat="45.19379" lon="5.87958">
        <ele>888.28</ele>
        <time>2021-11-07T15:55:39.000Z</time>
      </trkpt>
      <trkpt lat="45.19404" lon="5.87996">
        <ele>887.07</ele>
        <time>2021-11-07T15:55:44.000Z</time>
      </trkpt>
      <trkpt lat="45.19431" lon="5.88049">
        <ele>887.05</ele>
        <time>2021-11-07T15:55:49.000Z</time>
      </trkpt>
      <trkpt lat="45.19432" lon="5.88111">
        <ele>881.48</ele>
        <time>2021-11-07T15:55:54.000Z</time>
      </trkpt>
      <trkpt lat="45.19423" lon="5.88172">
        <ele>878.49</ele>
        <time>2021-11-07T15:55:59.000Z</time>
      </trkpt>
      <trkpt lat="45.19387" lon="5.88223">
        <ele>878.09</ele>
        <time>2021-11-07T15:56:04.000Z</time>
      </trkpt>
      <trkpt lat="45.19396" lon="5.88294">
        <ele>878.36</ele>
        <time>2021-11-07T15:56:09.000Z</time>
      </trkpt>
      <trkpt lat="45.1938" lon="5.8834">
        <ele>877.13</ele>
        <time>2021-11-07T15:56:14.000Z</time>
      </trkpt>
      <trkpt lat="45.19373" lon="5.88391">
        <ele>875.36</ele>
        <time>2021-11-07T15:56:19.000Z</time>
      </trkpt>
      <trkpt lat="45.19337" lon="5.88429">
        <ele>868.21</ele>
        <time>2021-11-07T15:56:24.000Z</time>
      </trkpt>
      <trkpt lat="45.19291" lon="5.88445">
        <ele>863.78</ele>
        <time>2021-11-07T15:56:29.000Z</time>
      </trkpt>
      <trkpt lat="45.19242" lon="5.88455">
        <ele>861.25</ele>
        <time>2021-11-07T15:56:34.000Z</time>
      </trkpt>
      <trkpt lat="45.19195" lon="5.88465">
        <ele>860.61</ele>
        <time>2021-11-07T15:56:39.000Z</time>
      </trkpt>
      <trkpt lat="45.19144" lon="5.88457">
        <ele>857.4</ele>
        <time>2021-11-07T15:56:44.000Z</time>
      </trkpt>
      <trkpt lat="45.19097" lon="5.88451">
        <ele>851.64</ele>
        <time>2021-11-07T15:56:49.000Z</time>
      </trkpt>
      <trkpt lat="45.19047" lon="5.88454">
        <ele>847.51</ele>
        <time>2021-11-07T15:56:54.000Z</time>
      </trkpt>
      <trkpt lat="45.19001" lon="5.88455">
        <ele>845.36</ele>
        <time>2021-11-07T15:56:59.000Z</time>
      </trkpt>
      <trkpt lat="45.18953" lon="5.88461">
        <ele>842.46</ele>
        <time>2021-11-07T15:57:04.000Z</time>
      </trkpt>
      <trkpt lat="45.18911" lon="5.8847">
        <ele>843.33</ele>
        <time>2021-11-07T15:57:09.000Z</time>
      </trkpt>
      <trkpt lat="45.18866" lon="5.88477">
        <ele>838.67</ele>
        <time>2021-11-07T15:57:14.000Z</time>
      </trkpt>
      <trkpt lat="45.1882" lon="5.88459">
        <ele>837.56</ele>
        <time>2021-11-07T15:57:19.000Z</time>
      </trkpt>
      <trkpt lat="45.18791" lon="5.88414">
        <ele>835.42</ele>
        <time>2021-11-07T15:57:24.000Z</time>
      </trkpt>
      <trkpt lat="45.18766" lon="5.88375">
        <ele>831.47</ele>
        <time>2021-11-07T15:57:29.000Z</time>
      </trkpt>
      <trkpt lat="45.18742" lon="5.88327">
        <ele>830.57</ele>
        <time>2021-11-07T15:57:34.000Z</time>
      </trkpt>
      <trkpt lat="45.18717" lon="5.88276">
        <ele>827.79</ele>
        <time>2021-11-07T15:57:39.000Z</time>
      </trkpt>
      <trkpt lat="45.1871" lon="5.88217">
        <ele>827.36</ele>
        <time>2021-11-07T15:57:44.000Z</time>
      </trkpt>
      <trkpt lat="45.18715" lon="5.88144">
        <ele>825.29</ele>
        <time>2021-11-07T15:57:49.000Z</time>
      </trkpt>
      <trkpt lat="45.18719" lon="5.88068">
        <ele>818.33</ele>
        <time>2021-11-07T15:57:54.000Z</time>
      </trkpt>
      <trkpt lat="45.18698" lon="5.87984">
        <ele>815.61</ele>
        <time>2021-11-07T15:57:59.000Z</time>
      </trkpt>
      <trkpt lat="45.18658" lon="5.87907">
        <ele>809.82</ele>
        <time>2021-11-07T15:58:04.000Z</time>
      </trkpt>
      <trkpt lat="45.18609" lon="5.87863">
        <ele>806.25</ele>
        <time>2021-11-07T15:58:09.000Z</time>
      </trkpt>
      <trkpt lat="45.18549" lon="5.87827">
        <ele>799.58</ele>
        <time>2021-11-07T15:58:14.000Z</time>
      </trkpt>
      <trkpt lat="45.18482" lon="5.87796">
        <ele>787.14</ele>
        <time>2021-11-07T15:58:19.000Z</time>
      </trkpt>
      <trkpt lat="45.18417" lon="5.8781">
        <ele>780.82</ele>
        <time>2021-11-07T15:58:24.000Z</time>
      </trkpt>
      <trkpt lat="45.18359" lon="5.87869">
        <ele>773.75</ele>
        <time>2021-11-07T15:58:29.000Z</time>
      </trkpt>
      <trkpt lat="45.18304" lon="5.87937">
        <ele>765.99</ele>
        <time>2021-11-07T15:58:34.000Z</time>
      </trkpt>
      <trkpt lat="45.18263" lon="5.88002">
        <ele>760.42</ele>
        <time>2021-11-07T15:58:39.000Z</time>
      </trkpt>
      <trkpt lat="45.18239" lon="5.88014">
        <ele>754.52</ele>
        <time>2021-11-07T15:58:44.000Z</time>
      </trkpt>
      <trkpt lat="45.18259" lon="5.87954">
        <ele>752.02</ele>
        <time>2021-11-07T15:58:49.000Z</time>
      </trkpt>
      <trkpt lat="45.18257" lon="5.87883">
        <ele>749.78</ele>
        <time>2021-11-07T15:58:54.000Z</time>
      </trkpt>
      <trkpt lat="45.18276" lon="5.87799">
        <ele>741.75</ele>
        <time>2021-11-07T15:58:59.000Z</time>
      </trkpt>
      <trkpt lat="45.18293" lon="5.87718">
        <ele>739.59</ele>
        <time>2021-11-07T15:59:04.000Z</time>
      </trkpt>
      <trkpt lat="45.18298" lon="5.87691">
        <ele>732.83</ele>
        <time>2021-11-07T15:59:09.000Z</time>
      </trkpt>
      <trkpt lat="45.18302" lon="5.87663">
        <ele>727.69</ele>
        <time>2021-11-07T15:59:14.000Z</time>
      </trkpt>
      <trkpt lat="45.1831" lon="5.87624">
        <ele>721.45</ele>
        <time>2021-11-07T15:59:19.000Z</time>
      </trkpt>
      <trkpt lat="45.18326" lon="5.87575">
        <ele>724.39</ele>
        <time>2021-11-07T15:59:24.000Z</time>
      </trkpt>
      <trkpt lat="45.18339" lon="5.87527">
        <ele>719.6</ele>
        <time>2021-11-07T15:59:29.000Z</time>
      </trkpt>
      <trkpt lat="45.18352" lon="5.87489">
        <ele>715.66</ele>
        <time>2021-11-07T15:59:34.000Z</time>
      </trkpt>
      <trkpt lat="45.18363" lon="5.87455">
        <ele>713.4</ele>
        <time>2021-11-07T15:59:39.000Z</time>
      </trkpt>
      <trkpt lat="45.18375" lon="5.87417">
        <ele>707.68</ele>
        <time>2021-11-07T15:59:44.000Z</time>
      </trkpt>
      <trkpt lat="45.18384" lon="5.8739">
        <ele>703.73</ele>
        <time>2021-11-07T15:59:49.000Z</time>
      </trkpt>
      <trkpt lat="45.18376" lon="5.87385">
        <ele>695.85</ele>
        <time>2021-11-07T16:00:03.000Z</time>
      </trkpt>
      <trkpt lat="45.18378" lon="5.87387">
        <ele>694.93</ele>
        <time>2021-11-07T16:04:14.000Z</time>
      </trkpt>
    </trkseg>
  </trk>
</gpx>